Provisional Data: Sterling Run near Sterling Run, PA


Please select a monitoring station.
Please select start date.
Please select start date.

Toggle Unit: C/F Toggle Unit: C/F
Sample Time Temperature (C) Temperature (F) Specific Conductivity (mS/cm) pH   Turbidity (NTU+) DO (mg/L)
10/22/2021 12:00:00 AM 12.95 55.31 0.08 6.59 10.03 7.39
10/22/2021 12:15:00 AM 12.88 55.184 0.081 6.7 9.51 8.15
10/22/2021 12:30:00 AM 12.8 55.04 0.079 6.74 9.29 8.85
10/22/2021 12:45:00 AM 12.75 54.95 0.078 6.75 9.42 9.13
10/22/2021 1:00:00 AM 12.72 54.896 0.078 6.66 9.91 9.08
10/22/2021 1:15:00 AM 12.71 54.878 0.078 6.72 9.67 9.31
10/22/2021 1:30:00 AM 12.69 54.842 0.078 6.76 9.85 9.33
10/22/2021 1:45:00 AM 12.67 54.806 0.078 6.75 10.11 9.33
10/22/2021 2:00:00 AM 12.65 54.77 0.076 6.72 9.98 9.59
10/22/2021 2:15:00 AM 12.62 54.716 0.077 6.78 10.65 9.41
10/22/2021 2:30:00 AM 12.6 54.68 0.078 6.75 10.48 9.78
10/22/2021 2:45:00 AM 12.57 54.626 0.079 6.81 10.31 9.74
10/22/2021 3:00:00 AM 12.56 54.608 0.079 6.79 9.84 9.66
10/22/2021 3:15:00 AM 12.54 54.572 0.079 6.73 9.74 9.48
10/22/2021 3:30:00 AM 12.53 54.554 0.079 6.79 10.07 9.78
10/22/2021 3:45:00 AM 12.51 54.518 0.08 6.78 10.44 9.89
10/22/2021 4:00:00 AM 12.5 54.5 0.08 6.78 10.26 9.9
10/22/2021 4:15:00 AM 12.49 54.482 0.08 6.79 10.47 9.81
10/22/2021 4:30:00 AM 12.48 54.464 0.081 6.78 10.71 9.96
10/22/2021 4:45:00 AM 12.46 54.428 0.081 6.78 10.4 9.99
10/22/2021 5:00:00 AM 12.45 54.41 0.081 6.77 10.12 9.85
10/22/2021 5:15:00 AM 12.44 54.392 0.081 6.77 9.78 9.94
10/22/2021 5:30:00 AM 12.43 54.374 0.081 6.76 10.19 9.95
10/22/2021 5:45:00 AM 12.41 54.338 0.081 6.76 9.92 9.96
10/22/2021 6:00:00 AM 12.4 54.32 0.08 6.73 9.8 9.97
10/22/2021 6:15:00 AM 12.39 54.302 0.08 6.76 9.68 9.93
10/22/2021 6:30:00 AM 12.38 54.284 0.08 6.76 9.41 9.93
10/22/2021 6:45:00 AM 12.37 54.266 0.08 6.73 9.55 9.89
10/22/2021 7:00:00 AM 12.36 54.248 0.08 6.75 9.44 9.79
10/22/2021 7:15:00 AM 12.35 54.23 0.08 6.75 9.39 9.82
10/22/2021 7:30:00 AM 12.35 54.23 0.08 6.75 9.46 9.74
10/22/2021 7:45:00 AM 12.33 54.194 0.08 6.72 9.36 9.86
10/22/2021 8:00:00 AM 12.33 54.194 0.08 6.76 9.15 9.9
10/22/2021 8:15:00 AM 12.33 54.194 0.08 6.76 9.12 9.88
10/22/2021 8:30:00 AM 12.33 54.194 0.079 6.77 9.22 9.83
10/22/2021 8:45:00 AM 12.34 54.212 0.079 6.77 9.07 9.88
10/22/2021 9:00:00 AM 12.35 54.23 0.079 6.76 8.86 9.9
10/22/2021 9:15:00 AM 12.38 54.284 0.079 6.79 8.76 9.98
10/22/2021 9:30:00 AM 12.41 54.338 0.079 6.8 9.13 9.99
10/22/2021 9:45:00 AM 12.46 54.428 0.079 6.81 9.09 10.08
10/22/2021 10:00:00 AM 12.48 54.464 0.078 6.82 8.95 10.08
10/22/2021 10:15:00 AM 12.48 54.464 0.078 6.82 8.87 10.04
10/22/2021 10:30:00 AM 12.5 54.5 0.078 6.82 8.79 10.08
10/22/2021 10:45:00 AM 12.58 54.644 0.078 6.79 8.96 10.16
10/22/2021 11:00:00 AM 12.72 54.896 0.077 6.85 8.74 10.11
10/22/2021 11:15:00 AM 12.83 55.094 0.077 6.85 9.08 10.17
10/22/2021 11:30:00 AM 12.93 55.274 0.077 6.85 8.97 10.14
10/22/2021 11:45:00 AM 12.88 55.184 0.077 6.87 8.8 10.13
10/22/2021 12:00:00 PM 12.87 55.166 0.076 6.87 8.82 10.11
10/22/2021 12:15:00 PM 12.97 55.346 0.076 6.88 8.78 10.1
10/22/2021 12:30:00 PM 12.99 55.382 0.077 6.86 8.55 10.11
10/22/2021 12:45:00 PM 13.03 55.454 0.077 6.89 8.64 10.11
10/22/2021 1:00:00 PM 13.03 55.454 0.077 6.86 8.67 10.06
10/22/2021 1:15:00 PM 13.11 55.598 0.077 6.88 8.73 10.1
10/22/2021 1:30:00 PM 13.15 55.67 0.077 6.89 8.51 10.09
10/22/2021 1:45:00 PM 13.09 55.562 0.077 6.85 8.62 10.03
10/22/2021 2:00:00 PM 13.07 55.526 0.077 6.86 8.56 10.07
10/22/2021 2:15:00 PM 13.08 55.544 0.076 6.88 8.64 10.02
10/22/2021 2:30:00 PM 13.12 55.616 0.076 6.88 8.63 10.05
10/22/2021 2:45:00 PM 13.13 55.634 0.077 6.87 8.44 10.01
10/22/2021 3:00:00 PM 13.08 55.544 0.076 6.87 8.39 10
10/22/2021 3:15:00 PM 13.06 55.508 0.076 6.87 8.42 10
10/22/2021 3:30:00 PM 12.97 55.346 0.076 6.86 8.46 9.88
10/22/2021 3:45:00 PM 12.93 55.274 0.076 6.86 8.44 9.99
10/22/2021 4:00:00 PM 12.93 55.274 0.076 6.86 8.43 10.02
10/22/2021 4:15:00 PM 12.92 55.256 0.076 6.81 8.55 10.03
10/22/2021 4:30:00 PM 12.9 55.22 0.076 6.87 8.42 9.97
10/22/2021 4:45:00 PM 12.89 55.202 0.076 6.85 8.37 9.99
10/22/2021 5:00:00 PM 12.85 55.13 0.076 6.82 8.37 9.98
10/22/2021 5:15:00 PM 12.82 55.076 0.076 6.85 8.15 9.91
10/22/2021 5:30:00 PM 12.77 54.986 0.076 6.83 8.48 9.99
10/22/2021 5:45:00 PM 12.7 54.86 0.076 6.78 8.26 9.91
10/22/2021 6:00:00 PM 12.63 54.734 0.077 6.82 8.26 9.9
10/22/2021 6:15:00 PM 12.59 54.662 0.077 6.81 8.25 9.8
10/22/2021 6:30:00 PM 12.55 54.59 0.077 6.77 8.34 9.77
10/22/2021 6:45:00 PM 12.49 54.482 0.077 6.78 8.28 9.81
10/22/2021 7:00:00 PM 12.44 54.392 0.077 6.77 8.3 9.75
10/22/2021 7:15:00 PM 12.39 54.302 0.077 6.78 8.35 9.81
10/22/2021 7:30:00 PM 12.34 54.212 0.077 6.77 8.25 9.9
10/22/2021 7:45:00 PM 12.31 54.158 0.077 6.78 8.35 9.85
10/22/2021 8:00:00 PM 12.27 54.086 0.076 6.77 8.35 9.8
10/22/2021 8:15:00 PM 12.21 53.978 0.076 6.76 8.43 9.84
10/22/2021 8:30:00 PM 12.16 53.888 0.076 6.77 8.42 9.79
10/22/2021 8:45:00 PM 12.11 53.798 0.076 6.77 8.34 9.92
10/22/2021 9:00:00 PM 12.07 53.726 0.076 6.75 8.34 9.91
10/22/2021 9:15:00 PM 12.04 53.672 0.076 6.74 8.55 9.93
10/22/2021 9:30:00 PM 12.01 53.618 0.076 6.74 8.32 9.92
10/22/2021 9:45:00 PM 11.99 53.582 0.076 6.77 8.41 9.91
10/22/2021 10:00:00 PM 11.96 53.528 0.076 6.76 8.38 9.9
10/22/2021 10:15:00 PM 11.93 53.474 0.076 6.73 8.36 9.9
10/22/2021 10:30:00 PM 11.9 53.42 0.076 6.71 8.64 9.9
10/22/2021 10:45:00 PM 11.88 53.384 0.076 6.72 8.35 9.91
10/22/2021 11:00:00 PM 11.86 53.348 0.076 6.75 8.41 9.85
10/22/2021 11:15:00 PM 11.83 53.294 0.075 6.75 8.43 9.89
10/22/2021 11:30:00 PM 11.81 53.258 0.075 6.74 8.03 9.93
10/22/2021 11:45:00 PM 11.78 53.204 0.075 6.71 7.94 9.96
10/23/2021 12:00:00 AM 11.76 53.168 0.075 6.72 8.1 9.89
10/23/2021 12:15:00 AM 11.73 53.114 0.075 6.75 8.13 9.93
10/23/2021 12:30:00 AM 11.71 53.078 0.075 6.7 8.19 9.98
10/23/2021 12:45:00 AM 11.67 53.006 0.075 6.74 8.12 9.94
10/23/2021 1:00:00 AM 11.65 52.97 0.075 6.75 8.05 9.96
10/23/2021 1:15:00 AM 11.62 52.916 0.075 6.75 8.04 9.99
10/23/2021 1:30:00 AM 11.6 52.88 0.075 6.7 8.09 9.9
10/23/2021 1:45:00 AM 11.58 52.844 0.075 6.74 8.16 9.97
10/23/2021 2:00:00 AM 11.54 52.772 0.075 6.75 8.06 10
10/23/2021 2:15:00 AM 11.52 52.736 0.075 6.74 8.08 9.96
10/23/2021 2:30:00 AM 11.49 52.682 0.075 6.75 8.07 9.96
10/23/2021 2:45:00 AM 11.47 52.646 0.075 6.75 8.03 10.01
10/23/2021 3:00:00 AM 11.45 52.61 0.075 6.75 8.06 10.04
10/23/2021 3:15:00 AM 11.42 52.556 0.076 6.73 8 10.07
10/23/2021 3:30:00 AM 11.4 52.52 0.076 6.75 8.01 10.03
10/23/2021 3:45:00 AM 11.37 52.466 0.075 6.74 7.99 10.01
10/23/2021 4:00:00 AM 11.33 52.394 0.076 6.75 8.17 10.1
10/23/2021 4:15:00 AM 11.31 52.358 0.075 6.74 8.08 10.05
10/23/2021 4:30:00 AM 11.29 52.322 0.076 6.73 8.08 9.95
10/23/2021 4:45:00 AM 11.27 52.286 0.075 6.73 8.17 9.99
10/23/2021 5:00:00 AM 11.24 52.232 0.076 6.75 8.1 10.08
10/23/2021 5:15:00 AM 11.22 52.196 0.075 6.68 8.27 10.08
10/23/2021 5:30:00 AM 11.2 52.16 0.075 6.74 8.12 10.05
10/23/2021 5:45:00 AM 11.19 52.142 0.076 6.71 8.08 9.95
10/23/2021 6:00:00 AM 11.17 52.106 0.075 6.68 8.08 10.07
10/23/2021 6:15:00 AM 11.15 52.07 0.075 6.73 8.12 10.07
10/23/2021 6:30:00 AM 11.13 52.034 0.076 6.75 8.12 10.15
10/23/2021 6:45:00 AM 11.11 51.998 0.076 6.73 8.19 10.12
10/23/2021 7:00:00 AM 11.1 51.98 0.075 6.68 8.09 10.06
10/23/2021 7:15:00 AM 11.08 51.944 0.075 6.74 8.16 10.12
10/23/2021 7:30:00 AM 11.06 51.908 0.075 6.74 8.13 10.16
10/23/2021 7:45:00 AM 11.04 51.872 0.075 6.74 8.21 10.14
10/23/2021 8:00:00 AM 11.03 51.854 0.075 6.75 8.21 10.15
10/23/2021 8:15:00 AM 11.02 51.836 0.075 6.75 8.16 10.24
10/23/2021 8:30:00 AM 11.03 51.854 0.075 6.76 8.07 10.31
10/23/2021 8:45:00 AM 11.04 51.872 0.075 6.77 8.06 10.3
10/23/2021 9:00:00 AM 11.04 51.872 0.075 6.77 8.07 10.3
10/23/2021 9:15:00 AM 11.05 51.89 0.075 6.77 8.11 10.31
10/23/2021 9:30:00 AM 11.05 51.89 0.075 6.74 8.04 10.39
10/23/2021 9:45:00 AM 11.06 51.908 0.075 6.78 8.15 10.34
10/23/2021 10:00:00 AM 11.08 51.944 0.074 6.79 8.05 10.41
10/23/2021 10:15:00 AM 11.09 51.962 0.075 6.8 8.13 10.32
10/23/2021 10:30:00 AM 11.11 51.998 0.074 6.82 8.07 10.44
10/23/2021 10:45:00 AM 11.12 52.016 0.074 6.81 8.16 10.42
10/23/2021 11:00:00 AM 11.1 51.98 0.074 6.81 8.03 10.42
10/23/2021 11:15:00 AM 11.1 51.98 0.074 6.81 8.01 10.38
10/23/2021 11:30:00 AM 11.15 52.07 0.074 6.78 8.04 10.42
10/23/2021 11:45:00 AM 11.22 52.196 0.074 6.82 7.98 10.44
10/23/2021 12:00:00 PM 11.31 52.358 0.074 6.84 7.98 10.65
10/23/2021 12:15:00 PM 11.39 52.502 0.074 6.86 7.99 10.55
10/23/2021 12:30:00 PM 11.46 52.628 0.074 6.86 8.27 10.53
10/23/2021 12:45:00 PM 11.55 52.79 0.074 6.82 7.96 10.56
10/23/2021 1:00:00 PM 11.61 52.898 0.074 6.87 8.12 10.51
10/23/2021 1:15:00 PM 11.63 52.934 0.074 6.89 8.01 10.51
10/23/2021 1:30:00 PM 11.66 52.988 0.074 6.88 7.89 10.5
10/23/2021 1:45:00 PM 11.69 53.042 0.074 6.84 7.84 10.47
10/23/2021 2:00:00 PM 11.73 53.114 0.074 6.88 7.93 10.46
10/23/2021 2:15:00 PM 11.74 53.132 0.074 6.9 7.96 10.5
10/23/2021 2:30:00 PM 11.73 53.114 0.073 6.85 7.39 10.46
10/23/2021 2:45:00 PM 11.73 53.114 0.074 6.89 7.78 10.24
10/23/2021 3:00:00 PM 11.8 53.24 0.074 6.88 7.9 10.44
10/23/2021 3:15:00 PM 11.84 53.312 0.074 6.86 7.81 10.46
10/23/2021 3:30:00 PM 11.85 53.33 0.074 6.89 7.79 10.42
10/23/2021 3:45:00 PM 11.83 53.294 0.074 6.89 7.76 10.34
10/23/2021 4:00:00 PM 11.81 53.258 0.074 6.87 7.83 10.33
10/23/2021 4:15:00 PM 11.79 53.222 0.074 6.86 7.89 10.28
10/23/2021 4:30:00 PM 11.77 53.186 0.074 6.86 7.88 10.29
10/23/2021 4:45:00 PM 11.74 53.132 0.074 6.84 7.86 10.21
10/23/2021 5:00:00 PM 11.73 53.114 0.074 6.85 8 10.26
10/23/2021 5:15:00 PM 11.7 53.06 0.074 6.84 8.01 10.3
10/23/2021 5:30:00 PM 11.64 52.952 0.075 6.83 8.09 10.21
10/23/2021 5:45:00 PM 11.59 52.862 0.075 6.81 8.14 10.26
10/23/2021 6:00:00 PM 11.56 52.808 0.075 6.81 8.34 10.14
10/23/2021 6:15:00 PM 11.52 52.736 0.074 6.8 8.08 10.23
10/23/2021 6:30:00 PM 11.47 52.646 0.075 6.8 8.06 10.16
10/23/2021 6:45:00 PM 11.43 52.574 0.075 6.74 7.88 10.13
10/23/2021 7:00:00 PM 11.39 52.502 0.075 6.76 8.04 10.11
10/23/2021 7:15:00 PM 11.36 52.448 0.075 6.76 7.95 10.12
10/23/2021 7:30:00 PM 11.33 52.394 0.075 6.76 8.03 10.16
10/23/2021 7:45:00 PM 11.3 52.34 0.075 6.78 8.18 10.08
10/23/2021 8:00:00 PM 11.26 52.268 0.075 6.72 8.14 10.16
10/23/2021 8:15:00 PM 11.23 52.214 0.075 6.74 8.11 10.13
10/23/2021 8:30:00 PM 11.21 52.178 0.075 6.74 8.15 10.13
10/23/2021 8:45:00 PM 11.18 52.124 0.075 6.75 8.21 10.1
10/23/2021 9:00:00 PM 11.15 52.07 0.075 6.77 8.18 10.12
10/23/2021 9:15:00 PM 11.12 52.016 0.075 6.71 8.16 10.13
10/23/2021 9:30:00 PM 11.09 51.962 0.075 6.78 8.25 10.18
10/23/2021 9:45:00 PM 11.07 51.926 0.075 6.75 8.27 10.2
10/23/2021 10:00:00 PM 11.05 51.89 0.075 6.71 8.05 10.22
10/23/2021 10:15:00 PM 11.04 51.872 0.075 6.77 8.27 10.26
10/23/2021 10:30:00 PM 11.01 51.818 0.075 6.75 8.38 10.22
10/23/2021 10:45:00 PM 10.98 51.764 0.075 6.73 8.42 10.24
10/23/2021 11:00:00 PM 10.96 51.728 0.076 6.77 8.21 10.07
10/23/2021 11:15:00 PM 10.95 51.71 0.075 6.76 8.37 10.22
10/23/2021 11:30:00 PM 10.93 51.674 0.075 6.74 8.29 10.13
10/23/2021 11:45:00 PM 10.91 51.638 0.075 6.72 8.25 10.19
10/24/2021 12:00:00 AM 10.89 51.602 0.075 6.73 8.31 10.22
10/24/2021 12:15:00 AM 10.86 51.548 0.075 6.75 8.38 10.22
10/24/2021 12:30:00 AM 10.84 51.512 0.075 6.75 8.41 10.24
10/24/2021 12:45:00 AM 10.8 51.44 0.075 6.74 8.4 10.19
10/24/2021 1:00:00 AM 10.78 51.404 0.076 6.74 8.25 10.21
10/24/2021 1:15:00 AM 10.78 51.404 0.076 6.74 8.1 10.24
10/24/2021 1:30:00 AM 10.76 51.368 0.076 6.72 8.16 10.24
10/24/2021 1:45:00 AM 10.71 51.278 0.076 6.71 8.12 10.26
10/24/2021 2:00:00 AM 10.68 51.224 0.075 6.75 8.2 10.29
10/24/2021 2:15:00 AM 10.64 51.152 0.076 6.74 8.1 10.23
10/24/2021 2:30:00 AM 10.6 51.08 0.076 6.75 8 10.25
10/24/2021 2:45:00 AM 10.57 51.026 0.076 6.74 7.93 10.25
10/24/2021 3:00:00 AM 10.57 51.026 0.076 6.73 7.99 10.29
10/24/2021 3:15:00 AM 10.54 50.972 0.076 6.74 8.06 10.26
10/24/2021 3:30:00 AM 10.54 50.972 0.076 6.74 8.12 10.29
10/24/2021 3:45:00 AM 10.52 50.936 0.076 6.73 8.09 10.29
10/24/2021 4:00:00 AM 10.5 50.9 0.075 6.74 8.23 10.35
10/24/2021 4:15:00 AM 10.49 50.882 0.076 6.73 8.27 10.28
10/24/2021 4:30:00 AM 10.48 50.864 0.075 6.75 8.24 10.3
10/24/2021 4:45:00 AM 10.47 50.846 0.076 6.74 8.26 10.25
10/24/2021 5:00:00 AM 10.45 50.81 0.075 6.75 8.34 10.28
10/24/2021 5:15:00 AM 10.43 50.774 0.075 6.72 8.22 10.24
10/24/2021 5:30:00 AM 10.42 50.756 0.075 6.69 8.17 10.36
10/24/2021 5:45:00 AM 10.4 50.72 0.076 6.74 8.29 10.3
10/24/2021 6:00:00 AM 10.39 50.702 0.075 6.68 8.28 10.31
10/24/2021 6:15:00 AM 10.37 50.666 0.075 6.72 8.26 10.31
10/24/2021 6:30:00 AM 10.35 50.63 0.075 6.74 8.34 10.26
10/24/2021 6:45:00 AM 10.34 50.612 0.075 6.74 8.15 10.38
10/24/2021 7:00:00 AM 10.32 50.576 0.075 6.69 8.17 10.35
10/24/2021 7:15:00 AM 10.29 50.522 0.075 6.74 8.22 10.4
10/24/2021 7:30:00 AM 10.28 50.504 0.075 6.7 8.26 10.43
10/24/2021 7:45:00 AM 10.28 50.504 0.075 6.75 8.06 10.38
10/24/2021 8:00:00 AM 10.27 50.486 0.075 6.75 7.38 10.43
10/24/2021 8:15:00 AM 10.26 50.468 0.076 6.75 7.05 10.4
10/24/2021 8:30:00 AM 10.26 50.468 0.075 6.76 7.74 10.48
10/24/2021 8:45:00 AM 10.25 50.45 0.075 6.77 7.71 10.55
10/24/2021 9:00:00 AM 10.25 50.45 0.076 6.77 8.02 10.47
10/24/2021 9:15:00 AM 10.27 50.486 0.076 6.77 8.02 10.58
10/24/2021 9:30:00 AM 10.3 50.54 0.075 6.78 8.08 10.63
10/24/2021 9:45:00 AM 10.3 50.54 0.076 6.79 7.98 10.54
10/24/2021 10:00:00 AM 10.34 50.612 0.075 6.82 8.16 10.67
10/24/2021 10:15:00 AM 10.38 50.684 0.075 6.83 8.1 10.72
10/24/2021 10:30:00 AM 10.43 50.774 0.075 6.78 8.47 10.78
10/24/2021 10:45:00 AM 10.49 50.882 0.075 6.8 8.73 10.76
10/24/2021 11:00:00 AM 10.56 51.008 0.075 6.86 8.18 10.74
10/24/2021 11:15:00 AM 10.58 51.044 0.075 6.86 8.14 10.78
10/24/2021 11:30:00 AM 10.61 51.098 0.075 6.85 8.07 10.69
10/24/2021 11:45:00 AM 10.63 51.134 0.075 6.86 8.13 10.75
10/24/2021 12:00:00 PM 10.66 51.188 0.075 6.84 8.16 10.72
10/24/2021 12:15:00 PM 10.71 51.278 0.075 6.86 7.97 10.77
10/24/2021 12:30:00 PM 10.8 51.44 0.074 6.86 8.21 10.73
10/24/2021 12:45:00 PM 10.9 51.62 0.075 6.87 8.04 10.78
10/24/2021 1:00:00 PM 11 51.8 0.075 6.86 8.14 10.8
10/24/2021 1:15:00 PM 11.12 52.016 0.074 6.88 8.15 10.82
10/24/2021 1:30:00 PM 11.17 52.106 0.075 6.84 8.01 10.74
10/24/2021 1:45:00 PM 11.2 52.16 0.074 6.89 8.05 10.74
10/24/2021 2:00:00 PM 11.25 52.25 0.075 6.86 8.15 10.71
10/24/2021 2:15:00 PM 11.27 52.286 0.075 6.88 8.05 10.62
10/24/2021 2:30:00 PM 11.27 52.286 0.075 6.86 8.04 10.57
10/24/2021 2:45:00 PM 11.27 52.286 0.074 6.83 7.97 10.53
10/24/2021 3:00:00 PM 11.29 52.322 0.074 6.86 8.15 10.49
10/24/2021 3:15:00 PM 11.31 52.358 0.075 6.86 8.15 10.53
10/24/2021 3:30:00 PM 11.31 52.358 0.075 6.79 8.16 10.46
10/24/2021 3:45:00 PM 11.32 52.376 0.075 6.84 7.93 10.51
10/24/2021 4:00:00 PM 11.33 52.394 0.075 6.84 8.16 10.47
10/24/2021 4:15:00 PM 11.34 52.412 0.075 6.82 8.07 10.45
10/24/2021 4:30:00 PM 11.34 52.412 0.075 6.79 8.05 10.41
10/24/2021 4:45:00 PM 11.34 52.412 0.075 6.83 8.11 10.39
10/24/2021 5:00:00 PM 11.34 52.412 0.075 6.82 7.99 10.35
10/24/2021 5:15:00 PM 11.33 52.394 0.075 6.81 8.21 10.35
10/24/2021 5:30:00 PM 11.32 52.376 0.075 6.8 7.83 10.37
10/24/2021 5:45:00 PM 11.31 52.358 0.074 6.8 8.38 10.33
10/24/2021 6:00:00 PM 11.3 52.34 0.074 6.73 8.32 10.27
10/24/2021 6:15:00 PM 11.28 52.304 0.074 6.78 8.32 10.24
10/24/2021 6:30:00 PM 11.27 52.286 0.074 6.78 8.49 10.18
10/24/2021 6:45:00 PM 11.25 52.25 0.074 6.77 8.14 10.26
10/24/2021 7:00:00 PM 11.24 52.232 0.074 6.77 8.2 10.24
10/24/2021 7:15:00 PM 11.22 52.196 0.074 6.76 8.18 10.21
10/24/2021 7:30:00 PM 11.21 52.178 0.074 6.76 8.24 10.28
10/24/2021 7:45:00 PM 11.21 52.178 0.074 6.75 8.36 10.22
10/24/2021 8:00:00 PM 11.2 52.16 0.074 6.76 8.29 10.19
10/24/2021 8:15:00 PM 11.19 52.142 0.074 6.75 8.34 10.21
10/24/2021 8:30:00 PM 11.19 52.142 0.074 6.75 8.15 10.2
10/24/2021 8:45:00 PM 11.18 52.124 0.074 6.75 7.84 10.17
10/24/2021 9:00:00 PM 11.18 52.124 0.074 6.75 8.48 10.19
10/24/2021 9:15:00 PM 11.17 52.106 0.074 6.73 8.26 10.22
10/24/2021 9:30:00 PM 11.17 52.106 0.074 6.72 8.3 10.27
10/24/2021 9:45:00 PM 11.16 52.088 0.074 6.75 8.24 10.21
10/24/2021 10:00:00 PM 11.16 52.088 0.074 6.74 8.29 10.25
10/24/2021 10:15:00 PM 11.16 52.088 0.073 6.7 8.2 10.17
10/24/2021 10:30:00 PM 11.16 52.088 0.073 6.75 8.32 10.2
10/24/2021 10:45:00 PM 11.16 52.088 0.073 6.73 8.3 10.14
10/24/2021 11:00:00 PM 11.16 52.088 0.074 6.7 8.46 10.14
10/24/2021 11:15:00 PM 11.17 52.106 0.074 6.75 8.38 10.2
10/24/2021 11:30:00 PM 11.17 52.106 0.074 6.74 8.51 10.12
10/24/2021 11:45:00 PM 11.17 52.106 0.074 6.75 8.65 10.18
10/25/2021 12:00:00 AM 11.18 52.124 0.074 6.73 8.7 10.21
10/25/2021 12:15:00 AM 11.18 52.124 0.074 6.77 8.75 10.19
10/25/2021 12:30:00 AM 11.18 52.124 0.074 6.76 8.74 10.22
10/25/2021 12:45:00 AM 11.18 52.124 0.074 6.76 8.62 10.26
10/25/2021 1:00:00 AM 11.18 52.124 0.073 6.78 9.02 10.3
10/25/2021 1:15:00 AM 11.18 52.124 0.073 6.76 8.85 10.27
10/25/2021 1:30:00 AM 11.18 52.124 0.073 6.78 8.94 10.27
10/25/2021 1:45:00 AM 11.18 52.124 0.073 6.77 9.48 10.27
10/25/2021 2:00:00 AM 11.18 52.124 0.073 6.77 8.88 10.3
10/25/2021 2:15:00 AM 11.17 52.106 0.073 6.72 9.05 10.27
10/25/2021 2:30:00 AM 11.15 52.07 0.073 6.78 9.37 10.24
10/25/2021 2:45:00 AM 11.13 52.034 0.073 6.77 9.06 10.23
10/25/2021 3:00:00 AM 11.11 51.998 0.073 6.77 9.27 10.25
10/25/2021 3:15:00 AM 11.1 51.98 0.073 6.77 9.01 10.31
10/25/2021 3:30:00 AM 11.09 51.962 0.073 6.77 9.32 10.33
10/25/2021 3:45:00 AM 11.07 51.926 0.073 6.76 9.12 10.26
10/25/2021 4:00:00 AM 11.06 51.908 0.074 6.72 9.13 10.34
10/25/2021 4:15:00 AM 11.06 51.908 0.074 6.74 9.28 10.36
10/25/2021 4:30:00 AM 11.05 51.89 0.074 6.74 9.34 10.4
10/25/2021 4:45:00 AM 11.03 51.854 0.074 6.74 9.46 10.33
10/25/2021 5:00:00 AM 11.03 51.854 0.075 6.77 9.76 10.35
10/25/2021 5:15:00 AM 11.02 51.836 0.075 6.76 9.72 10.33
10/25/2021 5:30:00 AM 11 51.8 0.075 6.75 9.85 10.37
10/25/2021 5:45:00 AM 10.99 51.782 0.076 6.75 9.91 10.39
10/25/2021 6:00:00 AM 10.98 51.764 0.076 6.73 9.78 10.4
10/25/2021 6:15:00 AM 10.96 51.728 0.076 6.7 9.95 10.36
10/25/2021 6:30:00 AM 10.95 51.71 0.077 6.74 9.83 10.36
10/25/2021 6:45:00 AM 10.92 51.656 0.077 6.73 9.79 10.35
10/25/2021 7:00:00 AM 10.91 51.638 0.077 6.72 9.96 10.37
10/25/2021 7:15:00 AM 10.9 51.62 0.077 6.72 9.69 10.43
10/25/2021 7:30:00 AM 10.88 51.584 0.077 6.72 9.66 10.47
10/25/2021 7:45:00 AM 10.87 51.566 0.077 6.67 9.67 10.44
10/25/2021 8:00:00 AM 10.86 51.548 0.077 6.72 9.6 10.44
10/25/2021 8:15:00 AM 10.86 51.548 0.078 6.68 9.67 10.48
10/25/2021 8:30:00 AM 10.87 51.566 0.078 6.7 9.5 10.48
10/25/2021 8:45:00 AM 10.89 51.602 0.078 6.74 9.63 10.52
10/25/2021 9:00:00 AM 10.9 51.62 0.078 6.73 9.42 10.51
10/25/2021 9:15:00 AM 10.93 51.674 0.077 6.74 9.75 10.55
10/25/2021 9:30:00 AM 10.96 51.728 0.077 6.74 9.36 10.57
10/25/2021 9:45:00 AM 11.03 51.854 0.077 6.75 9.31 10.57
10/25/2021 10:00:00 AM 11.1 51.98 0.077 6.73 9.33 10.59
10/25/2021 10:15:00 AM 11.16 52.088 0.077 6.78 9.33 10.64
10/25/2021 10:30:00 AM 11.23 52.214 0.077 6.73 9.19 10.61
10/25/2021 10:45:00 AM 11.31 52.358 0.076 6.77 9.2 10.62
10/25/2021 11:00:00 AM 11.42 52.556 0.076 6.79 9.27 10.58
10/25/2021 11:15:00 AM 11.52 52.736 0.076 6.78 9.24 10.52
10/25/2021 11:30:00 AM 11.62 52.916 0.075 6.75 9.11 10.52
10/25/2021 11:45:00 AM 11.74 53.132 0.075 6.79 9.24 10.45
10/25/2021 12:00:00 PM 11.86 53.348 0.075 6.78 9.37 10.43
10/25/2021 12:15:00 PM 11.96 53.528 0.075 6.8 9.16 10.46
10/25/2021 12:30:00 PM 12.06 53.708 0.075 6.8 9.27 10.44
10/25/2021 12:45:00 PM 12.16 53.888 0.074 6.79 9.36 10.4
10/25/2021 1:00:00 PM 12.23 54.014 0.074 6.82 9.07 10.41
10/25/2021 1:15:00 PM 12.27 54.086 0.074 6.83 9.05 10.4
10/25/2021 1:30:00 PM 12.35 54.23 0.074 6.83 8.92 10.39
10/25/2021 1:45:00 PM 12.46 54.428 0.074 6.83 9.03 10.33
10/25/2021 2:00:00 PM 12.51 54.518 0.074 6.82 8.88 10.3
10/25/2021 2:15:00 PM 12.6 54.68 0.074 6.82 8.93 10.29
10/25/2021 2:30:00 PM 12.69 54.842 0.073 6.84 8.93 10.3
10/25/2021 2:45:00 PM 12.7 54.86 0.073 6.82 8.96 10.23
10/25/2021 3:00:00 PM 12.74 54.932 0.073 6.83 9.02 10.19
10/25/2021 3:15:00 PM 12.76 54.968 0.073 6.8 8.81 10.24
10/25/2021 3:30:00 PM 12.81 55.058 0.073 6.79 8.98 10.23
10/25/2021 3:45:00 PM 12.82 55.076 0.073 6.8 8.79 10.19
10/25/2021 4:00:00 PM 12.81 55.058 0.073 6.79 8.68 10.17
10/25/2021 4:15:00 PM 12.81 55.058 0.073 6.81 9.08 10.14
10/25/2021 4:30:00 PM 12.84 55.112 0.075 6.81 8.97 10.17
10/25/2021 4:45:00 PM 12.84 55.112 0.075 6.79 9.11 10.11
10/25/2021 5:00:00 PM 12.85 55.13 0.075 6.74 8.8 10.11
10/25/2021 5:15:00 PM 12.84 55.112 0.075 6.78 8.76 10.08
10/25/2021 5:30:00 PM 12.82 55.076 0.075 6.77 8.79 10.06
10/25/2021 5:45:00 PM 12.8 55.04 0.075 6.75 8.73 10.04
10/25/2021 6:00:00 PM 12.79 55.022 0.075 6.75 8.74 10.04
10/25/2021 6:15:00 PM 12.76 54.968 0.075 6.75 8.91 10.03
10/25/2021 6:30:00 PM 12.75 54.95 0.075 6.74 8.8 10.01
10/25/2021 6:45:00 PM 12.73 54.914 0.075 6.73 8.76 9.98
10/25/2021 7:00:00 PM 12.71 54.878 0.075 6.74 8.8 9.98
10/25/2021 7:15:00 PM 12.7 54.86 0.075 6.72 8.87 9.98
10/25/2021 7:30:00 PM 12.68 54.824 0.075 6.72 8.95 9.97
10/25/2021 7:45:00 PM 12.67 54.806 0.075 6.73 8.88 9.98
10/25/2021 8:00:00 PM 12.66 54.788 0.075 6.71 8.83 9.97
10/25/2021 8:15:00 PM 12.66 54.788 0.075 6.72 8.87 9.98
10/25/2021 8:30:00 PM 12.65 54.77 0.074 6.68 8.83 9.98
10/25/2021 8:45:00 PM 12.64 54.752 0.075 6.69 8.94 9.98
10/25/2021 9:00:00 PM 12.63 54.734 0.075 6.72 8.98 9.97
10/25/2021 9:15:00 PM 12.63 54.734 0.075 6.67 8.67 9.97
10/25/2021 9:30:00 PM 12.62 54.716 0.075 6.68 8.68 9.97
10/25/2021 9:45:00 PM 12.61 54.698 0.075 6.7 8.83 9.97
10/25/2021 10:00:00 PM 12.6 54.68 0.075 6.7 8.69 9.97
10/25/2021 10:15:00 PM 12.59 54.662 0.075 6.65 8.66 9.97
10/25/2021 10:30:00 PM 12.58 54.644 0.075 6.71 8.74 9.97
10/25/2021 10:45:00 PM 12.58 54.644 0.075 6.7 8.57 9.96
10/25/2021 11:00:00 PM 12.57 54.626 0.075 6.7 8.82 9.96
10/25/2021 11:15:00 PM 12.57 54.626 0.075 6.65 8.56 9.97
10/25/2021 11:30:00 PM 12.58 54.644 0.074 6.71 8.72 9.96
10/25/2021 11:45:00 PM 12.59 54.662 0.073 6.68 9.31 9.99
10/26/2021 12:00:00 AM 12.59 54.662 0.072 6.72 9.19 9.95
10/26/2021 12:15:00 AM 12.59 54.662 0.072 6.71 9.5 9.96
10/26/2021 12:30:00 AM 12.58 54.644 0.072 6.69 10.14 9.94
10/26/2021 12:45:00 AM 12.58 54.644 0.072 6.69 9.71 9.95
10/26/2021 1:00:00 AM 12.57 54.626 0.072 6.7 9.73 9.95
10/26/2021 1:15:00 AM 12.57 54.626 0.072 6.7 9.63 9.96
10/26/2021 1:30:00 AM 12.56 54.608 0.072 6.67 9.82 9.95
10/26/2021 1:45:00 AM 12.55 54.59 0.072 6.71 10.02 9.96
10/26/2021 2:00:00 AM 12.56 54.608 0.072 6.72 10.58 9.98
10/26/2021 2:15:00 AM 12.56 54.608 0.072 6.68 13.71 9.98
10/26/2021 2:30:00 AM 12.56 54.608 0.072 6.73 14.88 9.99
10/26/2021 2:45:00 AM 12.56 54.608 0.071 6.72 15.51 10.02
10/26/2021 3:00:00 AM 12.58 54.644 0.07 6.73 16.1 9.97
10/26/2021 3:15:00 AM 12.59 54.662 0.07 6.71 15.73 9.88
10/26/2021 3:30:00 AM 12.6 54.68 0.069 6.71 17.46 10.01
10/26/2021 3:45:00 AM 12.61 54.698 0.069 6.64 18.75 9.98
10/26/2021 4:00:00 AM 12.61 54.698 0.069 6.68 21.98 9.93
10/26/2021 4:15:00 AM 12.61 54.698 0.07 6.64 20.71 9.93
10/26/2021 4:30:00 AM 12.61 54.698 0.07 6.69 20.06 9.97
10/26/2021 4:45:00 AM 12.61 54.698 0.071 6.67 17.55 10
10/26/2021 5:00:00 AM 12.61 54.698 0.071 6.61 16.65 9.98
10/26/2021 5:15:00 AM 12.6 54.68 0.07 6.65 18.09 9.86
10/26/2021 5:30:00 AM 12.6 54.68 0.071 6.66 22.45 9.89
10/26/2021 5:45:00 AM 12.59 54.662 0.071 6.65 29.16 9.75
10/26/2021 6:00:00 AM 12.59 54.662 0.071 6.63 28.22 9.88
10/26/2021 6:15:00 AM 12.59 54.662 0.072 6.66 29.24 9.84
10/26/2021 6:30:00 AM 12.59 54.662 0.072 6.65 29.11 9.81
10/26/2021 6:45:00 AM 12.58 54.644 0.072 6.63 28.37 9.95
10/26/2021 7:00:00 AM 12.58 54.644 0.072 6.65 27.64 9.9
10/26/2021 7:15:00 AM 12.58 54.644 0.072 6.64 26.85 9.84
10/26/2021 7:30:00 AM 12.57 54.626 0.072 6.6 26.61 9.82
10/26/2021 7:45:00 AM 12.57 54.626 0.072 6.64 26.43 9.84
10/26/2021 8:00:00 AM 12.56 54.608 0.072 6.64 25.92 9.82
10/26/2021 8:15:00 AM 12.56 54.608 0.072 6.61 26.07 9.76
10/26/2021 8:30:00 AM 12.56 54.608 0.072 6.65 25.83 9.78
10/26/2021 8:45:00 AM 12.54 54.572 0.071 6.65 25.82 9.86
10/26/2021 9:00:00 AM 12.53 54.554 0.071 6.65 25.74 9.86
10/26/2021 9:15:00 AM 12.52 54.536 0.071 6.6 25.37 9.88
10/26/2021 9:30:00 AM 12.5 54.5 0.071 6.65 25.72 9.8
10/26/2021 9:45:00 AM 12.48 54.464 0.071 6.68 25.31 9.93
10/26/2021 10:00:00 AM 12.46 54.428 0.071 6.64 25.26 10
10/26/2021 10:15:00 AM 12.43 54.374 0.07 6.69 24.94 10
10/26/2021 10:30:00 AM 12.39 54.302 0.07 6.68 25.05 10.02
10/26/2021 10:45:00 AM 12.37 54.266 0.07 6.66 24.9 10.07
10/26/2021 11:00:00 AM 12.35 54.23 0.07 6.67 25.2 10.07
10/26/2021 11:15:00 AM 12.39 54.302 0.081 7.44 6.32 11.1
10/26/2021 11:30:00 AM 12.29 54.122 0.068 6.75 2.66 10.92
10/26/2021 11:45:00 AM 12.26 54.068 0.068 6.73 2.65 10.96
10/26/2021 12:00:00 PM 12.24 54.032 0.068 6.71 2.51 10.97
10/26/2021 12:15:00 PM 12.22 53.996 0.068 6.71 2.55 10.98
10/26/2021 12:30:00 PM 12.18 53.924 0.068 6.71 2.59 10.99
10/26/2021 12:45:00 PM 12.14 53.852 0.067 6.69 3.13 11.01
10/26/2021 1:00:00 PM 12.12 53.816 0.067 6.64 2.71 11.02
10/26/2021 1:15:00 PM 12.08 53.744 0.067 6.6 2.44 11.02
10/26/2021 1:30:00 PM 12.04 53.672 0.067 6.56 2.64 11.04
10/26/2021 1:45:00 PM 12 53.6 0.064 6.5 4.72 11.05
10/26/2021 2:00:00 PM 11.95 53.51 0.066 6.55 2.6 11.05
10/26/2021 2:15:00 PM 11.91 53.438 0.066 6.54 3.1 11.06
10/26/2021 2:30:00 PM 11.87 53.366 0.066 6.49 2.65 11.08
10/26/2021 2:45:00 PM 11.83 53.294 0.066 6.53 2.5 11.09
10/26/2021 3:00:00 PM 11.79 53.222 0.066 6.52 2.61 11.09
10/26/2021 3:15:00 PM 11.75 53.15 0.065 6.46 2.53 11.09
10/26/2021 3:30:00 PM 11.7 53.06 0.065 6.5 2.77 11.11
10/26/2021 3:45:00 PM 11.66 52.988 0.065 6.52 2.79 11.12
10/26/2021 4:00:00 PM 11.62 52.916 0.065 6.52 3 11.12
10/26/2021 4:15:00 PM 11.58 52.844 0.065 6.52 3.17 11.14
10/26/2021 4:30:00 PM 11.54 52.772 0.065 6.52 3.62 11.15
10/26/2021 4:45:00 PM 11.5 52.7 0.064 6.52 4.51 11.15
10/26/2021 5:00:00 PM 11.45 52.61 0.064 6.47 4.66 11.17
10/26/2021 5:15:00 PM 11.41 52.538 0.064 6.46 5.28 11.17
10/26/2021 5:30:00 PM 11.38 52.484 0.063 6.49 5.3 11.19
10/26/2021 5:45:00 PM 11.33 52.394 0.063 6.46 5.69 11.2
10/26/2021 6:00:00 PM 11.29 52.322 0.063 6.39 6.68 11.2
10/26/2021 6:15:00 PM 11.25 52.25 0.063 6.43 6.47 11.21
10/26/2021 6:30:00 PM 11.21 52.178 0.063 6.4 7.29 11.22
10/26/2021 6:45:00 PM 11.17 52.106 0.063 6.41 7.24 11.26
10/26/2021 7:00:00 PM 11.14 52.052 0.063 6.37 7.26 11.27
10/26/2021 7:15:00 PM 11.1 51.98 0.063 6.44 8.81 11.29
10/26/2021 7:30:00 PM 11.07 51.926 0.063 6.45 7.95 11.29
10/26/2021 7:45:00 PM 11.04 51.872 0.062 6.45 8.46 11.3
10/26/2021 8:00:00 PM 11.02 51.836 0.062 6.46 10 11.31
10/26/2021 8:15:00 PM 10.99 51.782 0.062 6.46 9.35 11.32
10/26/2021 8:30:00 PM 10.97 51.746 0.062 6.51 9.69 11.33
10/26/2021 8:45:00 PM 10.95 51.71 0.062 6.49 9.72 11.34
10/26/2021 9:00:00 PM 10.92 51.656 0.062 6.46 10.17 11.36
10/26/2021 9:15:00 PM 10.91 51.638 0.062 6.39 9.91 11.37
10/26/2021 9:30:00 PM 10.89 51.602 0.061 6.43 11.33 11.38
10/26/2021 9:45:00 PM 10.88 51.584 0.061 6.4 10.76 11.38
10/26/2021 10:00:00 PM 10.87 51.566 0.061 6.36 10.41 11.39
10/26/2021 10:15:00 PM 10.86 51.548 0.062 6.38 9.95 11.4
10/26/2021 10:30:00 PM 10.85 51.53 0.062 6.45 9.93 11.41
10/26/2021 10:45:00 PM 10.85 51.53 0.062 6.51 9.02 11.41
10/26/2021 11:00:00 PM 10.84 51.512 0.062 6.51 8.22 11.41
10/26/2021 11:15:00 PM 10.83 51.494 0.062 6.42 7.83 11.41
10/26/2021 11:30:00 PM 10.83 51.494 0.062 6.38 7.9 11.41
10/26/2021 11:45:00 PM 10.83 51.494 0.062 6.38 7.44 11.41
10/27/2021 12:00:00 AM 10.82 51.476 0.062 6.36 6.82 11.42
10/27/2021 12:15:00 AM 10.82 51.476 0.062 6.37 6.16 11.42
10/27/2021 12:30:00 AM 10.82 51.476 0.062 6.4 6.22 11.42
10/27/2021 12:45:00 AM 10.82 51.476 0.062 6.42 6.18 11.42
10/27/2021 1:00:00 AM 10.82 51.476 0.062 6.45 5.67 11.42
10/27/2021 1:15:00 AM 10.81 51.458 0.062 6.46 5.72 11.42
10/27/2021 1:30:00 AM 10.81 51.458 0.062 6.48 4.81 11.42
10/27/2021 1:45:00 AM 10.81 51.458 0.062 6.46 4.9 11.43
10/27/2021 2:00:00 AM 10.81 51.458 0.062 6.46 4.77 11.43
10/27/2021 2:15:00 AM 10.81 51.458 0.062 6.49 4.78 11.43
10/27/2021 2:30:00 AM 10.81 51.458 0.061 6.51 4.31 11.43
10/27/2021 2:45:00 AM 10.81 51.458 0.061 6.52 5.25 11.43
10/27/2021 3:00:00 AM 10.82 51.476 0.061 6.52 4.48 11.43
10/27/2021 3:15:00 AM 10.82 51.476 0.061 6.48 4.3 11.44
10/27/2021 3:30:00 AM 10.82 51.476 0.061 6.51 4.09 11.43
10/27/2021 3:45:00 AM 10.82 51.476 0.061 6.48 4.25 11.44
10/27/2021 4:00:00 AM 10.82 51.476 0.061 6.53 4.11 11.43
10/27/2021 4:15:00 AM 10.82 51.476 0.061 6.5 4.18 11.43
10/27/2021 4:30:00 AM 10.83 51.494 0.061 6.5 3.75 11.43
10/27/2021 4:45:00 AM 10.83 51.494 0.061 6.5 3.87 11.43
10/27/2021 5:00:00 AM 10.83 51.494 0.061 6.51 3.96 11.43
10/27/2021 5:15:00 AM 10.84 51.512 0.061 6.52 3.89 11.43
10/27/2021 5:30:00 AM 10.84 51.512 0.061 6.54 3.62 11.43
10/27/2021 5:45:00 AM 10.83 51.494 0.061 6.55 3.79 11.43
10/27/2021 6:00:00 AM 10.82 51.476 0.06 6.56 3.44 11.43
10/27/2021 6:15:00 AM 10.82 51.476 0.06 6.56 3.59 11.44
10/27/2021 6:30:00 AM 10.83 51.494 0.06 6.54 3.65 11.44
10/27/2021 6:45:00 AM 10.83 51.494 0.06 6.56 3.38 11.43
10/27/2021 7:00:00 AM 10.83 51.494 0.06 6.55 3.13 11.43
10/27/2021 7:15:00 AM 10.84 51.512 0.06 6.57 3.49 11.44
10/27/2021 7:30:00 AM 10.85 51.53 0.06 6.57 3.31 11.44
10/27/2021 7:45:00 AM 10.85 51.53 0.06 6.57 3.78 11.44
10/27/2021 8:00:00 AM 10.86 51.548 0.06 6.57 3.4 11.43
10/27/2021 8:15:00 AM 10.87 51.566 0.06 6.57 3.18 11.45
10/27/2021 8:30:00 AM 10.88 51.584 0.06 6.61 3.08 11.46
10/27/2021 8:45:00 AM 10.89 51.602 0.06 6.61 3 11.46
10/27/2021 9:00:00 AM 10.91 51.638 0.06 6.61 2.99 11.47
10/27/2021 9:15:00 AM 10.93 51.674 0.06 6.6 2.92 11.47
10/27/2021 9:30:00 AM 10.95 51.71 0.06 6.59 2.91 11.48
10/27/2021 9:45:00 AM 10.98 51.764 0.06 6.59 2.79 11.48
10/27/2021 10:00:00 AM 11 51.8 0.059 6.59 2.82 11.47
10/27/2021 10:15:00 AM 11.03 51.854 0.059 6.61 2.87 11.48
10/27/2021 10:30:00 AM 11.06 51.908 0.059 6.61 2.83 11.48
10/27/2021 10:45:00 AM 11.1 51.98 0.059 6.62 2.76 11.48
10/27/2021 11:00:00 AM 11.14 52.052 0.059 6.66 2.86 11.49
10/27/2021 11:15:00 AM 11.2 52.16 0.059 6.66 2.74 11.47
10/27/2021 11:30:00 AM 11.27 52.286 0.059 6.68 2.85 11.46
10/27/2021 11:45:00 AM 11.39 52.502 0.059 6.67 2.68 11.47
10/27/2021 12:00:00 PM 11.45 52.61 0.059 6.68 2.79 11.45
10/27/2021 12:15:00 PM 11.57 52.826 0.059 6.7 2.88 11.42
10/27/2021 12:30:00 PM 11.56 52.808 0.059 6.7 3.15 11.41
10/27/2021 12:45:00 PM 11.66 52.988 0.059 6.7 3.05 11.39
10/27/2021 1:00:00 PM 11.73 53.114 0.058 6.7 2.87 11.36
10/27/2021 1:15:00 PM 11.78 53.204 0.058 6.7 2.76 11.34
10/27/2021 1:30:00 PM 11.84 53.312 0.058 6.71 2.67 11.31
10/27/2021 1:45:00 PM 11.88 53.384 0.058 6.71 3.1 11.29
10/27/2021 2:00:00 PM 11.92 53.456 0.058 6.71 3.05 11.28
10/27/2021 2:15:00 PM 11.97 53.546 0.058 6.71 2.67 11.25
10/27/2021 2:30:00 PM 12.01 53.618 0.055 6.69 4.45 11.24
10/27/2021 2:45:00 PM 12.03 53.654 0.058 6.69 2.7 11.22
10/27/2021 3:00:00 PM 12.04 53.672 0.058 6.71 3.04 11.21
10/27/2021 3:15:00 PM 12.06 53.708 0.058 6.71 2.81 11.19
10/27/2021 3:30:00 PM 12.06 53.708 0.058 6.71 2.85 11.19
10/27/2021 3:45:00 PM 12.07 53.726 0.058 6.71 3.31 11.18
10/27/2021 4:00:00 PM 12.08 53.744 0.058 6.71 3.06 11.17
10/27/2021 4:15:00 PM 12.08 53.744 0.058 6.71 2.83 11.16
10/27/2021 4:30:00 PM 12.07 53.726 0.058 6.71 3.3 11.16
10/27/2021 4:45:00 PM 12.05 53.69 0.058 6.7 2.93 11.16
10/27/2021 5:00:00 PM 12.03 53.654 0.057 6.71 2.77 11.16
10/27/2021 5:15:00 PM 12 53.6 0.057 6.7 2.49 11.17
10/27/2021 5:30:00 PM 11.97 53.546 0.057 6.7 2.68 11.17
10/27/2021 5:45:00 PM 11.93 53.474 0.057 6.69 2.89 11.18
10/27/2021 6:00:00 PM 11.89 53.402 0.057 6.69 2.57 11.18
10/27/2021 6:15:00 PM 11.86 53.348 0.057 6.68 2.57 11.17
10/27/2021 6:30:00 PM 11.82 53.276 0.057 6.69 2.37 11.18
10/27/2021 6:45:00 PM 11.78 53.204 0.057 6.68 2.57 11.18
10/27/2021 7:00:00 PM 11.74 53.132 0.057 6.67 2.63 11.19
10/27/2021 7:15:00 PM 11.7 53.06 0.057 6.68 2.61 11.21
10/27/2021 7:30:00 PM 11.65 52.97 0.057 6.67 2.51 11.21
10/27/2021 7:45:00 PM 11.61 52.898 0.057 6.67 2.53 11.22
10/27/2021 8:00:00 PM 11.57 52.826 0.057 6.67 2.84 11.25
10/27/2021 8:15:00 PM 11.52 52.736 0.057 6.66 2.97 11.26
10/27/2021 8:30:00 PM 11.48 52.664 0.057 6.66 2.67 11.26
10/27/2021 8:45:00 PM 11.43 52.574 0.057 6.66 2.57 11.27
10/27/2021 9:00:00 PM 11.39 52.502 0.057 6.66 2.51 11.28
10/27/2021 9:15:00 PM 11.34 52.412 0.057 6.66 2.46 11.29
10/27/2021 9:30:00 PM 11.29 52.322 0.057 6.66 2.51 11.31
10/27/2021 9:45:00 PM 11.24 52.232 0.057 6.65 2.47 11.33
10/27/2021 10:00:00 PM 11.19 52.142 0.057 6.65 2.39 11.36
10/27/2021 10:15:00 PM 11.13 52.034 0.057 6.65 2.4 11.36
10/27/2021 10:30:00 PM 11.08 51.944 0.056 6.65 2.49 11.37
10/27/2021 10:45:00 PM 11.03 51.854 0.056 6.65 2.53 11.39
10/27/2021 11:00:00 PM 10.97 51.746 0.056 6.64 2.41 11.41
10/27/2021 11:15:00 PM 10.91 51.638 0.056 6.64 2.48 11.43
10/27/2021 11:30:00 PM 10.86 51.548 0.056 6.65 2.45 11.44
10/27/2021 11:45:00 PM 10.79 51.422 0.056 6.64 2.43 11.45
10/28/2021 12:00:00 AM 10.73 51.314 0.056 6.64 2.48 11.47
10/28/2021 12:15:00 AM 10.67 51.206 0.056 6.59 2.45 11.49
10/28/2021 12:30:00 AM 10.62 51.116 0.056 6.56 2.49 11.5
10/28/2021 12:45:00 AM 10.56 51.008 0.056 6.54 2.49 11.52
10/28/2021 1:00:00 AM 10.5 50.9 0.056 6.52 2.48 11.54
10/28/2021 1:15:00 AM 10.44 50.792 0.056 6.5 2.4 11.56
10/28/2021 1:30:00 AM 10.4 50.72 0.056 6.49 2.4 11.57
10/28/2021 1:45:00 AM 10.33 50.594 0.056 6.48 2.48 11.59
10/28/2021 2:00:00 AM 10.28 50.504 0.056 6.48 2.41 11.6
10/28/2021 2:15:00 AM 10.22 50.396 0.056 6.49 2.35 11.62
10/28/2021 2:30:00 AM 10.18 50.324 0.056 6.48 2.33 11.64
10/28/2021 2:45:00 AM 10.13 50.234 0.056 6.5 2.34 11.65
10/28/2021 3:00:00 AM 10.08 50.144 0.056 6.51 2.5 11.66
10/28/2021 3:15:00 AM 10.05 50.09 0.056 6.53 2.42 11.67
10/28/2021 3:30:00 AM 10.01 50.018 0.056 6.55 2.34 11.68
10/28/2021 3:45:00 AM 9.97 49.946 0.056 6.56 2.46 11.7
10/28/2021 4:00:00 AM 9.94 49.892 0.056 6.57 2.35 11.7
10/28/2021 4:15:00 AM 9.91 49.838 0.056 6.59 2.52 11.7
10/28/2021 4:30:00 AM 9.88 49.784 0.055 6.59 2.34 11.72
10/28/2021 4:45:00 AM 9.85 49.73 0.055 6.59 2.33 11.72
10/28/2021 5:00:00 AM 9.82 49.676 0.055 6.59 2.35 11.74
10/28/2021 5:15:00 AM 9.79 49.622 0.055 6.59 2.42 11.75
10/28/2021 5:30:00 AM 9.76 49.568 0.055 6.59 2.33 11.75
10/28/2021 5:45:00 AM 9.73 49.514 0.055 6.59 2.41 11.77
10/28/2021 6:00:00 AM 9.7 49.46 0.055 6.58 2.33 11.77
10/28/2021 6:15:00 AM 9.67 49.406 0.055 6.58 2.39 11.78
10/28/2021 6:30:00 AM 9.65 49.37 0.055 6.58 2.3 11.79
10/28/2021 6:45:00 AM 9.62 49.316 0.055 6.59 2.39 11.79
10/28/2021 7:00:00 AM 9.6 49.28 0.055 6.58 2.38 11.8
10/28/2021 7:15:00 AM 9.58 49.244 0.055 6.59 2.24 11.81
10/28/2021 7:30:00 AM 9.55 49.19 0.055 6.6 2.22 11.82
10/28/2021 7:45:00 AM 9.53 49.154 0.055 6.6 2.28 11.83
10/28/2021 8:00:00 AM 9.51 49.118 0.055 6.61 2.21 11.84
10/28/2021 8:15:00 AM 9.49 49.082 0.055 6.63 2.23 11.86
10/28/2021 8:30:00 AM 9.47 49.046 0.055 6.61 2.26 11.88
10/28/2021 8:45:00 AM 9.46 49.028 0.055 6.61 2.18 11.89
10/28/2021 9:00:00 AM 9.45 49.01 0.055 6.63 2.22 11.91
10/28/2021 9:15:00 AM 9.44 48.992 0.055 6.65 2.24 11.94
10/28/2021 9:30:00 AM 9.44 48.992 0.055 6.66 2.21 11.95
10/28/2021 9:45:00 AM 9.46 49.028 0.055 6.68 2.13 11.97
10/28/2021 10:00:00 AM 9.47 49.046 0.055 6.69 2.2 11.97
10/28/2021 10:15:00 AM 9.47 49.046 0.055 6.69 2.17 11.98
10/28/2021 10:30:00 AM 9.49 49.082 0.055 6.71 2.28 11.98
10/28/2021 10:45:00 AM 9.54 49.172 0.055 6.7 2.23 11.98
10/28/2021 11:00:00 AM 9.57 49.226 0.055 6.7 2.33 11.97
10/28/2021 11:15:00 AM 9.63 49.334 0.055 6.7 2.18 11.95
10/28/2021 11:30:00 AM 9.69 49.442 0.055 6.7 2.17 11.94
10/28/2021 11:45:00 AM 9.74 49.532 0.055 6.7 2.1 11.93
10/28/2021 12:00:00 PM 9.82 49.676 0.055 6.7 2.12 11.9
10/28/2021 12:15:00 PM 9.93 49.874 0.055 6.7 2.1 11.88
10/28/2021 12:30:00 PM 10.02 50.036 0.055 6.71 2.17 11.85
10/28/2021 12:45:00 PM 10.12 50.216 0.054 6.71 2.04 11.82
10/28/2021 1:00:00 PM 10.21 50.378 0.054 6.71 2.11 11.79
10/28/2021 1:15:00 PM 10.29 50.522 0.054 6.71 2.21 11.76
10/28/2021 1:30:00 PM 10.38 50.684 0.054 6.71 2.11 11.73
10/28/2021 1:45:00 PM 10.5 50.9 0.054 6.72 2.03 11.69
10/28/2021 2:00:00 PM 10.54 50.972 0.054 6.72 2.07 11.67
10/28/2021 2:15:00 PM 10.64 51.152 0.054 6.72 2.12 11.64
10/28/2021 2:30:00 PM 10.72 51.296 0.054 6.72 2.17 11.61
10/28/2021 2:45:00 PM 10.78 51.404 0.054 6.72 2.07 11.59
10/28/2021 3:00:00 PM 10.85 51.53 0.054 6.72 2.1 11.57
10/28/2021 3:15:00 PM 10.91 51.638 0.054 6.72 2.08 11.55
10/28/2021 3:30:00 PM 10.98 51.764 0.054 6.72 2.1 11.54
10/28/2021 3:45:00 PM 11.02 51.836 0.054 6.72 2.02 11.51
10/28/2021 4:00:00 PM 11.06 51.908 0.054 6.73 2.09 11.49
10/28/2021 4:15:00 PM 11.11 51.998 0.054 6.72 2.07 11.47
10/28/2021 4:30:00 PM 11.11 51.998 0.054 6.72 2.08 11.45
10/28/2021 4:45:00 PM 11.15 52.07 0.054 6.72 2.03 11.44
10/28/2021 5:00:00 PM 11.18 52.124 0.054 6.72 2.06 11.41
10/28/2021 5:15:00 PM 11.19 52.142 0.054 6.71 2.09 11.41
10/28/2021 5:30:00 PM 11.19 52.142 0.054 6.71 2.1 11.39
10/28/2021 5:45:00 PM 11.19 52.142 0.054 6.7 2.09 11.36
10/28/2021 6:00:00 PM 11.19 52.142 0.054 6.69 2.15 11.35
10/28/2021 6:15:00 PM 11.19 52.142 0.054 6.68 2.11 11.34
10/28/2021 6:30:00 PM 11.18 52.124 0.054 6.68 2.11 11.33
10/28/2021 6:45:00 PM 11.18 52.124 0.054 6.69 2.13 11.33
10/28/2021 7:00:00 PM 11.19 52.142 0.054 6.68 2.14 11.32
10/28/2021 7:15:00 PM 11.19 52.142 0.054 6.68 2.24 11.31
10/28/2021 7:30:00 PM 11.2 52.16 0.054 6.67 2.21 11.32
10/28/2021 7:45:00 PM 11.21 52.178 0.054 6.67 2.12 11.31
10/28/2021 8:00:00 PM 11.21 52.178 0.054 6.67 2.12 11.3
10/28/2021 8:15:00 PM 11.22 52.196 0.054 6.67 2.16 11.3
10/28/2021 8:30:00 PM 11.22 52.196 0.054 6.67 2.1 11.3
10/28/2021 8:45:00 PM 11.23 52.214 0.054 6.66 2.1 11.31
10/28/2021 9:00:00 PM 11.23 52.214 0.054 6.65 2.1 11.29
10/28/2021 9:15:00 PM 11.23 52.214 0.054 6.65 1.99 11.29
10/28/2021 9:30:00 PM 11.24 52.232 0.054 6.66 1.98 11.29
10/28/2021 9:45:00 PM 11.25 52.25 0.054 6.66 1.98 11.3
10/28/2021 10:00:00 PM 11.25 52.25 0.054 6.66 1.92 11.29
10/28/2021 10:15:00 PM 11.26 52.268 0.054 6.66 2.09 11.28
10/28/2021 10:30:00 PM 11.27 52.286 0.054 6.66 1.99 11.28
10/28/2021 10:45:00 PM 11.28 52.304 0.054 6.66 1.98 11.28
10/28/2021 11:00:00 PM 11.29 52.322 0.054 6.67 2.04 11.29
10/28/2021 11:15:00 PM 11.29 52.322 0.054 6.68 2.05 11.28
10/28/2021 11:30:00 PM 11.3 52.34 0.054 6.68 1.83 11.27
10/28/2021 11:45:00 PM 11.31 52.358 0.054 6.68 1.89 11.28
10/29/2021 12:00:00 AM 11.31 52.358 0.054 6.67 1.91 11.26
10/29/2021 12:15:00 AM 11.32 52.376 0.054 6.67 1.76 11.26
10/29/2021 12:30:00 AM 11.33 52.394 0.054 6.68 1.78 11.25
10/29/2021 12:45:00 AM 11.33 52.394 0.054 6.68 1.82 11.26
10/29/2021 1:00:00 AM 11.34 52.412 0.054 6.69 1.74 11.25
10/29/2021 1:15:00 AM 11.34 52.412 0.054 6.69 1.7 11.24
10/29/2021 1:30:00 AM 11.35 52.43 0.054 6.69 1.71 11.24
10/29/2021 1:45:00 AM 11.35 52.43 0.054 6.69 1.75 11.25
10/29/2021 2:00:00 AM 11.36 52.448 0.054 6.69 1.78 11.24
10/29/2021 2:15:00 AM 11.36 52.448 0.054 6.7 1.8 11.23
10/29/2021 2:30:00 AM 11.36 52.448 0.054 6.69 1.71 11.24
10/29/2021 2:45:00 AM 11.36 52.448 0.054 6.69 1.84 11.23
10/29/2021 3:00:00 AM 11.36 52.448 0.054 6.69 1.66 11.24
10/29/2021 3:15:00 AM 11.36 52.448 0.054 6.7 1.73 11.23
10/29/2021 3:30:00 AM 11.36 52.448 0.054 6.7 1.71 11.22
10/29/2021 3:45:00 AM 11.36 52.448 0.054 6.7 1.68 11.22
10/29/2021 4:00:00 AM 11.36 52.448 0.054 6.7 1.74 11.22
10/29/2021 4:15:00 AM 11.36 52.448 0.054 6.7 1.87 11.23
10/29/2021 4:30:00 AM 11.36 52.448 0.054 6.7 1.83 11.22
10/29/2021 4:45:00 AM 11.35 52.43 0.054 6.7 1.93 11.22
10/29/2021 5:00:00 AM 11.35 52.43 0.054 6.7 1.97 11.23
10/29/2021 5:15:00 AM 11.35 52.43 0.054 6.7 1.88 11.23
10/29/2021 5:30:00 AM 11.35 52.43 0.054 6.7 1.88 11.22
10/29/2021 5:45:00 AM 11.34 52.412 0.054 6.7 1.93 11.22
10/29/2021 6:00:00 AM 11.34 52.412 0.054 6.69 2.01 11.22
10/29/2021 6:15:00 AM 11.33 52.394 0.054 6.69 1.86 11.21
10/29/2021 6:30:00 AM 11.33 52.394 0.054 6.69 1.9 11.23
10/29/2021 6:45:00 AM 11.32 52.376 0.054 6.7 1.92 11.23
10/29/2021 7:00:00 AM 11.31 52.358 0.054 6.69 1.81 11.22
10/29/2021 7:15:00 AM 11.3 52.34 0.054 6.69 1.82 11.23
10/29/2021 7:30:00 AM 11.29 52.322 0.054 6.69 1.82 11.23
10/29/2021 7:45:00 AM 11.27 52.286 0.054 6.69 1.92 11.24
10/29/2021 8:00:00 AM 11.26 52.268 0.054 6.69 1.87 11.24
10/29/2021 8:15:00 AM 11.24 52.232 0.054 6.69 1.94 11.23
10/29/2021 8:30:00 AM 11.23 52.214 0.054 6.69 1.91 11.25
10/29/2021 8:45:00 AM 11.22 52.196 0.054 6.69 1.81 11.27
10/29/2021 9:00:00 AM 11.21 52.178 0.054 6.7 1.7 11.28
10/29/2021 9:15:00 AM 11.21 52.178 0.054 6.7 1.75 11.31
10/29/2021 9:30:00 AM 11.2 52.16 0.054 6.7 1.76 11.33
10/29/2021 9:45:00 AM 11.19 52.142 0.054 6.7 1.7 11.33
10/29/2021 10:00:00 AM 11.18 52.124 0.054 6.7 1.71 11.33
10/29/2021 10:15:00 AM 11.18 52.124 0.054 6.7 1.72 11.34
10/29/2021 10:30:00 AM 11.17 52.106 0.054 6.71 1.93 11.34
10/29/2021 10:45:00 AM 11.18 52.124 0.054 6.71 2.04 11.36
10/29/2021 11:00:00 AM 11.16 52.088 0.054 6.72 1.88 11.34
10/29/2021 11:15:00 AM 11.14 52.052 0.054 6.72 1.88 11.34
10/29/2021 11:30:00 AM 11.14 52.052 0.054 6.72 1.85 11.34
10/29/2021 11:45:00 AM 11.12 52.016 0.054 6.72 1.91 11.34
10/29/2021 12:00:00 PM 11.12 52.016 0.054 6.72 2 11.34
10/29/2021 12:15:00 PM 11.11 51.998 0.054 6.72 1.8 11.34
10/29/2021 12:30:00 PM 11.09 51.962 0.054 6.72 1.93 11.34
10/29/2021 12:45:00 PM 11.08 51.944 0.054 6.73 1.91 11.34
10/29/2021 1:00:00 PM 11.08 51.944 0.054 6.72 2.04 11.34
10/29/2021 1:15:00 PM 11.07 51.926 0.054 6.72 2.07 11.35
10/29/2021 1:30:00 PM 11.05 51.89 0.054 6.72 2.09 11.34
10/29/2021 1:45:00 PM 11.02 51.836 0.054 6.72 2.04 11.34
10/29/2021 2:00:00 PM 11.02 51.836 0.054 6.72 2.07 11.35
10/29/2021 2:15:00 PM 11.04 51.872 0.054 6.72 2.11 11.36
10/29/2021 2:30:00 PM 11.04 51.872 0.054 6.73 2.34 11.37
10/29/2021 2:45:00 PM 11.04 51.872 0.054 6.72 2.77 11.37
10/29/2021 3:00:00 PM 11.02 51.836 0.054 6.71 2.95 11.36
10/29/2021 3:15:00 PM 11 51.8 0.054 6.72 3.3 11.34
10/29/2021 3:30:00 PM 10.98 51.764 0.053 6.72 4.32 11.34
10/29/2021 3:45:00 PM 10.96 51.728 0.053 6.72 5.15 11.35
10/29/2021 4:00:00 PM 10.94 51.692 0.053 6.73 5.25 11.36
10/29/2021 4:15:00 PM 10.92 51.656 0.053 6.73 6.65 11.38
10/29/2021 4:30:00 PM 10.92 51.656 0.053 6.72 7.35 11.38
10/29/2021 4:45:00 PM 10.9 51.62 0.053 6.71 10.87 11.39
10/29/2021 5:00:00 PM 10.89 51.602 0.053 6.71 13.32 11.39
10/29/2021 5:15:00 PM 10.88 51.584 0.053 6.71 19 11.39
10/29/2021 5:30:00 PM 10.87 51.566 0.053 6.7 26.89 11.4
10/29/2021 5:45:00 PM 10.87 51.566 0.054 6.69 31.23 11.41
10/29/2021 6:00:00 PM 10.88 51.584 0.055 6.65 35.38 11.4
10/29/2021 6:15:00 PM 10.88 51.584 0.056 6.62 31.6 11.39
10/29/2021 6:30:00 PM 10.89 51.602 0.057 6.61 30.78 11.39
10/29/2021 6:45:00 PM 10.91 51.638 0.058 6.6 32.45 11.38
10/29/2021 7:00:00 PM 10.92 51.656 0.058 6.58 28.92 11.39
10/29/2021 7:15:00 PM 10.92 51.656 0.058 6.55 26.11 11.39
10/29/2021 7:30:00 PM 10.93 51.674 0.058 6.55 26.37 11.39
10/29/2021 7:45:00 PM 10.93 51.674 0.057 6.53 21.88 11.39
10/29/2021 8:00:00 PM 10.93 51.674 0.056 6.52 22.79 11.39
10/29/2021 8:15:00 PM 10.93 51.674 0.055 6.54 20.68 11.39
10/29/2021 8:30:00 PM 10.92 51.656 0.054 6.54 17.37 11.38
10/29/2021 8:45:00 PM 10.92 51.656 0.053 6.53 17.49 11.39
10/29/2021 9:00:00 PM 10.91 51.638 0.053 6.56 17.42 11.39
10/29/2021 9:15:00 PM 10.9 51.62 0.053 6.56 15.12 11.39
10/29/2021 9:30:00 PM 10.9 51.62 0.052 6.55 14.22 11.39
10/29/2021 9:45:00 PM 10.89 51.602 0.052 6.55 13.86 11.4
10/29/2021 10:00:00 PM 10.89 51.602 0.052 6.55 12.94 11.4
10/29/2021 10:15:00 PM 10.89 51.602 0.052 6.57 11.97 11.39
10/29/2021 10:30:00 PM 10.88 51.584 0.052 6.59 38.01 11.37
10/29/2021 10:45:00 PM 10.88 51.584 0.052 6.57 10.73 11.39
10/29/2021 11:00:00 PM 10.88 51.584 0.052 6.58 10.43 11.4
10/29/2021 11:15:00 PM 10.88 51.584 0.052 6.59 10.83 11.4
10/29/2021 11:30:00 PM 10.87 51.566 0.052 6.59 10.35 11.4
10/29/2021 11:45:00 PM 10.87 51.566 0.052 6.59 10.45 11.4
10/30/2021 12:00:00 AM 10.86 51.548 0.052 6.6 9.6 11.4
10/30/2021 12:15:00 AM 10.86 51.548 0.052 6.6 9.09 11.4
10/30/2021 12:30:00 AM 10.85 51.53 0.052 6.6 8.81 11.4
10/30/2021 12:45:00 AM 10.85 51.53 0.052 6.59 7.63 11.4
10/30/2021 1:00:00 AM 10.84 51.512 0.052 6.6 8.01 11.4
10/30/2021 1:15:00 AM 10.84 51.512 0.052 6.59 7.97 11.39
10/30/2021 1:30:00 AM 10.83 51.494 0.052 6.59 7.68 11.39
10/30/2021 1:45:00 AM 10.83 51.494 0.052 6.6 7.28 11.39
10/30/2021 2:00:00 AM 10.82 51.476 0.052 6.59 6.73 11.4
10/30/2021 2:15:00 AM 10.82 51.476 0.052 6.59 7.21 11.4
10/30/2021 2:30:00 AM 10.81 51.458 0.052 6.59 7.5 11.39
10/30/2021 2:45:00 AM 10.81 51.458 0.052 6.59 6.56 11.4
10/30/2021 3:00:00 AM 10.8 51.44 0.052 6.6 6.97 11.4
10/30/2021 3:15:00 AM 10.79 51.422 0.052 6.6 6.55 11.4
10/30/2021 3:30:00 AM 10.79 51.422 0.052 6.59 6.37 11.4
10/30/2021 3:45:00 AM 10.78 51.404 0.052 6.59 6.05 11.4
10/30/2021 4:00:00 AM 10.77 51.386 0.051 6.6 6.12 11.4
10/30/2021 4:15:00 AM 10.77 51.386 0.051 6.59 6 11.4
10/30/2021 4:30:00 AM 10.76 51.368 0.051 6.6 6.01 11.4
10/30/2021 4:45:00 AM 10.75 51.35 0.051 6.61 5.99 11.4
10/30/2021 5:00:00 AM 10.75 51.35 0.051 6.6 5.74 11.4
10/30/2021 5:15:00 AM 10.74 51.332 0.051 6.6 5.65 11.4
10/30/2021 5:30:00 AM 10.74 51.332 0.051 6.59 5.55 11.4
10/30/2021 5:45:00 AM 10.73 51.314 0.051 6.58 5.45 11.41
10/30/2021 6:00:00 AM 10.72 51.296 0.051 6.6 4.96 11.41
10/30/2021 6:15:00 AM 10.71 51.278 0.051 6.59 5.46 11.41
10/30/2021 6:30:00 AM 10.71 51.278 0.048 6.58 7.02 11.42
10/30/2021 6:45:00 AM 10.7 51.26 0.051 6.6 5.01 11.42
10/30/2021 7:00:00 AM 10.69 51.242 0.051 6.61 4.68 11.42
10/30/2021 7:15:00 AM 10.69 51.242 0.051 6.61 4.76 11.42
10/30/2021 7:30:00 AM 10.68 51.224 0.051 6.6 5.8 11.43
10/30/2021 7:45:00 AM 10.67 51.206 0.051 6.6 5.37 11.43
10/30/2021 8:00:00 AM 10.67 51.206 0.051 6.61 6.04 11.44
10/30/2021 8:15:00 AM 10.66 51.188 0.05 6.6 4.92 11.44
10/30/2021 8:30:00 AM 10.67 51.206 0.05 6.61 4.96 11.45
10/30/2021 8:45:00 AM 10.67 51.206 0.05 6.61 4.74 11.46
10/30/2021 9:00:00 AM 10.68 51.224 0.05 6.61 4.72 11.46
10/30/2021 9:15:00 AM 10.69 51.242 0.05 6.62 4.86 11.47
10/30/2021 9:30:00 AM 10.71 51.278 0.05 6.61 4.55 11.47
10/30/2021 9:45:00 AM 10.73 51.314 0.05 6.61 4.55 11.48
10/30/2021 10:00:00 AM 10.75 51.35 0.05 6.61 4.61 11.48
10/30/2021 10:15:00 AM 10.78 51.404 0.05 6.61 4.68 11.48
10/30/2021 10:30:00 AM 10.81 51.458 0.05 6.61 4.44 11.47
10/30/2021 10:45:00 AM 10.85 51.53 0.05 6.6 4.64 11.47
10/30/2021 11:00:00 AM 10.88 51.584 0.05 6.61 3.98 11.46
10/30/2021 11:15:00 AM 10.92 51.656 0.05 6.61 4.33 11.45
10/30/2021 11:30:00 AM 10.95 51.71 0.05 6.6 4.65 11.44
10/30/2021 11:45:00 AM 10.98 51.764 0.05 6.6 4.22 11.44
10/30/2021 12:00:00 PM 11.01 51.818 0.05 6.61 4.12 11.43
10/30/2021 12:15:00 PM 11.07 51.926 0.05 6.61 4 11.43
10/30/2021 12:30:00 PM 11.11 51.998 0.05 6.6 4.35 11.41
10/30/2021 12:45:00 PM 11.17 52.106 0.05 6.61 3.98 11.4
10/30/2021 1:00:00 PM 11.23 52.214 0.05 6.61 4.02 11.38
10/30/2021 1:15:00 PM 11.28 52.304 0.05 6.61 3.98 11.37
10/30/2021 1:30:00 PM 11.36 52.448 0.05 6.61 4.17 11.35
10/30/2021 1:45:00 PM 11.4 52.52 0.05 6.63 4.02 11.33
10/30/2021 2:00:00 PM 11.43 52.574 0.05 6.63 3.99 11.32
10/30/2021 2:15:00 PM 11.45 52.61 0.05 6.63 3.93 11.31
10/30/2021 2:30:00 PM 11.47 52.646 0.05 6.63 3.85 11.3
10/30/2021 2:45:00 PM 11.49 52.682 0.05 6.62 3.9 11.29
10/30/2021 3:00:00 PM 11.51 52.718 0.05 6.63 3.88 11.28
10/30/2021 3:15:00 PM 11.53 52.754 0.049 6.63 4.11 11.28
10/30/2021 3:30:00 PM 11.56 52.808 0.049 6.62 3.74 11.28
10/30/2021 3:45:00 PM 11.58 52.844 0.049 6.63 3.58 11.26
10/30/2021 4:00:00 PM 11.59 52.862 0.049 6.63 4.4 11.26
10/30/2021 4:15:00 PM 11.6 52.88 0.049 6.63 3.63 11.24
10/30/2021 4:30:00 PM 11.6 52.88 0.049 6.63 3.66 11.24
10/30/2021 4:45:00 PM 11.6 52.88 0.047 6.6 4.91 11.23
10/30/2021 5:00:00 PM 11.59 52.862 0.049 6.62 3.69 11.22
10/30/2021 5:15:00 PM 11.59 52.862 0.049 6.62 3.7 11.21
10/30/2021 5:30:00 PM 11.58 52.844 0.049 6.62 3.73 11.21
10/30/2021 5:45:00 PM 11.58 52.844 0.049 6.62 3.49 11.2
10/30/2021 6:00:00 PM 11.57 52.826 0.049 6.61 3.86 11.19
10/30/2021 6:15:00 PM 11.56 52.808 0.049 6.61 3.62 11.2
10/30/2021 6:30:00 PM 11.55 52.79 0.049 6.61 3.69 11.19
10/30/2021 6:45:00 PM 11.54 52.772 0.049 6.6 3.52 11.21
10/30/2021 7:00:00 PM 11.53 52.754 0.049 6.6 3.55 11.2
10/30/2021 7:15:00 PM 11.53 52.754 0.049 6.61 3.32 11.2
10/30/2021 7:30:00 PM 11.52 52.736 0.049 6.61 3.46 11.2
10/30/2021 7:45:00 PM 11.51 52.718 0.049 6.61 3.38 11.21
10/30/2021 8:00:00 PM 11.5 52.7 0.049 6.6 3.48 11.21
10/30/2021 8:15:00 PM 11.49 52.682 0.049 6.59 3.31 11.21
10/30/2021 8:30:00 PM 11.49 52.682 0.049 6.6 3.45 11.22
10/30/2021 8:45:00 PM 11.48 52.664 0.049 6.59 3.55 11.22
10/30/2021 9:00:00 PM 11.47 52.646 0.049 6.6 3.46 11.22
10/30/2021 9:15:00 PM 11.46 52.628 0.049 6.6 3.5 11.22
10/30/2021 9:30:00 PM 11.46 52.628 0.049 6.61 3.29 11.21
10/30/2021 9:45:00 PM 11.45 52.61 0.049 6.6 3.58 11.23
10/30/2021 10:00:00 PM 11.44 52.592 0.049 6.6 3.54 11.22
10/30/2021 10:15:00 PM 11.44 52.592 0.049 6.61 3.28 11.23
10/30/2021 10:30:00 PM 11.43 52.574 0.049 6.6 3.3 11.23
10/30/2021 10:45:00 PM 11.42 52.556 0.049 6.6 3.36 11.23
10/30/2021 11:00:00 PM 11.42 52.556 0.049 6.6 3.17 11.23
10/30/2021 11:15:00 PM 11.41 52.538 0.049 6.6 3.32 11.24
10/30/2021 11:30:00 PM 11.41 52.538 0.049 6.6 3.36 11.23
10/30/2021 11:45:00 PM 11.4 52.52 0.049 6.6 3.23 11.24
10/31/2021 12:00:00 AM 11.39 52.502 0.049 6.6 3.16 11.25
10/31/2021 12:15:00 AM 11.39 52.502 0.049 6.6 3.25 11.24
10/31/2021 12:30:00 AM 11.38 52.484 0.049 6.61 3.44 11.23
10/31/2021 12:45:00 AM 11.37 52.466 0.049 6.61 3.23 11.23
10/31/2021 1:00:00 AM 11.36 52.448 0.049 6.6 3.01 11.23
10/31/2021 1:15:00 AM 11.36 52.448 0.049 6.6 3.22 11.24
10/31/2021 1:30:00 AM 11.35 52.43 0.049 6.6 3.13 11.24
10/31/2021 1:45:00 AM 11.34 52.412 0.049 6.6 3.12 11.25
10/31/2021 2:00:00 AM 11.33 52.394 0.049 6.59 3.06 11.25
10/31/2021 2:15:00 AM 11.32 52.376 0.049 6.59 3.05 11.25
10/31/2021 2:30:00 AM 11.3 52.34 0.049 6.59 3.24 11.24
10/31/2021 2:45:00 AM 11.29 52.322 0.049 6.59 3.2 11.26
10/31/2021 3:00:00 AM 11.28 52.304 0.049 6.59 3.07 11.25
10/31/2021 3:15:00 AM 11.27 52.286 0.049 6.6 3.05 11.26
10/31/2021 3:30:00 AM 11.26 52.268 0.049 6.6 2.89 11.25
10/31/2021 3:45:00 AM 11.25 52.25 0.05 6.6 3.1 11.25
10/31/2021 4:00:00 AM 11.24 52.232 0.049 6.6 3.16 11.27
10/31/2021 4:15:00 AM 11.23 52.214 0.049 6.6 9.94 11.27
10/31/2021 4:30:00 AM 11.23 52.214 0.049 6.6 2.79 11.27
10/31/2021 4:45:00 AM 11.22 52.196 0.049 6.61 2.82 11.26
10/31/2021 5:00:00 AM 11.21 52.178 0.049 6.6 2.9 11.27
10/31/2021 5:15:00 AM 11.21 52.178 0.05 6.6 2.87 11.27
10/31/2021 5:30:00 AM 11.2 52.16 0.049 6.6 2.84 11.28
10/31/2021 5:45:00 AM 11.19 52.142 0.05 6.6 2.92 11.28
10/31/2021 6:00:00 AM 11.18 52.124 0.049 6.6 2.71 11.28
10/31/2021 6:15:00 AM 11.17 52.106 0.049 6.6 2.69 11.28
10/31/2021 6:30:00 AM 11.16 52.088 0.049 6.59 2.89 11.29
10/31/2021 6:45:00 AM 11.16 52.088 0.049 6.59 2.93 11.28
10/31/2021 7:00:00 AM 11.15 52.07 0.049 6.59 2.87 11.29
10/31/2021 7:15:00 AM 11.14 52.052 0.049 6.59 2.83 11.29
10/31/2021 7:30:00 AM 11.14 52.052 0.05 6.59 2.86 11.29
10/31/2021 7:45:00 AM 11.14 52.052 0.05 6.59 3.03 11.3
10/31/2021 8:00:00 AM 11.13 52.034 0.05 6.59 2.95 11.31
10/31/2021 8:15:00 AM 11.13 52.034 0.05 6.59 2.83 11.31
10/31/2021 8:30:00 AM 11.14 52.052 0.05 6.59 2.8 11.33
10/31/2021 8:45:00 AM 11.14 52.052 0.05 6.59 2.64 11.32
10/31/2021 9:00:00 AM 11.14 52.052 0.05 6.59 2.68 11.33
10/31/2021 9:15:00 AM 11.15 52.07 0.05 6.6 2.7 11.34
10/31/2021 9:30:00 AM 11.16 52.088 0.05 6.61 2.67 11.34
10/31/2021 9:45:00 AM 11.19 52.142 0.05 6.62 2.68 11.37
10/31/2021 10:00:00 AM 11.23 52.214 0.05 6.63 2.67 11.38
10/31/2021 10:15:00 AM 11.28 52.304 0.05 6.64 2.67 11.38
10/31/2021 10:30:00 AM 11.35 52.43 0.05 6.65 2.85 11.37
10/31/2021 10:45:00 AM 11.42 52.556 0.05 6.66 2.87 11.36
10/31/2021 11:00:00 AM 11.46 52.628 0.05 6.66 2.49 11.35
10/31/2021 11:15:00 AM 11.46 52.628 0.05 6.66 2.74 11.35
10/31/2021 11:30:00 AM 11.44 52.592 0.05 6.65 2.64 11.33
10/31/2021 11:45:00 AM 11.43 52.574 0.05 6.65 2.56 11.34
10/31/2021 12:00:00 PM 11.42 52.556 0.05 6.65 2.54 11.33
10/31/2021 12:15:00 PM 11.41 52.538 0.05 6.65 2.58 11.33
10/31/2021 12:30:00 PM 11.4 52.52 0.05 6.65 2.44 11.35
10/31/2021 12:45:00 PM 11.41 52.538 0.05 6.65 2.5 11.33
10/31/2021 1:00:00 PM 11.4 52.52 0.05 6.65 2.59 11.35
10/31/2021 1:15:00 PM 11.42 52.556 0.05 6.65 2.46 11.35
10/31/2021 1:30:00 PM 11.49 52.682 0.05 6.65 2.56 11.35
10/31/2021 1:45:00 PM 11.51 52.718 0.05 6.65 2.52 11.35
10/31/2021 2:00:00 PM 11.52 52.736 0.05 6.65 2.55 11.32
10/31/2021 2:15:00 PM 11.52 52.736 0.05 6.65 2.56 11.32
10/31/2021 2:30:00 PM 11.56 52.808 0.05 6.65 2.24 11.33
10/31/2021 2:45:00 PM 11.59 52.862 0.05 6.64 2.45 11.33
10/31/2021 3:00:00 PM 11.6 52.88 0.05 6.65 5.46 11.32
10/31/2021 3:15:00 PM 11.63 52.934 0.05 6.64 2.53 11.32
10/31/2021 3:30:00 PM 11.64 52.952 0.05 6.64 2.55 11.3
10/31/2021 3:45:00 PM 11.65 52.97 0.05 6.64 6.84 11.28
10/31/2021 4:00:00 PM 11.67 53.006 0.05 6.64 2.41 11.29
10/31/2021 4:15:00 PM 11.67 53.006 0.05 6.64 3.21 11.29
10/31/2021 4:30:00 PM 11.68 53.024 0.05 6.65 2.76 11.28
10/31/2021 4:45:00 PM 11.67 53.006 0.05 6.64 2.6 11.27
10/31/2021 5:00:00 PM 11.65 52.97 0.05 6.64 2.65 11.28
10/31/2021 5:15:00 PM 11.64 52.952 0.05 6.64 2.55 11.28
10/31/2021 5:30:00 PM 11.62 52.916 0.05 6.64 2.59 11.27
10/31/2021 5:45:00 PM 11.58 52.844 0.05 6.63 2.59 11.27
10/31/2021 6:00:00 PM 11.54 52.772 0.05 6.62 2.5 11.26
10/31/2021 6:15:00 PM 11.51 52.718 0.05 6.62 2.51 11.27
10/31/2021 6:30:00 PM 11.48 52.664 0.05 6.61 2.53 11.27
10/31/2021 6:45:00 PM 11.44 52.592 0.05 6.61 2.63 11.29
10/31/2021 7:00:00 PM 11.4 52.52 0.05 6.61 2.5 11.29
10/31/2021 7:15:00 PM 11.36 52.448 0.05 6.6 2.57 11.31
10/31/2021 7:30:00 PM 11.32 52.376 0.05 6.6 2.61 11.32
10/31/2021 7:45:00 PM 11.28 52.304 0.05 6.6 2.43 11.33
10/31/2021 8:00:00 PM 11.25 52.25 0.05 6.59 2.5 11.33
10/31/2021 8:15:00 PM 11.21 52.178 0.05 6.59 2.63 11.35
10/31/2021 8:30:00 PM 11.18 52.124 0.05 6.6 2.49 11.35
10/31/2021 8:45:00 PM 11.15 52.07 0.05 6.59 2.41 11.38
10/31/2021 9:00:00 PM 11.12 52.016 0.05 6.59 2.51 11.38
10/31/2021 9:15:00 PM 11.1 51.98 0.05 6.59 2.56 11.39
10/31/2021 9:30:00 PM 11.08 51.944 0.05 6.6 2.36 11.4
10/31/2021 9:45:00 PM 11.04 51.872 0.05 6.59 2.32 11.41
10/31/2021 10:00:00 PM 11.01 51.818 0.05 6.59 2.45 11.41
10/31/2021 10:15:00 PM 10.99 51.782 0.05 6.59 2.32 11.43
10/31/2021 10:30:00 PM 10.97 51.746 0.05 6.59 2.4 11.43
10/31/2021 10:45:00 PM 10.94 51.692 0.05 6.6 2.38 11.44
10/31/2021 11:00:00 PM 10.92 51.656 0.05 6.6 2.29 11.45
10/31/2021 11:15:00 PM 10.9 51.62 0.05 6.59 2.34 11.45
10/31/2021 11:30:00 PM 10.89 51.602 0.05 6.59 2.43 11.46
10/31/2021 11:45:00 PM 10.87 51.566 0.05 6.59 2.23 11.46
11/1/2021 12:00:00 AM 10.86 51.548 0.05 6.6 2.39 11.47
11/1/2021 12:15:00 AM 10.85 51.53 0.05 6.6 2.49 11.47
11/1/2021 12:30:00 AM 10.85 51.53 0.05 6.61 2.27 11.47
11/1/2021 12:45:00 AM 10.85 51.53 0.05 6.6 2.34 11.47
11/1/2021 1:00:00 AM 10.84 51.512 0.05 6.6 2.48 11.47
11/1/2021 1:15:00 AM 10.83 51.494 0.05 6.6 2.3 11.48
11/1/2021 1:30:00 AM 10.83 51.494 0.05 6.6 2.33 11.48
11/1/2021 1:45:00 AM 10.83 51.494 0.05 6.6 2.27 11.48
11/1/2021 2:00:00 AM 10.83 51.494 0.05 6.61 2.36 11.48
11/1/2021 2:15:00 AM 10.82 51.476 0.05 6.61 2.24 11.49
11/1/2021 2:30:00 AM 10.82 51.476 0.05 6.61 2.29 11.49
11/1/2021 2:45:00 AM 10.82 51.476 0.05 6.61 2.28 11.49
11/1/2021 3:00:00 AM 10.81 51.458 0.05 6.61 2.15 11.5
11/1/2021 3:15:00 AM 10.8 51.44 0.05 6.62 2.25 11.5
11/1/2021 3:30:00 AM 10.78 51.404 0.05 6.62 2.33 11.5
11/1/2021 3:45:00 AM 10.75 51.35 0.05 6.61 2.47 11.52
11/1/2021 4:00:00 AM 10.71 51.278 0.05 6.61 2.29 11.53
11/1/2021 4:15:00 AM 10.67 51.206 0.05 6.61 2.32 11.54
11/1/2021 4:30:00 AM 10.64 51.152 0.05 6.62 2.15 11.55
11/1/2021 4:45:00 AM 10.59 51.062 0.051 6.61 2.52 11.57
11/1/2021 5:00:00 AM 10.55 50.99 0.051 6.61 2.27 11.58
11/1/2021 5:15:00 AM 10.53 50.954 0.051 6.62 2.34 11.6
11/1/2021 5:30:00 AM 10.49 50.882 0.051 6.61 2.41 11.61
11/1/2021 5:45:00 AM 10.45 50.81 0.051 6.61 5.18 11.62
11/1/2021 6:00:00 AM 10.4 50.72 0.051 6.61 2.48 11.64
11/1/2021 6:15:00 AM 10.36 50.648 0.051 6.61 2.34 11.65
11/1/2021 6:30:00 AM 10.32 50.576 0.051 6.61 2.4 11.67
11/1/2021 6:45:00 AM 10.27 50.486 0.051 6.61 2.33 11.68
11/1/2021 7:00:00 AM 10.22 50.396 0.051 6.61 2.31 11.69
11/1/2021 7:15:00 AM 10.17 50.306 0.051 6.61 2.31 11.71
11/1/2021 7:30:00 AM 10.12 50.216 0.051 6.6 2.35 11.74
11/1/2021 7:45:00 AM 10.06 50.108 0.051 6.6 2.55 11.75
11/1/2021 8:00:00 AM 10.01 50.018 0.051 6.61 4.12 11.77
11/1/2021 8:15:00 AM 9.96 49.928 0.051 6.61 2.14 11.8
11/1/2021 8:30:00 AM 9.91 49.838 0.051 6.61 2.23 11.83
11/1/2021 8:45:00 AM 9.86 49.748 0.051 6.61 2.21 11.85
11/1/2021 9:00:00 AM 9.82 49.676 0.051 6.61 2.16 11.87
11/1/2021 9:15:00 AM 9.81 49.658 0.051 6.62 2.2 11.9
11/1/2021 9:30:00 AM 9.8 49.64 0.051 6.62 2.08 11.92
11/1/2021 9:45:00 AM 9.8 49.64 0.051 6.62 2.19 11.93
11/1/2021 10:00:00 AM 9.81 49.658 0.051 6.63 2.3 11.94
11/1/2021 10:15:00 AM 9.83 49.694 0.051 6.63 2.13 11.95
11/1/2021 10:30:00 AM 9.84 49.712 0.051 6.64 2.57 11.95
11/1/2021 10:45:00 AM 9.91 49.838 0.051 6.64 2.13 11.96
11/1/2021 11:00:00 AM 9.93 49.874 0.051 6.64 2.07 11.96
11/1/2021 11:15:00 AM 9.95 49.91 0.051 6.64 2.02 11.95
11/1/2021 11:30:00 AM 10.01 50.018 0.051 6.64 2.14 11.95
11/1/2021 11:45:00 AM 10.05 50.09 0.051 6.64 2.21 11.94
11/1/2021 12:00:00 PM 10.06 50.108 0.051 6.64 2.14 11.92
11/1/2021 12:15:00 PM 10.07 50.126 0.051 6.63 2.08 11.9
11/1/2021 12:30:00 PM 10.06 50.108 0.051 6.62 2.1 11.89
11/1/2021 12:45:00 PM 10.07 50.126 0.051 6.6 1.97 11.89
11/1/2021 1:00:00 PM 10.15 50.27 0.051 6.51 2.08 11.88
11/1/2021 1:15:00 PM 10.17 50.306 0.051 6.47 2.51 11.87
11/1/2021 1:30:00 PM 10.22 50.396 0.051 6.49 2.03 11.85
11/1/2021 1:45:00 PM 10.23 50.414 0.051 6.53 2.04 11.85
11/1/2021 2:00:00 PM 10.28 50.504 0.051 6.57 2.15 11.83
11/1/2021 2:15:00 PM 10.28 50.504 0.051 6.6 2.01 11.82
11/1/2021 2:30:00 PM 10.31 50.558 0.051 6.62 2.08 11.81
11/1/2021 2:45:00 PM 10.33 50.594 0.051 6.62 2.07 11.8
11/1/2021 3:00:00 PM 10.35 50.63 0.051 6.64 2.01 11.8
11/1/2021 3:15:00 PM 10.37 50.666 0.051 6.64 2.04 11.79
11/1/2021 3:30:00 PM 10.39 50.702 0.051 6.66 2.12 11.77
11/1/2021 3:45:00 PM 10.4 50.72 0.051 6.64 2.05 11.77
11/1/2021 4:00:00 PM 10.41 50.738 0.051 6.65 2.12 11.77
11/1/2021 4:15:00 PM 10.39 50.702 0.051 6.65 2 11.76
11/1/2021 4:30:00 PM 10.37 50.666 0.051 6.65 2.4 11.76
11/1/2021 4:45:00 PM 10.34 50.612 0.051 6.64 1.99 11.76
11/1/2021 5:00:00 PM 10.31 50.558 0.051 6.65 1.99 11.76
11/1/2021 5:15:00 PM 10.26 50.468 0.051 6.65 2.13 11.76
11/1/2021 5:30:00 PM 10.22 50.396 0.051 6.64 1.95 11.78
11/1/2021 5:45:00 PM 10.19 50.342 0.051 6.64 1.94 11.77
11/1/2021 6:00:00 PM 10.15 50.27 0.051 6.64 2.06 11.77
11/1/2021 6:15:00 PM 10.12 50.216 0.049 6.6 3.32 11.76
11/1/2021 6:30:00 PM 10.08 50.144 0.051 6.62 1.99 11.77
11/1/2021 6:45:00 PM 10.03 50.054 0.052 6.62 2.08 11.78
11/1/2021 7:00:00 PM 9.99 49.982 0.051 6.61 2.13 11.79
11/1/2021 7:15:00 PM 9.96 49.928 0.052 6.6 2.07 11.81
11/1/2021 7:30:00 PM 9.92 49.856 0.052 6.57 2.13 11.81
11/1/2021 7:45:00 PM 9.88 49.784 0.052 6.55 2.03 11.83
11/1/2021 8:00:00 PM 9.84 49.712 0.052 6.53 2.01 11.84
11/1/2021 8:15:00 PM 9.81 49.658 0.052 6.52 2.01 11.85
11/1/2021 8:30:00 PM 9.77 49.586 0.052 6.51 2.02 11.86
11/1/2021 8:45:00 PM 9.73 49.514 0.052 6.51 2.08 11.88
11/1/2021 9:00:00 PM 9.69 49.442 0.052 6.51 2.02 11.89
11/1/2021 9:15:00 PM 9.64 49.352 0.052 6.5 2.1 11.9
11/1/2021 9:30:00 PM 9.59 49.262 0.052 6.49 2.11 11.91
11/1/2021 9:45:00 PM 9.54 49.172 0.052 6.5 2.05 11.93
11/1/2021 10:00:00 PM 9.48 49.064 0.052 6.49 2 11.95
11/1/2021 10:15:00 PM 9.43 48.974 0.052 6.49 2.01 11.96
11/1/2021 10:30:00 PM 9.37 48.866 0.052 6.47 1.93 11.98
11/1/2021 10:45:00 PM 9.32 48.776 0.052 6.48 1.95 12
11/1/2021 11:00:00 PM 9.27 48.686 0.052 6.48 1.92 12.01
11/1/2021 11:15:00 PM 9.22 48.596 0.052 6.49 2 12.03
11/1/2021 11:30:00 PM 9.18 48.524 0.052 6.5 2.06 12.03
11/1/2021 11:45:00 PM 9.14 48.452 0.052 6.5 1.98 12.05
11/2/2021 12:00:00 AM 9.1 48.38 0.052 6.5 2.04 12.07
11/2/2021 12:15:00 AM 9.06 48.308 0.052 6.52 2.01 12.07
11/2/2021 12:30:00 AM 9.03 48.254 0.052 6.52 2 12.09
11/2/2021 12:45:00 AM 9 48.2 0.052 6.53 1.96 12.1
11/2/2021 1:00:00 AM 8.97 48.146 0.052 6.54 1.88 12.1
11/2/2021 1:15:00 AM 8.94 48.092 0.052 6.54 2.03 12.12
11/2/2021 1:30:00 AM 8.91 48.038 0.052 6.55 1.95 12.12
11/2/2021 1:45:00 AM 8.89 48.002 0.052 6.55 1.98 12.12
11/2/2021 2:00:00 AM 8.86 47.948 0.052 6.55 1.97 12.13
11/2/2021 2:15:00 AM 8.84 47.912 0.052 6.55 1.94 12.15
11/2/2021 2:30:00 AM 8.81 47.858 0.052 6.55 1.85 12.14
11/2/2021 2:45:00 AM 8.79 47.822 0.052 6.56 2.07 12.16
11/2/2021 3:00:00 AM 8.77 47.786 0.052 6.56 2.11 12.17
11/2/2021 3:15:00 AM 8.76 47.768 0.052 6.56 1.98 12.17
11/2/2021 3:30:00 AM 8.74 47.732 0.052 6.56 1.87 12.17
11/2/2021 3:45:00 AM 8.72 47.696 0.052 6.57 2.01 12.17
11/2/2021 4:00:00 AM 8.71 47.678 0.052 6.58 1.91 12.19
11/2/2021 4:15:00 AM 8.69 47.642 0.052 6.56 1.9 12.18
11/2/2021 4:30:00 AM 8.68 47.624 0.052 6.56 1.96 12.19
11/2/2021 4:45:00 AM 8.68 47.624 0.052 6.56 1.99 12.19
11/2/2021 5:00:00 AM 8.66 47.588 0.052 6.57 1.81 12.2
11/2/2021 5:15:00 AM 8.66 47.588 0.052 6.57 1.93 12.19
11/2/2021 5:30:00 AM 8.64 47.552 0.052 6.58 1.98 12.2
11/2/2021 5:45:00 AM 8.62 47.516 0.052 6.57 1.93 12.2
11/2/2021 6:00:00 AM 8.61 47.498 0.052 6.57 2.03 12.21
11/2/2021 6:15:00 AM 8.59 47.462 0.052 6.57 1.87 12.22
11/2/2021 6:30:00 AM 8.56 47.408 0.052 6.57 1.86 12.23
11/2/2021 6:45:00 AM 8.53 47.354 0.052 6.57 1.84 12.23
11/2/2021 7:00:00 AM 8.51 47.318 0.052 6.57 1.95 12.24
11/2/2021 7:15:00 AM 8.48 47.264 0.052 6.56 2.02 12.25
11/2/2021 7:30:00 AM 8.45 47.21 0.052 6.57 1.85 12.26
11/2/2021 7:45:00 AM 8.42 47.156 0.052 6.56 1.79 12.27
11/2/2021 8:00:00 AM 8.38 47.084 0.052 6.56 3.48 12.27
11/2/2021 8:15:00 AM 8.35 47.03 0.052 6.56 1.87 12.31
11/2/2021 8:30:00 AM 8.32 46.976 0.052 6.57 1.85 12.33
11/2/2021 8:45:00 AM 8.29 46.922 0.052 6.56 1.76 12.35
11/2/2021 9:00:00 AM 8.27 46.886 0.052 6.55 1.72 12.37
11/2/2021 9:15:00 AM 8.26 46.868 0.052 6.56 1.88 12.4
11/2/2021 9:30:00 AM 8.25 46.85 0.052 6.56 1.84 12.42
11/2/2021 9:45:00 AM 8.26 46.868 0.052 6.57 1.83 12.43
11/2/2021 10:00:00 AM 8.29 46.922 0.052 6.58 1.74 12.44
11/2/2021 10:15:00 AM 8.33 46.994 0.052 6.59 1.76 12.43
11/2/2021 10:30:00 AM 8.39 47.102 0.052 6.62 1.9 12.44
11/2/2021 10:45:00 AM 8.44 47.192 0.052 6.62 1.92 12.42
11/2/2021 11:00:00 AM 8.49 47.282 0.052 6.64 1.87 12.42
11/2/2021 11:15:00 AM 8.51 47.318 0.052 6.64 1.8 12.4
11/2/2021 11:30:00 AM 8.6 47.48 0.052 6.65 1.78 12.38
11/2/2021 11:45:00 AM 8.65 47.57 0.052 6.65 1.81 12.36
11/2/2021 12:00:00 PM 8.72 47.696 0.052 6.66 1.7 12.35
11/2/2021 12:15:00 PM 8.85 47.93 0.052 6.66 1.7 12.33
11/2/2021 12:30:00 PM 8.86 47.948 0.052 6.67 1.79 12.3
11/2/2021 12:45:00 PM 8.93 48.074 0.052 6.67 1.74 12.26
11/2/2021 1:00:00 PM 8.93 48.074 0.052 6.67 1.72 12.26
11/2/2021 1:15:00 PM 8.97 48.146 0.053 6.67 1.71 12.22
11/2/2021 1:30:00 PM 9 48.2 0.052 6.67 1.67 12.22
11/2/2021 1:45:00 PM 9 48.2 0.052 6.67 1.83 12.23
11/2/2021 2:00:00 PM 9.06 48.308 0.053 6.67 1.79 12.21
11/2/2021 2:15:00 PM 9.05 48.29 0.053 6.67 1.76 12.2
11/2/2021 2:30:00 PM 9.11 48.398 0.053 6.67 1.87 12.2
11/2/2021 2:45:00 PM 9.15 48.47 0.053 6.67 1.71 12.17
11/2/2021 3:00:00 PM 9.18 48.524 0.053 6.67 1.74 12.17
11/2/2021 3:15:00 PM 9.22 48.596 0.053 6.67 1.89 12.15
11/2/2021 3:30:00 PM 9.25 48.65 0.053 6.67 2.24 12.14
11/2/2021 3:45:00 PM 9.23 48.614 0.053 6.67 1.77 12.13
11/2/2021 4:00:00 PM 9.22 48.596 0.053 6.67 1.73 12.12
11/2/2021 4:15:00 PM 9.21 48.578 0.053 6.67 1.68 12.13
11/2/2021 4:30:00 PM 9.19 48.542 0.053 6.67 1.93 12.13
11/2/2021 4:45:00 PM 9.16 48.488 0.053 6.67 1.78 12.13
11/2/2021 5:00:00 PM 9.14 48.452 0.053 6.67 1.76 12.12
11/2/2021 5:15:00 PM 9.12 48.416 0.053 6.66 1.76 12.13
11/2/2021 5:30:00 PM 9.1 48.38 0.053 6.66 1.71 12.12
11/2/2021 5:45:00 PM 9.06 48.308 0.053 6.66 1.88 12.12
11/2/2021 6:00:00 PM 9.02 48.236 0.053 6.66 1.8 12.11
11/2/2021 6:15:00 PM 9 48.2 0.053 6.65 1.69 12.11
11/2/2021 6:30:00 PM 8.97 48.146 0.053 6.66 1.83 12.11
11/2/2021 6:45:00 PM 8.95 48.11 0.053 6.64 1.72 12.11
11/2/2021 7:00:00 PM 8.94 48.092 0.053 6.64 1.75 12.11
11/2/2021 7:15:00 PM 8.91 48.038 0.053 6.63 2.08 12.12
11/2/2021 7:30:00 PM 8.88 47.984 0.053 6.64 2.04 12.13
11/2/2021 7:45:00 PM 8.87 47.966 0.053 6.64 1.74 12.14
11/2/2021 8:00:00 PM 8.84 47.912 0.053 6.63 1.8 12.15
11/2/2021 8:15:00 PM 8.82 47.876 0.053 6.63 1.77 12.15
11/2/2021 8:30:00 PM 8.8 47.84 0.053 6.63 1.95 12.16
11/2/2021 8:45:00 PM 8.78 47.804 0.053 6.64 1.78 12.17
11/2/2021 9:00:00 PM 8.75 47.75 0.053 6.63 1.81 12.17
11/2/2021 9:15:00 PM 8.71 47.678 0.053 6.63 1.77 12.18
11/2/2021 9:30:00 PM 8.66 47.588 0.053 6.63 1.82 12.19
11/2/2021 9:45:00 PM 8.61 47.498 0.053 6.63 1.74 12.2
11/2/2021 10:00:00 PM 8.57 47.426 0.053 6.62 1.74 12.22
11/2/2021 10:15:00 PM 8.52 47.336 0.053 6.62 1.76 12.23
11/2/2021 10:30:00 PM 8.49 47.282 0.053 6.63 1.74 12.25
11/2/2021 10:45:00 PM 8.45 47.21 0.053 6.63 1.71 12.26
11/2/2021 11:00:00 PM 8.41 47.138 0.053 6.62 1.72 12.27
11/2/2021 11:15:00 PM 8.37 47.066 0.053 6.62 1.75 12.28
11/2/2021 11:30:00 PM 8.31 46.958 0.053 6.63 1.91 12.3
11/2/2021 11:45:00 PM 8.27 46.886 0.053 6.62 1.74 12.31
11/3/2021 12:00:00 AM 8.23 46.814 0.053 6.62 1.75 12.33
11/3/2021 12:15:00 AM 8.19 46.742 0.053 6.62 1.75 12.33
11/3/2021 12:30:00 AM 8.15 46.67 0.053 6.62 1.88 12.35
11/3/2021 12:45:00 AM 8.11 46.598 0.053 6.62 1.72 12.37
11/3/2021 1:00:00 AM 8.09 46.562 0.053 6.63 1.75 12.37
11/3/2021 1:15:00 AM 8.06 46.508 0.053 6.61 1.86 12.38
11/3/2021 1:30:00 AM 8.04 46.472 0.053 6.62 1.77 12.39
11/3/2021 1:45:00 AM 8.01 46.418 0.053 6.62 1.68 12.4
11/3/2021 2:00:00 AM 7.99 46.382 0.053 6.62 1.85 12.4
11/3/2021 2:15:00 AM 7.97 46.346 0.053 6.61 1.91 12.41
11/3/2021 2:30:00 AM 7.95 46.31 0.053 6.62 1.68 12.42
11/3/2021 2:45:00 AM 7.93 46.274 0.053 6.59 1.78 12.43
11/3/2021 3:00:00 AM 7.91 46.238 0.053 6.56 1.71 12.43
11/3/2021 3:15:00 AM 7.89 46.202 0.053 6.54 1.7 12.44
11/3/2021 3:30:00 AM 7.88 46.184 0.053 6.54 1.78 12.45
11/3/2021 3:45:00 AM 7.87 46.166 0.053 6.53 1.76 12.45
11/3/2021 4:00:00 AM 7.86 46.148 0.054 6.55 1.68 12.45
11/3/2021 4:15:00 AM 7.85 46.13 0.053 6.54 1.74 12.46
11/3/2021 4:30:00 AM 7.84 46.112 0.054 6.55 1.71 12.46
11/3/2021 4:45:00 AM 7.84 46.112 0.054 6.57 1.92 12.46
11/3/2021 5:00:00 AM 7.83 46.094 0.054 6.57 1.65 12.46
11/3/2021 5:15:00 AM 7.82 46.076 0.054 6.58 1.75 12.46
11/3/2021 5:30:00 AM 7.82 46.076 0.054 6.59 1.76 12.47
11/3/2021 5:45:00 AM 7.8 46.04 0.054 6.58 1.88 12.47
11/3/2021 6:00:00 AM 7.8 46.04 0.054 6.6 1.72 12.47
11/3/2021 6:15:00 AM 7.79 46.022 0.054 6.6 1.69 12.48
11/3/2021 6:30:00 AM 7.77 45.986 0.054 6.59 1.7 12.48
11/3/2021 6:45:00 AM 7.76 45.968 0.054 6.59 1.76 12.49
11/3/2021 7:00:00 AM 7.74 45.932 0.054 6.59 1.63 12.5
11/3/2021 7:15:00 AM 7.71 45.878 0.054 6.58 1.73 12.5
11/3/2021 7:30:00 AM 7.69 45.842 0.054 6.59 1.86 12.5
11/3/2021 7:45:00 AM 7.65 45.77 0.054 6.59 1.76 12.51
11/3/2021 8:00:00 AM 7.62 45.716 0.054 6.58 1.62 12.54
11/3/2021 8:15:00 AM 7.6 45.68 0.054 6.59 1.71 12.56
11/3/2021 8:30:00 AM 7.57 45.626 0.054 6.57 1.62 12.59
11/3/2021 8:45:00 AM 7.56 45.608 0.054 6.57 1.61 12.62
11/3/2021 9:00:00 AM 7.55 45.59 0.054 6.57 1.58 12.64
11/3/2021 9:15:00 AM 7.54 45.572 0.054 6.57 1.55 12.65
11/3/2021 9:30:00 AM 7.53 45.554 0.054 6.58 1.63 12.67
11/3/2021 9:45:00 AM 7.56 45.608 0.054 6.59 1.71 12.68
11/3/2021 10:00:00 AM 7.57 45.626 0.054 6.61 1.6 12.67
11/3/2021 10:15:00 AM 7.6 45.68 0.054 6.61 1.56 12.68
11/3/2021 10:30:00 AM 7.63 45.734 0.054 6.63 1.58 12.69
11/3/2021 10:45:00 AM 7.67 45.806 0.054 6.63 1.58 12.68
11/3/2021 11:00:00 AM 7.71 45.878 0.054 6.66 1.65 12.68
11/3/2021 11:15:00 AM 7.74 45.932 0.054 6.66 1.59 12.67
11/3/2021 11:30:00 AM 7.76 45.968 0.054 6.66 1.55 12.66
11/3/2021 11:45:00 AM 7.78 46.004 0.054 6.66 1.53 12.65
11/3/2021 12:00:00 PM 7.84 46.112 0.054 6.67 1.77 12.65
11/3/2021 12:15:00 PM 7.89 46.202 0.054 6.67 1.72 12.64
11/3/2021 12:30:00 PM 7.96 46.328 0.054 6.67 1.63 12.63
11/3/2021 12:45:00 PM 8 46.4 0.054 6.69 1.58 12.61
11/3/2021 1:00:00 PM 8.04 46.472 0.054 6.68 1.5 12.6
11/3/2021 1:15:00 PM 8.09 46.562 0.054 6.69 1.59 12.57
11/3/2021 1:30:00 PM 8.16 46.688 0.054 6.68 1.56 12.56
11/3/2021 1:45:00 PM 8.19 46.742 0.054 6.69 1.69 12.54
11/3/2021 2:00:00 PM 8.27 46.886 0.054 6.69 1.65 12.52
11/3/2021 2:15:00 PM 8.37 47.066 0.054 6.69 1.57 12.5
11/3/2021 2:30:00 PM 8.34 47.012 0.054 6.68 1.6 12.48
11/3/2021 2:45:00 PM 8.39 47.102 0.054 6.68 1.56 12.48
11/3/2021 3:00:00 PM 8.4 47.12 0.054 6.69 1.61 12.45
11/3/2021 3:15:00 PM 8.38 47.084 0.054 6.68 1.6 12.45
11/3/2021 3:30:00 PM 8.45 47.21 0.054 6.68 1.59 12.43
11/3/2021 3:45:00 PM 8.48 47.264 0.054 6.68 1.49 12.43
11/3/2021 4:00:00 PM 8.54 47.372 0.054 6.69 1.44 12.39
11/3/2021 4:15:00 PM 8.56 47.408 0.054 6.69 1.62 12.4
11/3/2021 4:30:00 PM 8.57 47.426 0.054 6.68 1.56 12.39
11/3/2021 4:45:00 PM 8.56 47.408 0.054 6.69 1.59 12.37
11/3/2021 5:00:00 PM 8.54 47.372 0.054 6.67 1.52 12.34
11/3/2021 5:15:00 PM 8.47 47.246 0.054 6.67 1.53 12.34
11/3/2021 5:30:00 PM 8.43 47.174 0.054 6.66 1.47 12.34
11/3/2021 5:45:00 PM 8.39 47.102 0.054 6.66 1.54 12.35
11/3/2021 6:00:00 PM 8.35 47.03 0.054 6.66 1.79 12.35
11/3/2021 6:15:00 PM 8.32 46.976 0.054 6.65 1.62 12.35
11/3/2021 6:30:00 PM 8.29 46.922 0.054 6.65 1.63 12.35
11/3/2021 6:45:00 PM 8.27 46.886 0.054 6.65 1.6 12.35
11/3/2021 7:00:00 PM 8.24 46.832 0.054 6.65 1.7 12.36
11/3/2021 7:15:00 PM 8.22 46.796 0.054 6.64 1.6 12.37
11/3/2021 7:30:00 PM 8.19 46.742 0.054 6.65 1.68 12.38
11/3/2021 7:45:00 PM 8.17 46.706 0.054 6.64 1.6 12.39
11/3/2021 8:00:00 PM 8.14 46.652 0.054 6.64 1.52 12.4
11/3/2021 8:15:00 PM 8.11 46.598 0.054 6.65 1.77 12.41
11/3/2021 8:30:00 PM 8.08 46.544 0.054 6.64 1.77 12.41
11/3/2021 8:45:00 PM 8.05 46.49 0.054 6.64 1.54 12.42
11/3/2021 9:00:00 PM 8.01 46.418 0.054 6.64 1.55 12.43
11/3/2021 9:15:00 PM 7.97 46.346 0.054 6.63 1.69 12.44
11/3/2021 9:30:00 PM 7.94 46.292 0.054 6.64 1.61 12.45
11/3/2021 9:45:00 PM 7.9 46.22 0.054 6.64 1.58 12.47
11/3/2021 10:00:00 PM 7.86 46.148 0.054 6.64 1.57 12.48
11/3/2021 10:15:00 PM 7.82 46.076 0.054 6.64 1.7 12.49
11/3/2021 10:30:00 PM 7.78 46.004 0.054 6.63 1.57 12.5
11/3/2021 10:45:00 PM 7.74 45.932 0.054 6.63 1.61 12.51
11/3/2021 11:00:00 PM 7.71 45.878 0.054 6.63 1.52 12.53
11/3/2021 11:15:00 PM 7.68 45.824 0.054 6.64 1.65 12.53
11/3/2021 11:30:00 PM 7.65 45.77 0.054 6.64 1.58 12.55
11/3/2021 11:45:00 PM 7.64 45.752 0.054 6.62 1.61 12.56
11/4/2021 12:00:00 AM 7.61 45.698 0.054 6.63 1.67 12.56
11/4/2021 12:15:00 AM 7.59 45.662 0.054 6.62 1.6 12.57
11/4/2021 12:30:00 AM 7.57 45.626 0.054 6.63 1.51 12.58
11/4/2021 12:45:00 AM 7.55 45.59 0.055 6.63 1.52 12.58
11/4/2021 1:00:00 AM 7.53 45.554 0.055 6.62 1.64 12.59
11/4/2021 1:15:00 AM 7.5 45.5 0.055 6.6 1.54 12.6
11/4/2021 1:30:00 AM 7.47 45.446 0.055 6.59 1.51 12.61
11/4/2021 1:45:00 AM 7.44 45.392 0.055 6.57 1.6 12.61
11/4/2021 2:00:00 AM 7.41 45.338 0.055 6.57 1.62 12.62
11/4/2021 2:15:00 AM 7.38 45.284 0.055 6.56 1.6 12.63
11/4/2021 2:30:00 AM 7.35 45.23 0.055 6.56 1.64 12.64
11/4/2021 2:45:00 AM 7.31 45.158 0.055 6.56 1.71 12.65
11/4/2021 3:00:00 AM 7.28 45.104 0.055 6.57 1.54 12.66
11/4/2021 3:15:00 AM 7.24 45.032 0.055 6.55 1.59 12.67
11/4/2021 3:30:00 AM 7.21 44.978 0.055 6.55 1.52 12.69
11/4/2021 3:45:00 AM 7.18 44.924 0.055 6.56 1.47 12.7
11/4/2021 4:00:00 AM 7.15 44.87 0.055 6.54 1.55 12.71
11/4/2021 4:15:00 AM 7.12 44.816 0.055 6.54 1.66 12.72
11/4/2021 4:30:00 AM 7.08 44.744 0.055 6.54 1.55 12.73
11/4/2021 4:45:00 AM 7.05 44.69 0.055 6.57 1.57 12.74
11/4/2021 5:00:00 AM 7.03 44.654 0.055 6.57 1.55 12.75
11/4/2021 5:15:00 AM 7 44.6 0.055 6.55 1.6 12.75
11/4/2021 5:30:00 AM 6.98 44.564 0.055 6.55 1.61 12.76
11/4/2021 5:45:00 AM 6.95 44.51 0.055 6.56 1.49 12.77
11/4/2021 6:00:00 AM 6.92 44.456 0.055 6.58 1.52 12.78
11/4/2021 6:15:00 AM 6.9 44.42 0.055 6.58 1.54 12.79
11/4/2021 6:30:00 AM 6.88 44.384 0.055 6.56 1.53 12.8
11/4/2021 6:45:00 AM 6.85 44.33 0.055 6.57 1.55 12.8
11/4/2021 7:00:00 AM 6.84 44.312 0.055 6.57 1.53 12.81
11/4/2021 7:15:00 AM 6.81 44.258 0.055 6.59 1.57 12.82
11/4/2021 7:30:00 AM 6.78 44.204 0.055 6.58 1.52 12.83
11/4/2021 7:45:00 AM 6.76 44.168 0.055 6.59 1.55 12.84
11/4/2021 8:00:00 AM 6.73 44.114 0.055 6.56 1.56 12.85
11/4/2021 8:15:00 AM 6.7 44.06 0.055 6.59 1.43 12.87
11/4/2021 8:30:00 AM 6.69 44.042 0.055 6.59 1.53 12.91
11/4/2021 8:45:00 AM 6.67 44.006 0.055 6.6 1.53 12.93
11/4/2021 9:00:00 AM 6.66 43.988 0.055 6.6 1.55 12.96
11/4/2021 9:15:00 AM 6.66 43.988 0.055 6.62 1.45 12.98
11/4/2021 9:30:00 AM 6.64 43.952 0.055 6.61 1.45 13
11/4/2021 9:45:00 AM 6.66 43.988 0.055 6.63 1.52 13.02
11/4/2021 10:00:00 AM 6.67 44.006 0.055 6.64 1.52 13.03
11/4/2021 10:15:00 AM 6.7 44.06 0.055 6.65 1.51 13.02
11/4/2021 10:30:00 AM 6.73 44.114 0.055 6.64 1.5 13
11/4/2021 10:45:00 AM 6.78 44.204 0.055 6.66 1.51 13
11/4/2021 11:00:00 AM 6.82 44.276 0.055 6.67 1.47 13
11/4/2021 11:15:00 AM 6.87 44.366 0.055 6.67 1.52 12.98
11/4/2021 11:30:00 AM 6.95 44.51 0.055 6.67 1.6 12.97
11/4/2021 11:45:00 AM 7.04 44.672 0.055 6.66 1.53 12.94
11/4/2021 12:00:00 PM 7.13 44.834 0.055 6.66 1.71 12.91
11/4/2021 12:15:00 PM 7.22 44.996 0.055 6.67 1.48 12.9
11/4/2021 12:30:00 PM 7.29 45.122 0.055 6.68 1.48 12.88
11/4/2021 12:45:00 PM 7.36 45.248 0.055 6.68 1.58 12.86
11/4/2021 1:00:00 PM 7.49 45.482 0.055 6.69 1.47 12.83
11/4/2021 1:15:00 PM 7.51 45.518 0.055 6.69 1.51 12.79
11/4/2021 1:30:00 PM 7.59 45.662 0.055 6.69 1.57 12.76
11/4/2021 1:45:00 PM 7.67 45.806 0.055 6.7 1.54 12.74
11/4/2021 2:00:00 PM 7.66 45.788 0.055 6.7 1.41 12.72
11/4/2021 2:15:00 PM 7.71 45.878 0.055 6.7 1.43 12.7
11/4/2021 2:30:00 PM 7.78 46.004 0.055 6.69 1.56 12.68
11/4/2021 2:45:00 PM 7.79 46.022 0.055 6.7 1.45 12.66
11/4/2021 3:00:00 PM 7.8 46.04 0.055 6.7 1.43 12.65
11/4/2021 3:15:00 PM 7.8 46.04 0.055 6.7 1.49 12.64
11/4/2021 3:30:00 PM 7.8 46.04 0.055 6.69 1.51 12.62
11/4/2021 3:45:00 PM 7.79 46.022 0.055 6.69 1.42 12.61
11/4/2021 4:00:00 PM 7.79 46.022 0.055 6.68 1.48 12.62
11/4/2021 4:15:00 PM 7.8 46.04 0.055 6.7 1.41 12.61
11/4/2021 4:30:00 PM 7.81 46.058 0.055 6.68 1.43 12.6
11/4/2021 4:45:00 PM 7.82 46.076 0.055 6.69 1.45 12.6
11/4/2021 5:00:00 PM 7.83 46.094 0.055 6.69 1.45 12.59
11/4/2021 5:15:00 PM 7.83 46.094 0.055 6.68 1.38 12.58
11/4/2021 5:30:00 PM 7.82 46.076 0.055 6.68 1.44 12.56
11/4/2021 5:45:00 PM 7.81 46.058 0.055 6.69 1.48 12.54
11/4/2021 6:00:00 PM 7.79 46.022 0.055 6.67 1.5 12.52
11/4/2021 6:15:00 PM 7.77 45.986 0.055 6.66 1.55 12.51
11/4/2021 6:30:00 PM 7.75 45.95 0.055 6.66 1.51 12.5
11/4/2021 6:45:00 PM 7.72 45.896 0.055 6.66 1.62 12.5
11/4/2021 7:00:00 PM 7.7 45.86 0.055 6.66 1.45 12.5
11/4/2021 7:15:00 PM 7.69 45.842 0.055 6.66 1.48 12.5
11/4/2021 7:30:00 PM 7.67 45.806 0.055 6.65 1.48 12.51
11/4/2021 7:45:00 PM 7.65 45.77 0.055 6.65 1.54 12.51
11/4/2021 8:00:00 PM 7.62 45.716 0.055 6.65 1.49 12.53
11/4/2021 8:15:00 PM 7.6 45.68 0.056 6.65 1.54 12.53
11/4/2021 8:30:00 PM 7.58 45.644 0.056 6.65 1.53 12.53
11/4/2021 8:45:00 PM 7.56 45.608 0.056 6.64 1.54 12.55
11/4/2021 9:00:00 PM 7.54 45.572 0.056 6.64 1.54 12.55
11/4/2021 9:15:00 PM 7.51 45.518 0.056 6.64 1.48 12.56
11/4/2021 9:30:00 PM 7.47 45.446 0.056 6.64 1.52 12.57
11/4/2021 9:45:00 PM 7.43 45.374 0.056 6.64 1.51 12.58
11/4/2021 10:00:00 PM 7.38 45.284 0.056 6.64 1.48 12.6
11/4/2021 10:15:00 PM 7.33 45.194 0.056 6.64 1.44 12.6
11/4/2021 10:30:00 PM 7.28 45.104 0.056 6.64 1.48 12.62
11/4/2021 10:45:00 PM 7.23 45.014 0.056 6.65 1.46 12.64
11/4/2021 11:00:00 PM 7.18 44.924 0.056 6.65 1.63 12.65
11/4/2021 11:15:00 PM 7.13 44.834 0.056 6.64 1.49 12.67
11/4/2021 11:30:00 PM 7.08 44.744 0.056 6.64 1.53 12.69
11/4/2021 11:45:00 PM 7.03 44.654 0.056 6.64 1.52 12.7
11/5/2021 12:00:00 AM 6.99 44.582 0.056 6.64 1.48 12.72
11/5/2021 12:15:00 AM 6.94 44.492 0.056 6.64 1.46 12.74
11/5/2021 12:30:00 AM 6.89 44.402 0.056 6.63 1.47 12.75
11/5/2021 12:45:00 AM 6.83 44.294 0.056 6.64 1.62 12.77
11/5/2021 1:00:00 AM 6.78 44.204 0.056 6.63 1.47 12.79
11/5/2021 1:15:00 AM 6.73 44.114 0.056 6.63 1.54 12.8
11/5/2021 1:30:00 AM 6.68 44.024 0.056 6.64 1.47 12.82
11/5/2021 1:45:00 AM 6.63 43.934 0.056 6.64 1.41 12.84
11/5/2021 2:00:00 AM 6.58 43.844 0.056 6.64 1.5 12.85
11/5/2021 2:15:00 AM 6.53 43.754 0.056 6.64 1.47 12.87
11/5/2021 2:30:00 AM 6.49 43.682 0.056 6.64 1.47 12.89
11/5/2021 2:45:00 AM 6.44 43.592 0.056 6.64 1.51 12.9
11/5/2021 3:00:00 AM 6.39 43.502 0.056 6.64 1.47 12.91
11/5/2021 3:15:00 AM 6.34 43.412 0.056 6.64 1.5 12.93
11/5/2021 3:30:00 AM 6.3 43.34 0.056 6.64 1.63 12.94
11/5/2021 3:45:00 AM 6.25 43.25 0.056 6.64 1.48 12.97
11/5/2021 4:00:00 AM 6.21 43.178 0.056 6.63 1.49 12.98
11/5/2021 4:15:00 AM 6.16 43.088 0.056 6.62 1.46 13
11/5/2021 4:30:00 AM 6.11 42.998 0.056 6.63 1.5 13.01
11/5/2021 4:45:00 AM 6.07 42.926 0.056 6.64 1.6 13.03
11/5/2021 5:00:00 AM 6.02 42.836 0.056 6.63 1.46 13.05
11/5/2021 5:15:00 AM 5.97 42.746 0.056 6.63 1.48 13.07
11/5/2021 5:30:00 AM 5.93 42.674 0.056 6.62 1.54 13.08
11/5/2021 5:45:00 AM 5.89 42.602 0.056 6.6 1.52 13.1
11/5/2021 6:00:00 AM 5.85 42.53 0.056 6.57 1.49 13.12
11/5/2021 6:15:00 AM 5.8 42.44 0.056 6.55 1.44 13.14
11/5/2021 6:30:00 AM 5.76 42.368 0.056 6.52 1.42 13.15
11/5/2021 6:45:00 AM 5.71 42.278 0.056 6.49 1.44 13.17
11/5/2021 7:00:00 AM 5.67 42.206 0.056 6.48 1.43 13.19
11/5/2021 7:15:00 AM 5.63 42.134 0.056 6.48 1.49 13.21
11/5/2021 7:30:00 AM 5.58 42.044 0.056 6.47 1.46 13.21
11/5/2021 7:45:00 AM 5.54 41.972 0.056 6.47 1.53 13.24
11/5/2021 8:00:00 AM 5.5 41.9 0.056 6.47 1.49 13.26
11/5/2021 8:15:00 AM 5.46 41.828 0.056 6.48 1.48 13.29
11/5/2021 8:30:00 AM 5.43 41.774 0.056 6.48 2.52 13.32
11/5/2021 8:45:00 AM 5.39 41.702 0.056 6.48 1.42 13.36
11/5/2021 9:00:00 AM 5.36 41.648 0.056 6.49 1.54 13.4
11/5/2021 9:15:00 AM 5.35 41.63 0.056 6.5 1.43 13.42
11/5/2021 9:30:00 AM 5.36 41.648 0.056 6.5 1.4 13.44
11/5/2021 9:45:00 AM 5.38 41.684 0.056 6.51 1.41 13.45
11/5/2021 10:00:00 AM 5.4 41.72 0.056 6.52 1.45 13.46
11/5/2021 10:15:00 AM 5.44 41.792 0.056 6.54 1.5 13.46
11/5/2021 10:30:00 AM 5.5 41.9 0.056 6.54 1.39 13.46
11/5/2021 10:45:00 AM 5.56 42.008 0.056 6.58 1.44 13.45
11/5/2021 11:00:00 AM 5.63 42.134 0.056 6.61 1.53 13.43
11/5/2021 11:15:00 AM 5.72 42.296 0.056 6.64 1.52 13.41
11/5/2021 11:30:00 AM 5.83 42.494 0.056 6.65 1.45 13.39
11/5/2021 11:45:00 AM 5.95 42.71 0.056 6.64 1.41 13.35
11/5/2021 12:00:00 PM 6.04 42.872 0.056 6.68 1.47 13.33
11/5/2021 12:15:00 PM 6.14 43.052 0.056 6.68 1.44 13.29
11/5/2021 12:30:00 PM 6.22 43.196 0.056 6.67 1.43 13.27
11/5/2021 12:45:00 PM 6.33 43.394 0.056 6.68 1.38 13.23
11/5/2021 1:00:00 PM 6.48 43.664 0.056 6.68 1.39 13.2
11/5/2021 1:15:00 PM 6.63 43.934 0.056 6.69 1.36 13.16
11/5/2021 1:30:00 PM 6.63 43.934 0.056 6.69 1.38 13.12
11/5/2021 1:45:00 PM 6.66 43.988 0.056 6.69 1.33 13.05
11/5/2021 2:00:00 PM 6.77 44.186 0.056 6.69 1.4 13.05
11/5/2021 2:15:00 PM 6.79 44.222 0.056 6.69 1.31 13.04
11/5/2021 2:30:00 PM 6.79 44.222 0.056 6.69 1.33 13.02
11/5/2021 2:45:00 PM 6.87 44.366 0.056 6.69 1.36 12.97
11/5/2021 3:00:00 PM 6.92 44.456 0.056 6.69 1.42 12.95
11/5/2021 3:15:00 PM 6.92 44.456 0.056 6.69 1.36 12.94
11/5/2021 3:30:00 PM 6.93 44.474 0.056 6.68 1.37 12.91
11/5/2021 3:45:00 PM 6.93 44.474 0.056 6.68 1.38 12.9
11/5/2021 4:00:00 PM 6.95 44.51 0.056 6.69 1.37 12.88
11/5/2021 4:15:00 PM 6.95 44.51 0.056 6.69 1.38 12.86
11/5/2021 4:30:00 PM 6.95 44.51 0.056 6.69 1.4 12.87
11/5/2021 4:45:00 PM 6.92 44.456 0.056 6.69 1.43 12.87
11/5/2021 5:00:00 PM 6.91 44.438 0.056 6.68 1.4 12.87
11/5/2021 5:15:00 PM 6.91 44.438 0.056 6.68 1.41 12.86
11/5/2021 5:30:00 PM 6.89 44.402 0.056 6.67 1.5 12.86
11/5/2021 5:45:00 PM 6.87 44.366 0.056 6.67 1.42 12.86
11/5/2021 6:00:00 PM 6.83 44.294 0.056 6.67 1.43 12.85
11/5/2021 6:15:00 PM 6.79 44.222 0.056 6.66 1.44 12.84
11/5/2021 6:30:00 PM 6.75 44.15 0.057 6.66 1.51 12.85
11/5/2021 6:45:00 PM 6.7 44.06 0.057 6.65 1.49 12.86
11/5/2021 7:00:00 PM 6.66 43.988 0.057 6.66 1.49 12.87
11/5/2021 7:15:00 PM 6.61 43.898 0.057 6.66 1.48 12.88
11/5/2021 7:30:00 PM 6.57 43.826 0.057 6.65 1.44 12.89
11/5/2021 7:45:00 PM 6.52 43.736 0.057 6.66 1.55 12.9
11/5/2021 8:00:00 PM 6.47 43.646 0.057 6.65 1.46 12.92
11/5/2021 8:15:00 PM 6.43 43.574 0.057 6.66 1.45 12.94
11/5/2021 8:30:00 PM 6.39 43.502 0.057 6.65 1.46 12.95
11/5/2021 8:45:00 PM 6.33 43.394 0.057 6.66 1.45 12.96
11/5/2021 9:00:00 PM 6.28 43.304 0.057 6.66 1.53 12.97
11/5/2021 9:15:00 PM 6.25 43.25 0.057 6.66 1.52 12.99
11/5/2021 9:30:00 PM 6.2 43.16 0.057 6.66 1.43 13
11/5/2021 9:45:00 PM 6.16 43.088 0.057 6.66 1.44 13.02
11/5/2021 10:00:00 PM 6.12 43.016 0.057 6.65 1.56 13.03
11/5/2021 10:15:00 PM 6.08 42.944 0.057 6.66 1.47 13.05
11/5/2021 10:30:00 PM 6.03 42.854 0.057 6.65 1.52 13.06
11/5/2021 10:45:00 PM 5.99 42.782 0.057 6.66 1.41 13.08
11/5/2021 11:00:00 PM 5.94 42.692 0.057 6.66 1.47 13.1
11/5/2021 11:15:00 PM 5.9 42.62 0.057 6.66 1.37 13.11
11/5/2021 11:30:00 PM 5.86 42.548 0.057 6.66 1.39 13.13
11/5/2021 11:45:00 PM 5.81 42.458 0.057 6.66 1.42 13.15
11/6/2021 12:00:00 AM 5.77 42.386 0.057 6.66 1.57 13.16
11/6/2021 12:15:00 AM 5.72 42.296 0.057 6.65 1.41 13.18
11/6/2021 12:30:00 AM 5.68 42.224 0.057 6.65 1.45 13.19
11/6/2021 12:45:00 AM 5.63 42.134 0.057 6.65 1.47 13.21
11/6/2021 1:00:00 AM 5.59 42.062 0.057 6.66 1.67 13.22
11/6/2021 1:15:00 AM 5.55 41.99 0.057 6.66 1.45 13.24
11/6/2021 1:30:00 AM 5.5 41.9 0.057 6.66 1.52 13.25
11/6/2021 1:45:00 AM 5.46 41.828 0.057 6.65 1.5 13.27
11/6/2021 2:00:00 AM 5.41 41.738 0.057 6.66 1.45 13.28
11/6/2021 2:15:00 AM 5.37 41.666 0.057 6.66 1.44 13.3
11/6/2021 2:30:00 AM 5.33 41.594 0.057 6.66 1.49 13.31
11/6/2021 2:45:00 AM 5.29 41.522 0.057 6.65 1.44 13.32
11/6/2021 3:00:00 AM 5.24 41.432 0.057 6.65 1.45 13.34
11/6/2021 3:15:00 AM 5.2 41.36 0.057 6.64 1.45 13.36
11/6/2021 3:30:00 AM 5.16 41.288 0.057 6.65 1.4 13.37
11/6/2021 3:45:00 AM 5.12 41.216 0.057 6.64 1.41 13.39
11/6/2021 4:00:00 AM 5.08 41.144 0.057 6.61 1.4 13.4
11/6/2021 4:15:00 AM 5.04 41.072 0.057 6.59 1.41 13.42
11/6/2021 4:30:00 AM 5 41 0.057 6.58 1.41 13.43
11/6/2021 4:45:00 AM 4.96 40.928 0.057 6.57 1.4 13.45
11/6/2021 5:00:00 AM 4.92 40.856 0.057 6.54 1.39 13.47
11/6/2021 5:15:00 AM 4.88 40.784 0.057 6.53 1.44 13.48
11/6/2021 5:30:00 AM 4.84 40.712 0.057 6.52 1.43 13.5
11/6/2021 5:45:00 AM 4.8 40.64 0.057 6.51 1.46 13.52
11/6/2021 6:00:00 AM 4.77 40.586 0.057 6.52 1.42 13.52
11/6/2021 6:15:00 AM 4.72 40.496 0.057 6.52 1.43 13.54
11/6/2021 6:30:00 AM 4.68 40.424 0.057 6.53 1.46 13.55
11/6/2021 6:45:00 AM 4.64 40.352 0.058 6.53 1.45 13.57
11/6/2021 7:00:00 AM 4.6 40.28 0.058 6.53 1.46 13.58
11/6/2021 7:15:00 AM 4.57 40.226 0.058 6.53 1.51 13.6
11/6/2021 7:30:00 AM 4.53 40.154 0.058 6.53 1.37 13.61
11/6/2021 7:45:00 AM 4.48 40.064 0.058 6.53 1.42 13.63
11/6/2021 8:00:00 AM 4.45 40.01 0.058 6.54 1.46 13.64
11/6/2021 8:15:00 AM 4.43 39.974 0.058 6.55 1.4 13.68
11/6/2021 8:30:00 AM 4.42 39.956 0.058 6.56 1.39 13.71
11/6/2021 8:45:00 AM 4.41 39.938 0.058 6.56 1.45 13.75
11/6/2021 9:00:00 AM 4.4 39.92 0.058 6.58 1.37 13.77
11/6/2021 9:15:00 AM 4.41 39.938 0.057 6.59 1.37 13.79
11/6/2021 9:30:00 AM 4.41 39.938 0.058 6.6 1.4 13.8
11/6/2021 9:45:00 AM 4.43 39.974 0.057 6.61 1.36 13.81
11/6/2021 10:00:00 AM 4.43 39.974 0.057 6.63 1.4 13.81
11/6/2021 10:15:00 AM 4.47 40.046 0.057 6.64 1.39 13.81
11/6/2021 10:30:00 AM 4.53 40.154 0.057 6.66 1.38 13.81
11/6/2021 10:45:00 AM 4.59 40.262 0.057 6.66 1.4 13.8
11/6/2021 11:00:00 AM 4.67 40.406 0.057 6.67 1.43 13.77
11/6/2021 11:15:00 AM 4.76 40.568 0.057 6.68 1.33 13.75
11/6/2021 11:30:00 AM 4.87 40.766 0.057 6.68 1.41 13.73
11/6/2021 11:45:00 AM 5 41 0.057 6.68 1.36 13.7
11/6/2021 12:00:00 PM 5.11 41.198 0.057 6.69 1.4 13.65
11/6/2021 12:15:00 PM 5.22 41.396 0.057 6.69 1.44 13.63
11/6/2021 12:30:00 PM 5.32 41.576 0.057 6.67 1.42 13.58
11/6/2021 12:45:00 PM 5.41 41.738 0.057 6.68 1.4 13.54
11/6/2021 1:00:00 PM 5.52 41.936 0.057 6.69 1.39 13.5
11/6/2021 1:15:00 PM 5.62 42.116 0.057 6.71 1.35 13.46
11/6/2021 1:30:00 PM 5.71 42.278 0.057 6.69 1.39 13.41
11/6/2021 1:45:00 PM 5.8 42.44 0.057 6.7 1.38 13.37
11/6/2021 2:00:00 PM 5.85 42.53 0.057 6.7 1.38 13.34
11/6/2021 2:15:00 PM 5.91 42.638 0.057 6.71 1.38 13.31
11/6/2021 2:30:00 PM 5.96 42.728 0.057 6.69 1.3 13.27
11/6/2021 2:45:00 PM 6.01 42.818 0.057 6.7 1.31 13.23
11/6/2021 3:00:00 PM 6.05 42.89 0.057 6.7 1.32 13.21
11/6/2021 3:15:00 PM 6.07 42.926 0.057 6.7 1.35 13.18
11/6/2021 3:30:00 PM 6.1 42.98 0.057 6.69 1.4 13.15
11/6/2021 3:45:00 PM 6.13 43.034 0.057 6.7 1.51 13.13
11/6/2021 4:00:00 PM 6.17 43.106 0.057 6.7 1.43 13.1
11/6/2021 4:15:00 PM 6.21 43.178 0.057 6.7 1.33 13.08
11/6/2021 4:30:00 PM 6.24 43.232 0.058 6.7 1.38 13.06
11/6/2021 4:45:00 PM 6.26 43.268 0.058 6.69 1.41 13.05
11/6/2021 5:00:00 PM 6.27 43.286 0.058 6.69 1.4 13.04
11/6/2021 5:15:00 PM 6.28 43.304 0.058 6.69 1.37 13.03
11/6/2021 5:30:00 PM 6.28 43.304 0.058 6.69 1.45 13.02
11/6/2021 5:45:00 PM 6.27 43.286 0.058 6.68 1.42 13.01
11/6/2021 6:00:00 PM 6.24 43.232 0.058 6.67 1.41 13
11/6/2021 6:15:00 PM 6.2 43.16 0.058 6.67 1.4 13
11/6/2021 6:30:00 PM 6.15 43.07 0.058 6.67 1.41 13
11/6/2021 6:45:00 PM 6.11 42.998 0.058 6.67 1.54 13.01
11/6/2021 7:00:00 PM 6.07 42.926 0.058 6.68 1.43 13.01
11/6/2021 7:15:00 PM 6.03 42.854 0.058 6.66 1.41 13.02
11/6/2021 7:30:00 PM 5.98 42.764 0.058 6.66 1.4 13.03
11/6/2021 7:45:00 PM 5.94 42.692 0.058 6.66 1.46 13.04
11/6/2021 8:00:00 PM 5.91 42.638 0.058 6.66 1.46 13.06
11/6/2021 8:15:00 PM 5.86 42.548 0.058 6.67 1.4 13.07
11/6/2021 8:30:00 PM 5.82 42.476 0.058 6.67 1.45 13.09
11/6/2021 8:45:00 PM 5.78 42.404 0.058 6.65 1.42 13.1
11/6/2021 9:00:00 PM 5.74 42.332 0.058 6.67 1.41 13.11
11/6/2021 9:15:00 PM 5.7 42.26 0.058 6.65 1.48 13.13
11/6/2021 9:30:00 PM 5.66 42.188 0.058 6.67 1.41 13.13
11/6/2021 9:45:00 PM 5.62 42.116 0.058 6.66 1.55 13.15
11/6/2021 10:00:00 PM 5.58 42.044 0.058 6.66 1.43 13.16
11/6/2021 10:15:00 PM 5.54 41.972 0.058 6.66 1.38 13.17
11/6/2021 10:30:00 PM 5.5 41.9 0.058 6.67 1.45 13.19
11/6/2021 10:45:00 PM 5.47 41.846 0.058 6.66 1.44 13.2
11/6/2021 11:00:00 PM 5.43 41.774 0.058 6.66 1.41 13.21
11/6/2021 11:15:00 PM 5.39 41.702 0.058 6.66 1.44 13.23
11/6/2021 11:30:00 PM 5.36 41.648 0.058 6.66 1.43 13.24
11/6/2021 11:45:00 PM 5.31 41.558 0.058 6.66 1.44 13.25
11/7/2021 12:00:00 AM 5.27 41.486 0.058 6.66 1.46 13.27
11/7/2021 12:15:00 AM 5.23 41.414 0.058 6.66 1.43 13.28
11/7/2021 12:30:00 AM 5.2 41.36 0.058 6.66 1.4 13.3
11/7/2021 12:45:00 AM 5.15 41.27 0.058 6.66 1.53 13.31
11/7/2021 1:00:00 AM 5.12 41.216 0.058 6.66 1.45 13.32
11/7/2021 1:15:00 AM 5.08 41.144 0.058 6.65 1.38 13.34
11/7/2021 1:30:00 AM 5.04 41.072 0.058 6.66 1.54 13.35
11/7/2021 1:45:00 AM 5 41 0.058 6.66 1.44 13.36
11/7/2021 2:00:00 AM 4.97 40.946 0.058 6.66 1.5 13.38
11/7/2021 2:15:00 AM 4.92 40.856 0.058 6.66 1.4 13.39
11/7/2021 2:30:00 AM 4.89 40.802 0.058 6.66 1.42 13.4
11/7/2021 2:45:00 AM 4.85 40.73 0.058 6.66 1.38 13.41
11/7/2021 3:00:00 AM 4.81 40.658 0.059 6.66 1.37 13.43
11/7/2021 3:15:00 AM 4.77 40.586 0.059 6.66 1.42 13.44
11/7/2021 3:30:00 AM 4.73 40.514 0.059 6.66 1.37 13.45
11/7/2021 3:45:00 AM 4.7 40.46 0.059 6.66 1.42 13.47
11/7/2021 4:00:00 AM 4.66 40.388 0.059 6.66 1.41 13.48
11/7/2021 4:15:00 AM 4.63 40.334 0.059 6.66 1.42 13.49
11/7/2021 4:30:00 AM 4.45 40.01 0.059 6.66 1.37 13.55
11/7/2021 4:45:00 AM 4.41 39.938 0.059 6.66 1.46 13.56
11/7/2021 5:00:00 AM 4.38 39.884 0.059 6.65 1.38 13.58
11/7/2021 5:15:00 AM 4.35 39.83 0.059 6.66 1.37 13.59
11/7/2021 5:30:00 AM 4.31 39.758 0.059 6.66 1.34 13.61
11/7/2021 5:45:00 AM 4.28 39.704 0.059 6.65 1.38 13.62
11/7/2021 6:00:00 AM 4.25 39.65 0.059 6.65 1.4 13.63
11/7/2021 6:15:00 AM 4.21 39.578 0.059 6.65 1.34 13.64
11/7/2021 6:30:00 AM 4.18 39.524 0.059 6.65 1.41 13.65
11/7/2021 6:45:00 AM 4.15 39.47 0.059 6.66 1.35 13.67
11/7/2021 7:00:00 AM 4.11 39.398 0.059 6.66 1.39 13.68
11/7/2021 7:15:00 AM 4.09 39.362 0.059 6.66 1.42 13.72
11/7/2021 7:30:00 AM 4.06 39.308 0.059 6.66 1.37 13.74
11/7/2021 7:45:00 AM 4.04 39.272 0.059 6.66 1.34 13.78
11/7/2021 8:00:00 AM 4.03 39.254 0.059 6.67 1.33 13.8
11/7/2021 8:15:00 AM 4.02 39.236 0.059 6.67 1.36 13.83
11/7/2021 8:30:00 AM 4.04 39.272 0.059 6.67 1.36 13.85
11/7/2021 8:45:00 AM 4.08 39.344 0.059 6.67 1.41 13.86
11/7/2021 9:00:00 AM 4.12 39.416 0.059 6.68 1.38 13.86
11/7/2021 9:15:00 AM 4.17 39.506 0.059 6.68 1.44 13.86
11/7/2021 9:30:00 AM 4.24 39.632 0.059 6.68 1.37 13.85
11/7/2021 9:45:00 AM 4.32 39.776 0.059 6.68 1.41 13.84
11/7/2021 10:00:00 AM 4.4 39.92 0.059 6.68 1.37 13.82
11/7/2021 10:15:00 AM 4.5 40.1 0.059 6.68 1.31 13.8
11/7/2021 10:30:00 AM 4.61 40.298 0.059 6.69 1.37 13.76
11/7/2021 10:45:00 AM 4.75 40.55 0.059 6.66 1.36 13.73
11/7/2021 11:00:00 AM 4.87 40.766 0.059 6.67 1.4 13.69
11/7/2021 11:15:00 AM 4.99 40.982 0.059 6.68 2.04 13.66
11/7/2021 11:30:00 AM 5.1 41.18 0.059 6.68 1.33 13.61
11/7/2021 11:45:00 AM 5.2 41.36 0.059 6.68 1.35 13.57
11/7/2021 12:00:00 PM 5.3 41.54 0.059 6.69 1.32 13.53
11/7/2021 12:15:00 PM 5.41 41.738 0.059 6.69 1.36 13.49
11/7/2021 12:30:00 PM 5.51 41.918 0.059 6.69 1.56 13.44
11/7/2021 12:45:00 PM 5.59 42.062 0.059 6.69 1.28 13.4
11/7/2021 1:00:00 PM 5.66 42.188 0.059 6.69 1.36 13.37
11/7/2021 1:15:00 PM 5.73 42.314 0.059 6.7 1.32 13.32
11/7/2021 1:30:00 PM 5.79 42.422 0.059 6.69 1.36 13.29
11/7/2021 1:45:00 PM 5.85 42.53 0.059 6.7 1.33 13.25
11/7/2021 2:00:00 PM 5.9 42.62 0.059 6.7 1.31 13.22
11/7/2021 2:15:00 PM 5.92 42.656 0.059 6.69 1.32 13.2
11/7/2021 2:30:00 PM 5.96 42.728 0.059 6.69 1.32 13.17
11/7/2021 2:45:00 PM 6 42.8 0.059 6.69 1.31 13.14
11/7/2021 3:00:00 PM 6.05 42.89 0.059 6.69 1.32 13.1
11/7/2021 3:15:00 PM 6.11 42.998 0.059 6.69 1.29 13.07
11/7/2021 3:30:00 PM 6.16 43.088 0.059 6.7 1.36 13.06
11/7/2021 3:45:00 PM 6.19 43.142 0.059 6.71 1.35 13.04
11/7/2021 4:00:00 PM 6.21 43.178 0.059 6.69 1.31 13.02
11/7/2021 4:15:00 PM 6.23 43.214 0.059 6.69 1.33 13.01
11/7/2021 4:30:00 PM 6.25 43.25 0.059 6.69 1.32 12.99
11/7/2021 4:45:00 PM 6.25 43.25 0.059 6.68 1.33 12.97
11/7/2021 5:00:00 PM 6.24 43.232 0.059 6.68 1.33 12.96
11/7/2021 5:15:00 PM 6.22 43.196 0.059 6.68 1.35 12.95
11/7/2021 5:30:00 PM 6.19 43.142 0.059 6.68 1.32 12.94
11/7/2021 5:45:00 PM 6.16 43.088 0.059 6.67 1.35 12.94
11/7/2021 6:00:00 PM 6.13 43.034 0.059 6.66 1.38 12.94
11/7/2021 6:15:00 PM 6.1 42.98 0.059 6.67 1.35 12.95
11/7/2021 6:30:00 PM 6.06 42.908 0.059 6.66 1.35 12.96
11/7/2021 6:45:00 PM 6.03 42.854 0.059 6.66 1.39 12.97
11/7/2021 7:00:00 PM 6 42.8 0.059 6.66 1.39 12.98
11/7/2021 7:15:00 PM 5.97 42.746 0.059 6.66 1.4 12.99
11/7/2021 7:30:00 PM 5.94 42.692 0.059 6.66 1.49 13.01
11/7/2021 7:45:00 PM 5.91 42.638 0.059 6.66 1.49 13.02
11/7/2021 8:00:00 PM 5.88 42.584 0.059 6.66 1.34 13.03
11/7/2021 8:15:00 PM 5.85 42.53 0.059 6.66 1.42 13.04
11/7/2021 8:30:00 PM 5.82 42.476 0.059 6.66 1.36 13.05
11/7/2021 8:45:00 PM 5.79 42.422 0.059 6.66 1.39 13.06
11/7/2021 9:00:00 PM 5.76 42.368 0.059 6.65 1.41 13.07
11/7/2021 9:15:00 PM 5.74 42.332 0.059 6.65 1.46 13.08
11/7/2021 9:30:00 PM 5.71 42.278 0.059 6.66 1.39 13.09
11/7/2021 9:45:00 PM 5.68 42.224 0.059 6.66 1.38 13.1
11/7/2021 10:00:00 PM 5.65 42.17 0.059 6.65 1.43 13.11
11/7/2021 10:15:00 PM 5.62 42.116 0.059 6.66 1.34 13.12
11/7/2021 10:30:00 PM 5.58 42.044 0.059 6.66 1.39 13.13
11/7/2021 10:45:00 PM 5.56 42.008 0.059 6.66 1.38 13.14
11/7/2021 11:00:00 PM 5.52 41.936 0.059 6.65 1.44 13.16
11/7/2021 11:15:00 PM 5.49 41.882 0.059 6.66 1.47 13.16
11/7/2021 11:30:00 PM 5.46 41.828 0.059 6.65 1.42 13.18
11/7/2021 11:45:00 PM 5.43 41.774 0.059 6.66 1.45 13.19
11/8/2021 12:00:00 AM 5.41 41.738 0.059 6.66 1.38 13.19
11/8/2021 12:15:00 AM 5.38 41.684 0.059 6.65 1.38 13.21
11/8/2021 12:30:00 AM 5.35 41.63 0.059 6.66 1.35 13.22
11/8/2021 12:45:00 AM 5.32 41.576 0.059 6.67 1.92 13.22
11/8/2021 1:00:00 AM 5.3 41.54 0.059 6.65 1.35 13.24
11/8/2021 1:15:00 AM 5.27 41.486 0.059 6.65 1.42 13.25
11/8/2021 1:30:00 AM 5.24 41.432 0.059 6.65 1.4 13.25
11/8/2021 1:45:00 AM 5.21 41.378 0.059 6.67 1.36 13.27
11/8/2021 2:00:00 AM 5.18 41.324 0.059 6.66 1.43 13.28
11/8/2021 2:15:00 AM 5.15 41.27 0.059 6.66 1.38 13.29
11/8/2021 2:30:00 AM 5.12 41.216 0.059 6.66 1.37 13.31
11/8/2021 2:45:00 AM 5.09 41.162 0.059 6.66 1.41 13.32
11/8/2021 3:00:00 AM 5.06 41.108 0.059 6.67 1.36 13.33
11/8/2021 3:15:00 AM 5.03 41.054 0.059 6.66 1.4 13.33
11/8/2021 3:30:00 AM 5.01 41.018 0.059 6.66 1.35 13.35
11/8/2021 3:45:00 AM 4.98 40.964 0.059 6.66 1.4 13.36
11/8/2021 4:00:00 AM 4.95 40.91 0.059 6.66 1.36 13.37
11/8/2021 4:15:00 AM 4.93 40.874 0.06 6.66 1.45 13.37
11/8/2021 4:30:00 AM 4.9 40.82 0.06 6.66 1.35 13.39
11/8/2021 4:45:00 AM 4.87 40.766 0.06 6.66 1.39 13.39
11/8/2021 5:00:00 AM 4.85 40.73 0.06 6.64 1.4 13.4
11/8/2021 5:15:00 AM 4.82 40.676 0.06 6.66 1.37 13.41
11/8/2021 5:30:00 AM 4.8 40.64 0.06 6.66 1.4 13.41
11/8/2021 5:45:00 AM 4.77 40.586 0.06 6.66 1.4 13.43
11/8/2021 6:00:00 AM 4.75 40.55 0.06 6.63 1.42 13.44
11/8/2021 6:15:00 AM 4.73 40.514 0.06 6.66 1.41 13.45
11/8/2021 6:30:00 AM 4.7 40.46 0.06 6.66 1.47 13.46
11/8/2021 6:45:00 AM 4.68 40.424 0.06 6.66 1.35 13.47
11/8/2021 7:00:00 AM 4.66 40.388 0.06 6.66 1.36 13.49
11/8/2021 7:15:00 AM 4.64 40.352 0.06 6.66 1.4 13.52
11/8/2021 7:30:00 AM 4.63 40.334 0.06 6.66 1.37 13.55
11/8/2021 7:45:00 AM 4.62 40.316 0.06 6.67 1.41 13.58
11/8/2021 8:00:00 AM 4.61 40.298 0.06 6.67 1.37 13.6
11/8/2021 8:15:00 AM 4.6 40.28 0.06 6.68 1.38 13.63
11/8/2021 8:30:00 AM 4.63 40.334 0.06 6.69 1.4 13.65
11/8/2021 8:45:00 AM 4.67 40.406 0.06 6.69 1.34 13.66
11/8/2021 9:00:00 AM 4.72 40.496 0.06 6.69 1.37 13.67
11/8/2021 9:15:00 AM 4.78 40.604 0.06 6.67 1.41 13.66
11/8/2021 9:30:00 AM 4.85 40.73 0.06 6.7 1.35 13.66
11/8/2021 9:45:00 AM 4.94 40.892 0.06 6.7 1.33 13.65
11/8/2021 10:00:00 AM 5.02 41.036 0.06 6.68 1.38 13.62
11/8/2021 10:15:00 AM 5.12 41.216 0.059 6.69 1.3 13.6
11/8/2021 10:30:00 AM 5.24 41.432 0.06 6.69 1.34 13.58
11/8/2021 10:45:00 AM 5.38 41.684 0.059 6.69 1.36 13.54
11/8/2021 11:00:00 AM 5.52 41.936 0.06 6.69 1.35 13.5
11/8/2021 11:15:00 AM 5.65 42.17 0.059 6.7 1.41 13.46
11/8/2021 11:30:00 AM 5.77 42.386 0.059 6.7 1.33 13.42
11/8/2021 11:45:00 AM 5.89 42.602 0.059 6.7 1.33 13.37
11/8/2021 12:00:00 PM 6 42.8 0.059 6.72 1.36 13.33
11/8/2021 12:15:00 PM 6.12 43.016 0.059 6.71 1.32 13.29
11/8/2021 12:30:00 PM 6.24 43.232 0.059 6.71 1.32 13.23
11/8/2021 12:45:00 PM 6.33 43.394 0.059 6.71 1.4 13.19
11/8/2021 1:00:00 PM 6.42 43.556 0.059 6.72 1.31 13.15
11/8/2021 1:15:00 PM 6.5 43.7 0.059 6.72 1.27 13.11
11/8/2021 1:30:00 PM 6.58 43.844 0.059 6.72 1.29 13.07
11/8/2021 1:45:00 PM 6.67 44.006 0.059 6.72 1.29 13.02
11/8/2021 2:00:00 PM 6.72 44.096 0.059 6.72 1.3 12.99
11/8/2021 2:15:00 PM 6.77 44.186 0.059 6.71 1.29 12.97
11/8/2021 2:30:00 PM 6.81 44.258 0.059 6.72 1.36 12.93
11/8/2021 2:45:00 PM 6.86 44.348 0.059 6.72 1.3 12.89
11/8/2021 3:00:00 PM 6.92 44.456 0.059 6.71 1.29 12.86
11/8/2021 3:15:00 PM 6.98 44.564 0.06 6.71 1.36 12.84
11/8/2021 3:30:00 PM 7.03 44.654 0.059 6.72 1.27 12.81
11/8/2021 3:45:00 PM 7.07 44.726 0.06 6.71 1.33 12.78
11/8/2021 4:00:00 PM 7.1 44.78 0.06 6.71 1.35 12.76
11/8/2021 4:15:00 PM 7.13 44.834 0.06 6.71 1.33 12.74
11/8/2021 4:30:00 PM 7.14 44.852 0.06 6.7 1.37 12.72
11/8/2021 4:45:00 PM 7.15 44.87 0.06 6.7 1.33 12.7
11/8/2021 5:00:00 PM 7.15 44.87 0.06 6.7 1.32 12.68
11/8/2021 5:15:00 PM 7.13 44.834 0.06 6.69 1.72 12.66
11/8/2021 5:30:00 PM 7.11 44.798 0.06 6.69 1.65 12.65
11/8/2021 5:45:00 PM 7.09 44.762 0.06 6.68 1.44 12.65
11/8/2021 6:00:00 PM 7.06 44.708 0.06 6.68 1.43 12.65
11/8/2021 6:15:00 PM 7.03 44.654 0.06 6.67 1.82 12.65
11/8/2021 6:30:00 PM 7 44.6 0.06 6.67 1.59 12.66
11/8/2021 6:45:00 PM 6.98 44.564 0.06 6.67 1.38 12.67
11/8/2021 7:00:00 PM 6.95 44.51 0.06 6.66 2.78 12.68
11/8/2021 7:15:00 PM 6.92 44.456 0.06 6.67 1.36 12.68
11/8/2021 7:30:00 PM 6.89 44.402 0.06 6.67 1.47 12.69
11/8/2021 7:45:00 PM 6.86 44.348 0.06 6.66 1.47 12.7
11/8/2021 8:00:00 PM 6.84 44.312 0.06 6.66 1.42 12.7
11/8/2021 8:15:00 PM 6.81 44.258 0.06 6.66 1.56 12.72
11/8/2021 8:30:00 PM 6.78 44.204 0.06 6.66 1.43 12.72
11/8/2021 8:45:00 PM 6.75 44.15 0.06 6.66 1.41 12.73
11/8/2021 9:00:00 PM 6.72 44.096 0.06 6.66 1.44 12.74
11/8/2021 9:15:00 PM 6.69 44.042 0.06 6.66 1.38 12.75
11/8/2021 9:30:00 PM 6.67 44.006 0.06 6.66 1.57 12.76
11/8/2021 9:45:00 PM 6.64 43.952 0.06 6.66 1.41 12.77
11/8/2021 10:00:00 PM 6.62 43.916 0.06 6.67 1.39 12.77
11/8/2021 10:15:00 PM 6.6 43.88 0.06 6.65 1.38 12.78
11/8/2021 10:30:00 PM 6.57 43.826 0.06 6.66 1.41 12.79
11/8/2021 10:45:00 PM 6.54 43.772 0.06 6.66 1.39 12.8
11/8/2021 11:00:00 PM 6.51 43.718 0.06 6.66 1.42 12.81
11/8/2021 11:15:00 PM 6.48 43.664 0.06 6.66 1.37 12.82
11/8/2021 11:30:00 PM 6.45 43.61 0.06 6.66 1.42 12.82
11/8/2021 11:45:00 PM 6.43 43.574 0.06 6.66 1.36 12.83
11/9/2021 12:00:00 AM 6.4 43.52 0.06 6.65 1.41 12.84
11/9/2021 12:15:00 AM 6.38 43.484 0.06 6.66 1.38 12.85
11/9/2021 12:30:00 AM 6.35 43.43 0.06 6.65 1.34 12.86
11/9/2021 12:45:00 AM 6.31 43.358 0.06 6.66 1.36 12.86
11/9/2021 1:00:00 AM 6.28 43.304 0.06 6.67 1.53 12.87
11/9/2021 1:15:00 AM 6.26 43.268 0.06 6.66 1.36 12.88
11/9/2021 1:30:00 AM 6.23 43.214 0.06 6.66 1.4 12.89
11/9/2021 1:45:00 AM 6.2 43.16 0.06 6.66 1.34 12.9
11/9/2021 2:00:00 AM 6.17 43.106 0.06 6.65 1.83 12.92
11/9/2021 2:15:00 AM 6.14 43.052 0.06 6.65 1.44 12.92
11/9/2021 2:30:00 AM 6.11 42.998 0.06 6.66 1.4 12.93
11/9/2021 2:45:00 AM 6.08 42.944 0.06 6.65 1.44 12.94
11/9/2021 3:00:00 AM 6.05 42.89 0.06 6.65 1.64 12.95
11/9/2021 3:15:00 AM 6.02 42.836 0.06 6.65 1.42 12.96
11/9/2021 3:30:00 AM 5.99 42.782 0.061 6.65 1.64 12.97
11/9/2021 3:45:00 AM 5.96 42.728 0.061 6.65 1.45 12.98
11/9/2021 4:00:00 AM 5.93 42.674 0.061 6.65 1.53 13
11/9/2021 4:15:00 AM 5.89 42.602 0.061 6.65 1.51 13
11/9/2021 4:30:00 AM 5.87 42.566 0.061 6.65 1.47 13.01
11/9/2021 4:45:00 AM 5.84 42.512 0.061 6.65 1.41 13.02
11/9/2021 5:00:00 AM 5.81 42.458 0.061 6.65 1.43 13.03
11/9/2021 5:15:00 AM 5.78 42.404 0.061 6.65 1.42 13.04
11/9/2021 5:30:00 AM 5.75 42.35 0.061 6.65 1.43 13.06
11/9/2021 5:45:00 AM 5.73 42.314 0.061 6.66 1.53 13.06
11/9/2021 6:00:00 AM 5.7 42.26 0.061 6.65 1.43 13.07
11/9/2021 6:15:00 AM 5.67 42.206 0.061 6.65 1.4 13.08
11/9/2021 6:30:00 AM 5.65 42.17 0.061 6.65 1.44 13.09
11/9/2021 6:45:00 AM 5.63 42.134 0.061 6.65 1.44 13.11
11/9/2021 7:00:00 AM 5.62 42.116 0.061 6.65 1.48 13.12
11/9/2021 7:15:00 AM 5.62 42.116 0.061 6.66 1.39 13.15
11/9/2021 7:30:00 AM 5.61 42.098 0.061 6.66 1.51 13.18
11/9/2021 7:45:00 AM 5.59 42.062 0.061 6.66 1.46 13.22
11/9/2021 8:00:00 AM 5.59 42.062 0.061 6.67 1.43 13.24
11/9/2021 8:15:00 AM 5.59 42.062 0.061 6.67 1.38 13.27
11/9/2021 8:30:00 AM 5.6 42.08 0.061 6.68 1.41 13.3
11/9/2021 8:45:00 AM 5.63 42.134 0.061 6.68 1.46 13.32
11/9/2021 9:00:00 AM 5.68 42.224 0.061 6.69 1.47 13.32
11/9/2021 9:15:00 AM 5.74 42.332 0.061 6.71 1.4 13.32
11/9/2021 9:30:00 AM 5.83 42.494 0.061 6.7 1.45 13.31
11/9/2021 9:45:00 AM 5.91 42.638 0.061 6.71 1.39 13.3
11/9/2021 10:00:00 AM 6.01 42.818 0.061 6.7 1.35 13.28
11/9/2021 10:15:00 AM 6.11 42.998 0.061 6.71 1.32 13.26
11/9/2021 10:30:00 AM 6.23 43.214 0.061 6.71 1.38 13.22
11/9/2021 10:45:00 AM 6.37 43.466 0.06 6.71 1.37 13.19
11/9/2021 11:00:00 AM 6.52 43.736 0.061 6.71 1.35 13.15
11/9/2021 11:15:00 AM 6.66 43.988 0.06 6.72 1.37 13.11
11/9/2021 11:30:00 AM 6.78 44.204 0.06 6.72 1.35 13.07
11/9/2021 11:45:00 AM 6.89 44.402 0.06 6.73 1.39 13.03
11/9/2021 12:00:00 PM 7.02 44.636 0.06 6.73 1.38 12.98
11/9/2021 12:15:00 PM 7.14 44.852 0.06 6.74 1.42 12.94
11/9/2021 12:30:00 PM 7.25 45.05 0.06 6.74 1.74 12.89
11/9/2021 12:45:00 PM 7.34 45.212 0.06 6.74 1.42 12.86
11/9/2021 1:00:00 PM 7.42 45.356 0.06 6.74 1.38 12.83
11/9/2021 1:15:00 PM 7.5 45.5 0.06 6.75 1.35 12.8
11/9/2021 1:30:00 PM 7.6 45.68 0.06 6.75 1.35 12.75
11/9/2021 1:45:00 PM 7.67 45.806 0.06 6.75 1.4 12.71
11/9/2021 2:00:00 PM 7.78 46.004 0.06 6.75 1.38 12.69
11/9/2021 2:15:00 PM 7.81 46.058 0.06 6.75 1.38 12.67
11/9/2021 2:30:00 PM 7.86 46.148 0.06 6.75 1.4 12.64
11/9/2021 2:45:00 PM 7.95 46.31 0.06 6.75 1.38 12.61
11/9/2021 3:00:00 PM 8.04 46.472 0.06 6.75 1.38 12.58
11/9/2021 3:15:00 PM 8.09 46.562 0.06 6.76 1.33 12.54
11/9/2021 3:30:00 PM 8.12 46.616 0.06 6.75 1.37 12.5
11/9/2021 3:45:00 PM 8.14 46.652 0.06 6.75 1.36 12.47
11/9/2021 4:00:00 PM 8.17 46.706 0.06 6.75 1.36 12.45
11/9/2021 4:15:00 PM 8.2 46.76 0.061 6.74 1.38 12.41
11/9/2021 4:30:00 PM 8.23 46.814 0.061 6.73 1.36 12.37
11/9/2021 4:45:00 PM 8.23 46.814 0.061 6.72 1.45 12.33
11/9/2021 5:00:00 PM 8.24 46.832 0.061 6.72 1.41 12.29
11/9/2021 5:15:00 PM 8.24 46.832 0.061 6.71 1.47 12.27
11/9/2021 5:30:00 PM 8.24 46.832 0.061 6.7 1.49 12.25
11/9/2021 5:45:00 PM 8.23 46.814 0.061 6.7 1.42 12.25
11/9/2021 6:00:00 PM 8.22 46.796 0.061 6.69 1.46 12.24
11/9/2021 6:15:00 PM 8.22 46.796 0.061 6.69 1.45 12.24
11/9/2021 6:30:00 PM 8.21 46.778 0.061 6.69 1.45 12.24
11/9/2021 6:45:00 PM 8.19 46.742 0.061 6.68 1.45 12.24
11/9/2021 7:00:00 PM 8.19 46.742 0.061 6.68 1.45 12.24
11/9/2021 7:15:00 PM 8.2 46.76 0.061 6.67 1.54 12.23
11/9/2021 7:30:00 PM 8.21 46.778 0.061 6.67 1.43 12.23
11/9/2021 7:45:00 PM 8.19 46.742 0.061 6.67 1.52 12.23
11/9/2021 8:00:00 PM 8.17 46.706 0.061 6.67 1.45 12.23
11/9/2021 8:15:00 PM 8.17 46.706 0.061 6.67 1.43 12.23
11/9/2021 8:30:00 PM 8.15 46.67 0.061 6.66 1.4 12.24
11/9/2021 8:45:00 PM 8.13 46.634 0.061 6.67 1.42 12.23
11/9/2021 9:00:00 PM 8.11 46.598 0.061 6.66 1.37 12.24
11/9/2021 9:15:00 PM 8.09 46.562 0.061 6.67 1.44 12.25
11/9/2021 9:30:00 PM 8.07 46.526 0.061 6.66 1.49 12.25
11/9/2021 9:45:00 PM 8.06 46.508 0.061 6.66 1.44 12.25
11/9/2021 10:00:00 PM 8.03 46.454 0.061 6.66 1.49 12.26
11/9/2021 10:15:00 PM 8 46.4 0.061 6.67 1.44 12.27
11/9/2021 10:30:00 PM 7.97 46.346 0.061 6.66 1.49 12.27
11/9/2021 10:45:00 PM 7.93 46.274 0.061 6.66 1.45 12.28
11/9/2021 11:00:00 PM 7.91 46.238 0.061 6.66 1.39 12.29
11/9/2021 11:15:00 PM 7.88 46.184 0.061 6.66 1.44 12.3
11/9/2021 11:30:00 PM 7.85 46.13 0.061 6.66 1.42 12.3
11/9/2021 11:45:00 PM 7.82 46.076 0.061 6.66 1.66 12.31
11/10/2021 12:00:00 AM 7.8 46.04 0.061 6.66 1.45 12.32
11/10/2021 12:15:00 AM 7.79 46.022 0.061 6.66 1.38 12.31
11/10/2021 12:30:00 AM 7.76 45.968 0.061 6.66 1.4 12.32
11/10/2021 12:45:00 AM 7.75 45.95 0.061 6.66 1.7 12.34
11/10/2021 1:00:00 AM 7.74 45.932 0.061 6.66 1.43 12.34
11/10/2021 1:15:00 AM 7.72 45.896 0.061 6.66 1.41 12.35
11/10/2021 1:30:00 AM 7.69 45.842 0.061 6.66 1.46 12.35
11/10/2021 1:45:00 AM 7.67 45.806 0.061 6.66 1.44 12.36
11/10/2021 2:00:00 AM 7.64 45.752 0.061 6.66 1.5 12.37
11/10/2021 2:15:00 AM 7.63 45.734 0.061 6.66 1.43 12.37
11/10/2021 2:30:00 AM 7.63 45.734 0.061 6.66 1.39 12.37
11/10/2021 2:45:00 AM 7.63 45.734 0.061 6.66 1.45 12.38
11/10/2021 3:00:00 AM 7.63 45.734 0.061 6.67 1.44 12.39
11/10/2021 3:15:00 AM 7.63 45.734 0.061 6.66 1.46 12.39
11/10/2021 3:30:00 AM 7.64 45.752 0.061 6.67 1.4 12.39
11/10/2021 3:45:00 AM 7.65 45.77 0.061 6.67 1.48 12.39
11/10/2021 4:00:00 AM 7.63 45.734 0.061 6.66 1.94 12.39
11/10/2021 4:15:00 AM 7.6 45.68 0.061 6.67 1.43 12.39
11/10/2021 4:30:00 AM 7.62 45.716 0.061 6.67 1.52 12.39
11/10/2021 4:45:00 AM 7.63 45.734 0.062 6.67 1.41 12.4
11/10/2021 5:00:00 AM 7.64 45.752 0.062 6.67 1.49 12.4
11/10/2021 5:15:00 AM 7.65 45.77 0.062 6.67 1.46 12.4
11/10/2021 5:30:00 AM 7.66 45.788 0.062 6.67 1.91 12.4
11/10/2021 5:45:00 AM 7.67 45.806 0.062 6.67 1.77 12.39
11/10/2021 6:00:00 AM 7.68 45.824 0.062 6.67 1.5 12.4
11/10/2021 6:15:00 AM 7.67 45.806 0.062 6.66 1.47 12.4
11/10/2021 6:30:00 AM 7.65 45.77 0.062 6.67 1.47 12.41
11/10/2021 6:45:00 AM 7.63 45.734 0.062 6.66 2.27 12.41
11/10/2021 7:00:00 AM 7.61 45.698 0.062 6.66 1.43 12.42
11/10/2021 7:15:00 AM 7.6 45.68 0.062 6.66 1.54 12.45
11/10/2021 7:30:00 AM 7.6 45.68 0.062 6.67 1.45 12.47
11/10/2021 7:45:00 AM 7.6 45.68 0.061 6.68 1.41 12.51
11/10/2021 8:00:00 AM 7.6 45.68 0.062 6.68 1.47 12.57
11/10/2021 8:15:00 AM 7.62 45.716 0.062 6.69 1.45 12.6
11/10/2021 8:30:00 AM 7.66 45.788 0.061 6.71 1.45 12.63
11/10/2021 8:45:00 AM 7.71 45.878 0.061 6.73 1.47 12.66
11/10/2021 9:00:00 AM 7.76 45.968 0.061 6.74 1.43 12.66
11/10/2021 9:15:00 AM 7.8 46.04 0.061 6.74 1.44 12.66
11/10/2021 9:30:00 AM 7.84 46.112 0.061 6.76 1.6 12.66
11/10/2021 9:45:00 AM 7.88 46.184 0.061 6.75 1.46 12.65
11/10/2021 10:00:00 AM 7.94 46.292 0.061 6.76 1.43 12.64
11/10/2021 10:15:00 AM 8 46.4 0.061 6.76 1.41 12.63
11/10/2021 10:30:00 AM 8.08 46.544 0.061 6.76 1.48 12.61
11/10/2021 10:45:00 AM 8.2 46.76 0.061 6.76 1.44 12.6
11/10/2021 11:00:00 AM 8.31 46.958 0.061 6.77 1.51 12.58
11/10/2021 11:15:00 AM 8.4 47.12 0.061 6.77 1.43 12.55
11/10/2021 11:30:00 AM 8.49 47.282 0.061 6.77 1.44 12.52
11/10/2021 11:45:00 AM 8.56 47.408 0.061 6.77 1.39 12.49
11/10/2021 12:00:00 PM 8.62 47.516 0.061 6.77 1.41 12.46
11/10/2021 12:15:00 PM 8.7 47.66 0.061 6.78 1.38 12.44
11/10/2021 12:30:00 PM 8.75 47.75 0.061 6.78 1.38 12.42
11/10/2021 12:45:00 PM 8.79 47.822 0.061 6.77 1.36 12.39
11/10/2021 1:00:00 PM 8.8 47.84 0.061 6.78 1.38 12.37
11/10/2021 1:15:00 PM 8.83 47.894 0.061 6.78 1.49 12.35
11/10/2021 1:30:00 PM 8.85 47.93 0.061 6.77 1.38 12.33
11/10/2021 1:45:00 PM 8.84 47.912 0.061 6.78 1.48 12.33
11/10/2021 2:00:00 PM 8.85 47.93 0.061 6.77 1.42 12.31
11/10/2021 2:15:00 PM 8.83 47.894 0.061 6.77 1.43 12.29
11/10/2021 2:30:00 PM 8.77 47.786 0.061 6.76 1.38 12.28
11/10/2021 2:45:00 PM 8.76 47.768 0.061 6.76 1.45 12.26
11/10/2021 3:00:00 PM 8.77 47.786 0.061 6.76 1.39 12.26
11/10/2021 3:15:00 PM 8.78 47.804 0.061 6.76 1.58 12.24
11/10/2021 3:30:00 PM 8.78 47.804 0.061 6.76 1.37 12.24
11/10/2021 3:45:00 PM 8.79 47.822 0.061 6.76 1.46 12.24
11/10/2021 4:00:00 PM 8.8 47.84 0.061 6.75 1.39 12.25
11/10/2021 4:15:00 PM 8.79 47.822 0.061 6.76 1.59 12.24
11/10/2021 4:30:00 PM 8.76 47.768 0.061 6.75 1.41 12.23
11/10/2021 4:45:00 PM 8.72 47.696 0.062 6.74 1.52 12.2
11/10/2021 5:00:00 PM 8.67 47.606 0.062 6.74 1.42 12.17
11/10/2021 5:15:00 PM 8.62 47.516 0.062 6.72 1.38 12.15
11/10/2021 5:30:00 PM 8.57 47.426 0.062 6.71 1.42 12.14
11/10/2021 5:45:00 PM 8.51 47.318 0.062 6.71 1.54 12.15
11/10/2021 6:00:00 PM 8.45 47.21 0.062 6.71 1.57 12.16
11/10/2021 6:15:00 PM 8.38 47.084 0.062 6.71 1.53 12.19
11/10/2021 6:30:00 PM 8.33 46.994 0.062 6.71 1.48 12.2
11/10/2021 6:45:00 PM 8.27 46.886 0.062 6.7 1.44 12.22
11/10/2021 7:00:00 PM 8.2 46.76 0.062 6.71 1.45 12.24
11/10/2021 7:15:00 PM 8.14 46.652 0.062 6.7 1.67 12.26
11/10/2021 7:30:00 PM 8.08 46.544 0.062 6.7 1.47 12.28
11/10/2021 7:45:00 PM 8.01 46.418 0.062 6.7 1.5 12.3
11/10/2021 8:00:00 PM 7.95 46.31 0.062 6.7 1.44 12.32
11/10/2021 8:15:00 PM 7.89 46.202 0.062 6.7 1.52 12.33
11/10/2021 8:30:00 PM 7.83 46.094 0.062 6.7 1.55 12.36
11/10/2021 8:45:00 PM 7.76 45.968 0.062 6.7 1.5 12.37
11/10/2021 9:00:00 PM 7.69 45.842 0.062 6.69 1.5 12.39
11/10/2021 9:15:00 PM 7.63 45.734 0.062 6.69 1.55 12.42
11/10/2021 9:30:00 PM 7.58 45.644 0.062 6.69 1.47 12.43
11/10/2021 9:45:00 PM 7.52 45.536 0.062 6.69 1.48 12.45
11/10/2021 10:00:00 PM 7.45 45.41 0.062 6.69 1.55 12.48
11/10/2021 10:15:00 PM 7.39 45.302 0.062 6.69 1.46 12.5
11/10/2021 10:30:00 PM 7.34 45.212 0.062 6.69 1.56 12.51
11/10/2021 10:45:00 PM 7.29 45.122 0.062 6.69 1.54 12.53
11/10/2021 11:00:00 PM 7.23 45.014 0.062 6.69 1.52 12.55
11/10/2021 11:15:00 PM 7.17 44.906 0.062 6.69 1.46 12.57
11/10/2021 11:30:00 PM 7.11 44.798 0.062 6.69 1.43 12.59
11/10/2021 11:45:00 PM 7.07 44.726 0.062 6.69 1.61 12.6
11/11/2021 12:00:00 AM 7.01 44.618 0.062 6.69 1.5 12.61
11/11/2021 12:15:00 AM 6.96 44.528 0.062 6.7 1.55 12.63
11/11/2021 12:30:00 AM 6.9 44.42 0.062 6.69 1.5 12.65
11/11/2021 12:45:00 AM 6.85 44.33 0.062 6.69 1.46 12.66
11/11/2021 1:00:00 AM 6.8 44.24 0.062 6.69 1.44 12.69
11/11/2021 1:15:00 AM 6.74 44.132 0.062 6.69 1.51 12.69
11/11/2021 1:30:00 AM 6.69 44.042 0.062 6.69 1.48 12.72
11/11/2021 1:45:00 AM 6.66 43.988 0.062 6.69 1.47 12.74
11/11/2021 2:00:00 AM 6.65 43.97 0.062 6.69 1.53 12.75
11/11/2021 2:15:00 AM 6.64 43.952 0.062 6.69 1.49 12.75
11/11/2021 2:30:00 AM 6.63 43.934 0.062 6.69 1.48 12.77
11/11/2021 2:45:00 AM 6.61 43.898 0.062 6.69 1.46 12.77
11/11/2021 3:00:00 AM 6.61 43.898 0.062 6.7 1.47 12.77
11/11/2021 3:15:00 AM 6.59 43.862 0.062 6.69 1.75 12.77
11/11/2021 3:30:00 AM 6.57 43.826 0.062 6.69 1.48 12.78
11/11/2021 3:45:00 AM 6.53 43.754 0.062 6.69 1.64 12.79
11/11/2021 4:00:00 AM 6.5 43.7 0.062 6.69 1.49 12.8
11/11/2021 4:15:00 AM 6.47 43.646 0.062 6.69 1.52 12.8
11/11/2021 4:30:00 AM 6.45 43.61 0.062 6.69 1.52 12.81
11/11/2021 4:45:00 AM 6.44 43.592 0.062 6.69 1.44 12.81
11/11/2021 5:00:00 AM 6.4 43.52 0.062 6.69 1.63 12.82
11/11/2021 5:15:00 AM 6.38 43.484 0.062 6.69 1.49 12.83
11/11/2021 5:30:00 AM 6.36 43.448 0.062 6.69 1.52 12.83
11/11/2021 5:45:00 AM 6.31 43.358 0.062 6.69 1.47 12.85
11/11/2021 6:00:00 AM 6.29 43.322 0.062 6.69 1.56 12.85
11/11/2021 6:15:00 AM 6.26 43.268 0.062 6.69 1.87 12.86
11/11/2021 6:30:00 AM 6.22 43.196 0.062 6.69 1.46 12.88
11/11/2021 6:45:00 AM 6.19 43.142 0.062 6.69 1.61 12.89
11/11/2021 7:00:00 AM 6.16 43.088 0.062 6.69 1.62 12.9
11/11/2021 7:15:00 AM 6.12 43.016 0.062 6.69 1.87 12.93
11/11/2021 7:30:00 AM 6.11 42.998 0.062 6.7 1.45 12.97
11/11/2021 7:45:00 AM 6.1 42.98 0.062 6.7 1.48 13.02
11/11/2021 8:00:00 AM 6.11 42.998 0.062 6.71 1.55 13.07
11/11/2021 8:15:00 AM 6.11 42.998 0.062 6.73 1.42 13.11
11/11/2021 8:30:00 AM 6.15 43.07 0.062 6.72 1.47 13.14
11/11/2021 8:45:00 AM 6.2 43.16 0.062 6.74 1.48 13.15
11/11/2021 9:00:00 AM 6.24 43.232 0.062 6.74 1.55 13.16
11/11/2021 9:15:00 AM 6.31 43.358 0.062 6.75 1.46 13.17
11/11/2021 9:30:00 AM 6.35 43.43 0.062 6.75 1.42 13.16
11/11/2021 9:45:00 AM 6.43 43.574 0.062 6.75 1.48 13.14
11/11/2021 10:00:00 AM 6.52 43.736 0.062 6.75 1.47 13.13
11/11/2021 10:15:00 AM 6.63 43.934 0.062 6.76 1.45 13.12
11/11/2021 10:30:00 AM 6.72 44.096 0.061 6.77 1.44 13.09
11/11/2021 10:45:00 AM 6.84 44.312 0.061 6.77 1.45 13.06
11/11/2021 11:00:00 AM 7 44.6 0.062 6.77 1.65 13.03
11/11/2021 11:15:00 AM 7.11 44.798 0.061 6.78 1.44 13
11/11/2021 11:30:00 AM 7.24 45.032 0.062 6.78 1.45 12.95
11/11/2021 11:45:00 AM 7.37 45.266 0.061 6.79 1.43 12.92
11/11/2021 12:00:00 PM 7.56 45.608 0.062 6.78 1.47 12.87
11/11/2021 12:15:00 PM 7.6 45.68 0.061 6.79 1.4 12.83
11/11/2021 12:30:00 PM 7.65 45.77 0.062 6.78 1.45 12.79
11/11/2021 12:45:00 PM 7.76 45.968 0.062 6.79 1.45 12.76
11/11/2021 1:00:00 PM 7.89 46.202 0.062 6.79 1.41 12.72
11/11/2021 1:15:00 PM 8.07 46.526 0.062 6.8 1.49 12.67
11/11/2021 1:30:00 PM 8.12 46.616 0.062 6.8 1.43 12.64
11/11/2021 1:45:00 PM 8.19 46.742 0.061 6.8 1.41 12.62
11/11/2021 2:00:00 PM 8.21 46.778 0.061 6.8 1.48 12.59
11/11/2021 2:15:00 PM 8.26 46.868 0.061 6.8 2.06 12.55
11/11/2021 2:30:00 PM 8.25 46.85 0.061 6.79 1.43 12.52
11/11/2021 2:45:00 PM 8.27 46.886 0.062 6.79 1.46 12.49
11/11/2021 3:00:00 PM 8.31 46.958 0.062 6.78 1.79 12.45
11/11/2021 3:15:00 PM 8.38 47.084 0.062 6.79 1.5 12.45
11/11/2021 3:30:00 PM 8.42 47.156 0.062 6.79 1.42 12.43
11/11/2021 3:45:00 PM 8.43 47.174 0.062 6.78 1.47 12.41
11/11/2021 4:00:00 PM 8.43 47.174 0.062 6.78 1.64 12.38
11/11/2021 4:15:00 PM 8.43 47.174 0.062 6.77 1.42 12.35
11/11/2021 4:30:00 PM 8.43 47.174 0.062 6.77 1.49 12.31
11/11/2021 4:45:00 PM 8.43 47.174 0.062 6.76 1.51 12.26
11/11/2021 5:00:00 PM 8.44 47.192 0.062 6.75 1.46 12.21
11/11/2021 5:15:00 PM 8.46 47.228 0.062 6.75 1.65 12.18
11/11/2021 5:30:00 PM 8.47 47.246 0.062 6.74 1.45 12.15
11/11/2021 5:45:00 PM 8.51 47.318 0.062 6.74 1.46 12.13
11/11/2021 6:00:00 PM 8.54 47.372 0.062 6.74 1.5 12.12
11/11/2021 6:15:00 PM 8.56 47.408 0.062 6.73 1.6 12.11
11/11/2021 6:30:00 PM 8.59 47.462 0.062 6.73 1.47 12.09
11/11/2021 6:45:00 PM 8.61 47.498 0.062 6.73 1.69 12.08
11/11/2021 7:00:00 PM 8.61 47.498 0.062 6.73 1.47 12.07
11/11/2021 7:15:00 PM 8.62 47.516 0.062 6.73 1.57 12.07
11/11/2021 7:30:00 PM 8.64 47.552 0.063 6.74 1.54 12.05
11/11/2021 7:45:00 PM 8.68 47.624 0.063 6.73 1.54 12.05
11/11/2021 8:00:00 PM 8.72 47.696 0.063 6.73 1.48 12.03
11/11/2021 8:15:00 PM 8.74 47.732 0.063 6.73 1.52 12.02
11/11/2021 8:30:00 PM 8.78 47.804 0.063 6.73 1.55 12.01
11/11/2021 8:45:00 PM 8.83 47.894 0.063 6.73 1.46 11.99
11/11/2021 9:00:00 PM 8.88 47.984 0.063 6.73 1.48 11.98
11/11/2021 9:15:00 PM 8.92 48.056 0.063 6.73 1.44 11.96
11/11/2021 9:30:00 PM 8.95 48.11 0.063 6.73 2.1 11.95
11/11/2021 9:45:00 PM 8.99 48.182 0.063 6.73 1.46 11.93
11/11/2021 10:00:00 PM 9.03 48.254 0.062 6.73 1.49 11.93
11/11/2021 10:15:00 PM 9.07 48.326 0.063 6.73 1.53 11.91
11/11/2021 10:30:00 PM 9.11 48.398 0.063 6.73 1.52 11.9
11/11/2021 10:45:00 PM 9.12 48.416 0.063 6.72 1.54 11.88
11/11/2021 11:00:00 PM 9.13 48.434 0.063 6.72 1.48 11.87
11/11/2021 11:15:00 PM 9.14 48.452 0.063 6.72 1.56 11.86
11/11/2021 11:30:00 PM 9.14 48.452 0.063 6.72 1.51 11.86
11/11/2021 11:45:00 PM 9.17 48.506 0.063 6.72 1.45 11.86
11/12/2021 12:00:00 AM 9.2 48.56 0.063 6.72 1.5 11.85
11/12/2021 12:15:00 AM 9.23 48.614 0.062 6.72 1.58 11.84
11/12/2021 12:30:00 AM 9.26 48.668 0.063 6.72 1.58 11.83
11/12/2021 12:45:00 AM 9.3 48.74 0.063 6.72 1.51 11.81
11/12/2021 1:00:00 AM 9.33 48.794 0.063 6.72 1.74 11.79
11/12/2021 1:15:00 AM 9.38 48.884 0.062 6.72 1.57 11.78
11/12/2021 1:30:00 AM 9.4 48.92 0.062 6.72 1.69 11.77
11/12/2021 1:45:00 AM 9.45 49.01 0.062 6.72 1.73 11.76
11/12/2021 2:00:00 AM 9.45 49.01 0.062 6.72 1.91 11.75
11/12/2021 2:15:00 AM 9.47 49.046 0.062 6.72 1.61 11.73
11/12/2021 2:30:00 AM 9.48 49.064 0.062 6.72 1.6 11.72
11/12/2021 2:45:00 AM 9.58 49.244 0.061 6.75 3.5 11.72
11/12/2021 3:00:00 AM 9.52 49.136 0.061 6.73 2.04 11.72
11/12/2021 3:15:00 AM 9.49 49.082 0.061 6.72 1.75 11.71
11/12/2021 3:30:00 AM 9.47 49.046 0.062 6.71 2.19 11.71
11/12/2021 3:45:00 AM 9.46 49.028 0.062 6.71 1.77 11.71
11/12/2021 4:00:00 AM 9.45 49.01 0.061 6.71 1.6 11.71
11/12/2021 4:15:00 AM 9.44 48.992 0.062 6.71 10.76 11.72
11/12/2021 4:30:00 AM 9.44 48.992 0.058 6.7 3.43 11.72
11/12/2021 4:45:00 AM 9.44 48.992 0.061 6.71 1.74 11.73
11/12/2021 5:00:00 AM 9.43 48.974 0.061 6.7 1.78 11.73
11/12/2021 5:15:00 AM 9.43 48.974 0.062 6.7 1.86 11.73
11/12/2021 5:30:00 AM 9.42 48.956 0.062 6.7 1.79 11.74
11/12/2021 5:45:00 AM 9.43 48.974 0.062 6.71 1.94 11.74
11/12/2021 6:00:00 AM 9.41 48.938 0.062 6.72 2.17 11.75
11/12/2021 6:15:00 AM 9.38 48.884 0.062 6.72 2.05 11.76
11/12/2021 6:30:00 AM 9.35 48.83 0.062 6.73 2.15 11.76
11/12/2021 6:45:00 AM 9.34 48.812 0.062 6.73 2.42 11.77
11/12/2021 7:00:00 AM 9.32 48.776 0.062 6.74 2.17 11.79
11/12/2021 7:15:00 AM 9.29 48.722 0.062 6.74 2.18 11.79
11/12/2021 7:30:00 AM 9.27 48.686 0.062 6.74 2.28 11.82
11/12/2021 7:45:00 AM 9.25 48.65 0.062 6.75 2.42 11.86
11/12/2021 8:00:00 AM 9.23 48.614 0.062 6.76 2.24 11.91
11/12/2021 8:15:00 AM 9.21 48.578 0.062 6.77 2.26 11.96
11/12/2021 8:30:00 AM 9.18 48.524 0.062 6.78 2.29 12
11/12/2021 8:45:00 AM 9.19 48.542 0.063 6.79 2.35 12.04
11/12/2021 9:00:00 AM 9.18 48.524 0.063 6.79 2.31 12.06
11/12/2021 9:15:00 AM 9.2 48.56 0.063 6.8 2.27 12.09
11/12/2021 9:30:00 AM 9.23 48.614 0.063 6.79 2.37 12.09
11/12/2021 9:45:00 AM 9.24 48.632 0.063 6.79 2.09 12.1
11/12/2021 10:00:00 AM 9.25 48.65 0.064 6.8 2.18 12.11
11/12/2021 10:15:00 AM 9.27 48.686 0.064 6.8 2.15 12.11
11/12/2021 10:30:00 AM 9.32 48.776 0.064 6.8 2.29 12.11
11/12/2021 10:45:00 AM 9.39 48.902 0.064 6.8 2.21 12.1
11/12/2021 11:00:00 AM 9.45 49.01 0.065 6.79 2.05 12.09
11/12/2021 11:15:00 AM 9.5 49.1 0.065 6.8 2.09 12.09
11/12/2021 11:30:00 AM 9.54 49.172 0.065 6.79 2.05 12.07
11/12/2021 11:45:00 AM 9.57 49.226 0.065 6.79 2.04 12.05
11/12/2021 12:00:00 PM 9.58 49.244 0.066 6.79 2.03 12.02
11/12/2021 12:15:00 PM 9.59 49.262 0.066 6.79 1.93 12.02
11/12/2021 12:30:00 PM 9.57 49.226 0.066 6.79 1.96 12.02
11/12/2021 12:45:00 PM 9.51 49.118 0.066 6.79 1.92 12.02
11/12/2021 1:00:00 PM 9.45 49.01 0.067 6.78 1.94 12.01
11/12/2021 1:15:00 PM 9.47 49.046 0.067 6.79 1.96 12.02
11/12/2021 1:30:00 PM 9.44 48.992 0.063 6.77 3.23 12.01
11/12/2021 1:45:00 PM 9.47 49.046 0.067 6.79 1.79 12.03
11/12/2021 2:00:00 PM 9.48 49.064 0.067 6.79 1.87 12.04
11/12/2021 2:15:00 PM 9.38 48.884 0.067 6.78 1.82 12.05
11/12/2021 2:30:00 PM 9.38 48.884 0.067 6.78 1.73 12.03
11/12/2021 2:45:00 PM 9.38 48.884 0.067 6.78 1.74 12.02
11/12/2021 3:00:00 PM 9.37 48.866 0.067 6.78 2.04 12.01
11/12/2021 3:15:00 PM 9.33 48.794 0.067 6.78 1.74 12
11/12/2021 3:30:00 PM 9.33 48.794 0.067 6.77 1.78 12
11/12/2021 3:45:00 PM 9.31 48.758 0.067 6.77 1.83 12
11/12/2021 4:00:00 PM 9.29 48.722 0.067 6.76 1.69 11.98
11/12/2021 4:15:00 PM 9.23 48.614 0.067 6.76 1.66 11.96
11/12/2021 4:30:00 PM 9.19 48.542 0.067 6.75 1.7 11.95
11/12/2021 4:45:00 PM 9.16 48.488 0.067 6.74 1.7 11.92
11/12/2021 5:00:00 PM 9.11 48.398 0.067 6.73 1.74 11.92
11/12/2021 5:15:00 PM 9.05 48.29 0.067 6.72 1.64 11.9
11/12/2021 5:30:00 PM 8.99 48.182 0.067 6.72 1.78 11.9
11/12/2021 5:45:00 PM 8.94 48.092 0.067 6.71 1.71 11.92
11/12/2021 6:00:00 PM 8.87 47.966 0.067 6.71 2.02 11.92
11/12/2021 6:15:00 PM 8.81 47.858 0.067 6.71 1.69 11.94
11/12/2021 6:30:00 PM 8.74 47.732 0.067 6.7 1.74 11.95
11/12/2021 6:45:00 PM 8.68 47.624 0.067 6.7 1.69 11.98
11/12/2021 7:00:00 PM 8.62 47.516 0.067 6.7 1.56 11.99
11/12/2021 7:15:00 PM 8.56 47.408 0.067 6.7 1.63 12.01
11/12/2021 7:30:00 PM 8.51 47.318 0.067 6.7 1.56 12.03
11/12/2021 7:45:00 PM 8.44 47.192 0.067 6.7 1.53 12.04
11/12/2021 8:00:00 PM 8.39 47.102 0.067 6.7 1.54 12.06
11/12/2021 8:15:00 PM 8.34 47.012 0.067 6.69 1.57 12.07
11/12/2021 8:30:00 PM 8.31 46.958 0.067 6.69 1.53 12.08
11/12/2021 8:45:00 PM 8.27 46.886 0.067 6.69 1.52 12.1
11/12/2021 9:00:00 PM 8.23 46.814 0.066 6.69 1.5 12.11
11/12/2021 9:15:00 PM 8.18 46.724 0.066 6.69 1.53 12.12
11/12/2021 9:30:00 PM 8.11 46.598 0.066 6.69 1.53 12.14
11/12/2021 9:45:00 PM 8.05 46.49 0.066 6.69 1.55 12.15
11/12/2021 10:00:00 PM 7.99 46.382 0.066 6.69 1.58 12.17
11/12/2021 10:15:00 PM 7.94 46.292 0.066 6.69 1.5 12.18
11/12/2021 10:30:00 PM 7.89 46.202 0.066 6.69 1.59 12.19
11/12/2021 10:45:00 PM 7.84 46.112 0.066 6.69 1.47 12.2
11/12/2021 11:00:00 PM 7.78 46.004 0.066 6.69 1.46 12.23
11/12/2021 11:15:00 PM 7.72 45.896 0.066 6.69 1.52 12.24
11/12/2021 11:30:00 PM 7.67 45.806 0.066 6.69 1.56 12.26
11/12/2021 11:45:00 PM 7.61 45.698 0.066 6.69 1.49 12.27
11/13/2021 12:00:00 AM 7.55 45.59 0.066 6.68 1.54 12.29
11/13/2021 12:15:00 AM 7.49 45.482 0.066 6.69 1.56 12.3
11/13/2021 12:30:00 AM 7.45 45.41 0.066 6.69 1.55 12.31
11/13/2021 12:45:00 AM 7.4 45.32 0.066 6.68 1.55 12.33
11/13/2021 1:00:00 AM 7.35 45.23 0.066 6.69 1.52 12.34
11/13/2021 1:15:00 AM 7.32 45.176 0.066 6.69 1.56 12.35
11/13/2021 1:30:00 AM 7.3 45.14 0.066 6.68 1.52 12.37
11/13/2021 1:45:00 AM 7.27 45.086 0.066 6.68 1.48 12.37
11/13/2021 2:00:00 AM 7.25 45.05 0.066 6.68 1.55 12.38
11/13/2021 2:15:00 AM 7.23 45.014 0.066 6.68 1.47 12.39
11/13/2021 2:30:00 AM 7.19 44.942 0.065 6.68 1.49 12.41
11/13/2021 2:45:00 AM 7.18 44.924 0.065 6.68 1.54 12.41
11/13/2021 3:00:00 AM 7.17 44.906 0.065 6.68 1.47 12.42
11/13/2021 3:15:00 AM 7.16 44.888 0.065 6.68 1.51 12.42
11/13/2021 3:30:00 AM 7.14 44.852 0.065 6.69 1.48 12.43
11/13/2021 3:45:00 AM 7.12 44.816 0.065 6.69 1.45 12.43
11/13/2021 4:00:00 AM 7.1 44.78 0.065 6.68 1.48 12.44
11/13/2021 4:15:00 AM 7.09 44.762 0.065 6.68 1.64 12.44
11/13/2021 4:30:00 AM 7.09 44.762 0.065 6.68 1.44 12.44
11/13/2021 4:45:00 AM 7.08 44.744 0.065 6.68 1.6 12.44
11/13/2021 5:00:00 AM 7.07 44.726 0.065 6.68 2.29 12.45
11/13/2021 5:15:00 AM 7.06 44.708 0.065 6.69 1.6 12.45
11/13/2021 5:30:00 AM 7.06 44.708 0.065 6.69 1.72 12.45
11/13/2021 5:45:00 AM 7.05 44.69 0.065 6.68 1.58 12.45
11/13/2021 6:00:00 AM 7.04 44.672 0.065 6.68 1.48 12.45
11/13/2021 6:15:00 AM 7.04 44.672 0.065 6.68 1.46 12.45
11/13/2021 6:30:00 AM 7.03 44.654 0.065 6.68 1.46 12.46
11/13/2021 6:45:00 AM 7.02 44.636 0.065 6.68 1.51 12.46
11/13/2021 7:00:00 AM 7.02 44.636 0.065 6.68 1.47 12.46
11/13/2021 7:15:00 AM 7.02 44.636 0.065 6.68 1.48 12.46
11/13/2021 7:30:00 AM 7.03 44.654 0.065 6.69 1.47 12.48
11/13/2021 7:45:00 AM 7.03 44.654 0.065 6.69 1.47 12.48
11/13/2021 8:00:00 AM 7.04 44.672 0.065 6.69 1.41 12.5
11/13/2021 8:15:00 AM 7.06 44.708 0.065 6.7 1.4 12.53
11/13/2021 8:30:00 AM 7.09 44.762 0.065 6.71 1.42 12.57
11/13/2021 8:45:00 AM 7.12 44.816 0.065 6.72 1.41 12.58
11/13/2021 9:00:00 AM 7.11 44.798 0.064 6.73 1.47 12.59
11/13/2021 9:15:00 AM 7.14 44.852 0.064 6.74 1.43 12.63
11/13/2021 9:30:00 AM 7.16 44.888 0.064 6.75 1.45 12.66
11/13/2021 9:45:00 AM 7.17 44.906 0.064 6.75 1.48 12.67
11/13/2021 10:00:00 AM 7.16 44.888 0.064 6.76 1.42 12.67
11/13/2021 10:15:00 AM 7.15 44.87 0.064 6.76 1.41 12.67
11/13/2021 10:30:00 AM 7.17 44.906 0.064 6.77 1.48 12.71
11/13/2021 10:45:00 AM 7.26 45.068 0.064 6.78 1.55 12.74
11/13/2021 11:00:00 AM 7.31 45.158 0.064 6.78 1.51 12.73
11/13/2021 11:15:00 AM 7.26 45.068 0.064 6.78 1.44 12.72
11/13/2021 11:30:00 AM 7.28 45.104 0.064 6.78 1.41 12.72
11/13/2021 11:45:00 AM 7.28 45.104 0.064 6.78 1.39 12.7
11/13/2021 12:00:00 PM 7.25 45.05 0.064 6.77 1.36 12.65
11/13/2021 12:15:00 PM 7.36 45.248 0.064 6.78 1.42 12.67
11/13/2021 12:30:00 PM 7.42 45.356 0.064 6.78 1.43 12.67
11/13/2021 12:45:00 PM 7.37 45.266 0.064 6.78 1.43 12.67
11/13/2021 1:00:00 PM 7.35 45.23 0.064 6.78 1.45 12.68
11/13/2021 1:15:00 PM 7.34 45.212 0.064 6.78 1.44 12.67
11/13/2021 1:30:00 PM 7.38 45.284 0.064 6.79 1.4 12.65
11/13/2021 1:45:00 PM 7.37 45.266 0.064 6.78 1.46 12.63
11/13/2021 2:00:00 PM 7.34 45.212 0.064 6.77 1.42 12.61
11/13/2021 2:15:00 PM 7.3 45.14 0.064 6.77 1.39 12.62
11/13/2021 2:30:00 PM 7.28 45.104 0.064 6.77 1.38 12.64
11/13/2021 2:45:00 PM 7.28 45.104 0.064 6.78 1.42 12.64
11/13/2021 3:00:00 PM 7.28 45.104 0.064 6.77 1.45 12.65
11/13/2021 3:15:00 PM 7.25 45.05 0.064 6.77 1.43 12.64
11/13/2021 3:30:00 PM 7.24 45.032 0.064 6.77 1.4 12.64
11/13/2021 3:45:00 PM 7.19 44.942 0.064 6.77 1.41 12.62
11/13/2021 4:00:00 PM 7.15 44.87 0.064 6.75 1.4 12.58
11/13/2021 4:15:00 PM 7.12 44.816 0.064 6.75 1.41 12.57
11/13/2021 4:30:00 PM 7.1 44.78 0.064 6.74 1.41 12.54
11/13/2021 4:45:00 PM 7.07 44.726 0.064 6.73 1.49 12.52
11/13/2021 5:00:00 PM 7.05 44.69 0.064 6.73 1.45 12.51
11/13/2021 5:15:00 PM 7.02 44.636 0.064 6.72 1.51 12.5
11/13/2021 5:30:00 PM 7 44.6 0.064 6.72 1.43 12.49
11/13/2021 5:45:00 PM 6.97 44.546 0.064 6.73 1.42 12.5
11/13/2021 6:00:00 PM 6.95 44.51 0.064 6.72 1.44 12.51
11/13/2021 6:15:00 PM 6.93 44.474 0.064 6.71 1.5 12.51
11/13/2021 6:30:00 PM 6.9 44.42 0.064 6.71 1.48 12.52
11/13/2021 6:45:00 PM 6.89 44.402 0.064 6.72 1.42 12.52
11/13/2021 7:00:00 PM 6.88 44.384 0.064 6.72 1.46 12.53
11/13/2021 7:15:00 PM 6.86 44.348 0.064 6.71 1.43 12.53
11/13/2021 7:30:00 PM 6.84 44.312 0.064 6.72 1.48 12.54
11/13/2021 7:45:00 PM 6.83 44.294 0.064 6.72 1.42 12.54
11/13/2021 8:00:00 PM 6.81 44.258 0.064 6.71 1.42 12.55
11/13/2021 8:15:00 PM 6.8 44.24 0.064 6.71 1.43 12.56
11/13/2021 8:30:00 PM 6.79 44.222 0.064 6.72 1.45 12.56
11/13/2021 8:45:00 PM 6.77 44.186 0.064 6.71 1.46 12.57
11/13/2021 9:00:00 PM 6.76 44.168 0.064 6.71 1.48 12.58
11/13/2021 9:15:00 PM 6.74 44.132 0.064 6.71 1.45 12.58
11/13/2021 9:30:00 PM 6.73 44.114 0.064 6.71 1.62 12.59
11/13/2021 9:45:00 PM 6.71 44.078 0.064 6.71 1.39 12.6
11/13/2021 10:00:00 PM 6.69 44.042 0.064 6.71 1.49 12.6
11/13/2021 10:15:00 PM 6.68 44.024 0.064 6.71 1.42 12.6
11/13/2021 10:30:00 PM 6.68 44.024 0.064 6.71 1.41 12.61
11/13/2021 10:45:00 PM 6.67 44.006 0.064 6.7 1.41 12.61
11/13/2021 11:00:00 PM 6.66 43.988 0.064 6.71 1.48 12.62
11/13/2021 11:15:00 PM 6.65 43.97 0.064 6.7 1.4 12.62
11/13/2021 11:30:00 PM 6.64 43.952 0.064 6.7 1.46 12.62
11/13/2021 11:45:00 PM 6.64 43.952 0.064 6.71 1.42 12.62
11/14/2021 12:00:00 AM 6.63 43.934 0.064 6.7 1.47 12.62
11/14/2021 12:15:00 AM 6.62 43.916 0.064 6.7 1.5 12.62
11/14/2021 12:30:00 AM 6.61 43.898 0.064 6.71 1.51 12.63
11/14/2021 12:45:00 AM 6.6 43.88 0.064 6.71 1.55 12.64
11/14/2021 1:00:00 AM 6.58 43.844 0.064 6.71 1.76 12.63
11/14/2021 1:15:00 AM 6.57 43.826 0.064 6.7 1.4 12.65
11/14/2021 1:30:00 AM 6.55 43.79 0.064 6.71 1.41 12.65
11/14/2021 1:45:00 AM 6.54 43.772 0.064 6.7 1.42 12.66
11/14/2021 2:00:00 AM 6.51 43.718 0.064 6.7 1.42 12.66
11/14/2021 2:15:00 AM 6.49 43.682 0.064 6.7 1.42 12.67
11/14/2021 2:30:00 AM 6.49 43.682 0.064 6.71 1.43 12.68
11/14/2021 2:45:00 AM 6.48 43.664 0.064 6.72 1.48 12.68
11/14/2021 3:00:00 AM 6.47 43.646 0.064 6.71 1.49 12.68
11/14/2021 3:15:00 AM 6.46 43.628 0.064 6.7 1.46 12.69
11/14/2021 3:30:00 AM 6.44 43.592 0.064 6.7 1.42 12.7
11/14/2021 3:45:00 AM 6.43 43.574 0.064 6.71 1.42 12.7
11/14/2021 4:00:00 AM 6.42 43.556 0.064 6.71 1.59 12.7
11/14/2021 4:15:00 AM 6.4 43.52 0.064 6.7 1.39 12.7
11/14/2021 4:30:00 AM 6.39 43.502 0.064 6.71 1.51 12.71
11/14/2021 4:45:00 AM 6.38 43.484 0.064 6.71 1.43 12.72
11/14/2021 5:00:00 AM 6.38 43.484 0.064 6.7 1.63 12.72
11/14/2021 5:15:00 AM 6.36 43.448 0.064 6.7 1.38 12.72
11/14/2021 5:30:00 AM 6.35 43.43 0.064 6.71 1.61 12.72
11/14/2021 5:45:00 AM 6.34 43.412 0.064 6.7 1.47 12.73
11/14/2021 6:00:00 AM 6.33 43.394 0.064 6.71 1.39 12.73
11/14/2021 6:15:00 AM 6.32 43.376 0.064 6.71 1.42 12.74
11/14/2021 6:30:00 AM 6.31 43.358 0.064 6.71 1.48 12.74
11/14/2021 6:45:00 AM 6.3 43.34 0.064 6.71 1.38 12.74
11/14/2021 7:00:00 AM 6.29 43.322 0.064 6.71 1.37 12.75
11/14/2021 7:15:00 AM 6.28 43.304 0.064 6.71 1.37 12.76
11/14/2021 7:30:00 AM 6.28 43.304 0.064 6.71 1.4 12.8
11/14/2021 7:45:00 AM 6.28 43.304 0.064 6.72 1.34 12.84
11/14/2021 8:00:00 AM 6.29 43.322 0.064 6.73 1.37 12.88
11/14/2021 8:15:00 AM 6.29 43.322 0.064 6.73 1.42 12.91
11/14/2021 8:30:00 AM 6.3 43.34 0.064 6.74 1.4 12.93
11/14/2021 8:45:00 AM 6.31 43.358 0.064 6.74 1.4 12.94
11/14/2021 9:00:00 AM 6.32 43.376 0.064 6.75 1.35 12.95
11/14/2021 9:15:00 AM 6.31 43.358 0.064 6.75 1.41 12.97
11/14/2021 9:30:00 AM 6.33 43.394 0.064 6.76 1.33 12.99
11/14/2021 9:45:00 AM 6.37 43.466 0.064 6.76 1.34 13
11/14/2021 10:00:00 AM 6.44 43.592 0.064 6.78 1.41 13.04
11/14/2021 10:15:00 AM 6.49 43.682 0.064 6.78 1.35 13.04
11/14/2021 10:30:00 AM 6.52 43.736 0.064 6.78 1.38 13.03
11/14/2021 10:45:00 AM 6.56 43.808 0.064 6.78 1.37 13.03
11/14/2021 11:00:00 AM 6.6 43.88 0.064 6.79 1.4 13.02
11/14/2021 11:15:00 AM 6.61 43.898 0.064 6.79 1.35 13
11/14/2021 11:30:00 AM 6.68 44.024 0.064 6.79 1.37 12.99
11/14/2021 11:45:00 AM 6.67 44.006 0.064 6.78 1.49 12.97
11/14/2021 12:00:00 PM 6.67 44.006 0.064 6.79 1.39 12.95
11/14/2021 12:15:00 PM 6.73 44.114 0.064 6.78 1.37 12.94
11/14/2021 12:30:00 PM 6.74 44.132 0.063 6.79 1.36 12.92
11/14/2021 12:45:00 PM 6.73 44.114 0.064 6.79 1.37 12.9
11/14/2021 1:00:00 PM 6.71 44.078 0.064 6.78 1.35 12.88
11/14/2021 1:15:00 PM 6.7 44.06 0.064 6.78 1.34 12.87
11/14/2021 1:30:00 PM 6.67 44.006 0.064 6.79 1.34 12.87
11/14/2021 1:45:00 PM 6.66 43.988 0.064 6.79 1.36 12.87
11/14/2021 2:00:00 PM 6.64 43.952 0.064 6.78 1.36 12.86
11/14/2021 2:15:00 PM 6.63 43.934 0.064 6.77 1.34 12.84
11/14/2021 2:30:00 PM 6.61 43.898 0.064 6.77 1.39 12.83
11/14/2021 2:45:00 PM 6.59 43.862 0.064 6.76 1.42 12.8
11/14/2021 3:00:00 PM 6.57 43.826 0.064 6.76 1.37 12.79
11/14/2021 3:15:00 PM 6.56 43.808 0.064 6.76 1.35 12.77
11/14/2021 3:30:00 PM 6.54 43.772 0.064 6.75 1.36 12.76
11/14/2021 3:45:00 PM 6.51 43.718 0.064 6.76 1.4 12.76
11/14/2021 4:00:00 PM 6.46 43.628 0.064 6.75 1.4 12.75
11/14/2021 4:15:00 PM 6.42 43.556 0.064 6.74 1.38 12.74
11/14/2021 4:30:00 PM 6.37 43.466 0.064 6.73 1.43 12.72
11/14/2021 4:45:00 PM 6.23 43.214 0.064 6.73 1.42 12.7
11/14/2021 5:00:00 PM 6.18 43.124 0.063 6.72 1.42 12.71
11/14/2021 5:15:00 PM 6.03 42.854 0.063 6.72 1.41 12.71
11/14/2021 5:30:00 PM 5.98 42.764 0.063 6.71 1.43 12.72
11/14/2021 5:45:00 PM 5.94 42.692 0.063 6.71 1.36 12.74
11/14/2021 6:00:00 PM 5.87 42.566 0.063 6.71 1.43 12.76
11/14/2021 6:15:00 PM 5.84 42.512 0.063 6.71 1.44 12.78
11/14/2021 6:30:00 PM 5.79 42.422 0.063 6.71 1.43 12.81
11/14/2021 6:45:00 PM 5.77 42.386 0.063 6.71 1.46 12.83
11/14/2021 7:00:00 PM 5.75 42.35 0.063 6.71 1.51 12.84
11/14/2021 7:15:00 PM 5.73 42.314 0.063 6.71 1.49 12.85
11/14/2021 7:30:00 PM 5.71 42.278 0.063 6.71 1.41 12.86
11/14/2021 7:45:00 PM 5.7 42.26 0.063 6.71 1.42 12.87
11/14/2021 8:00:00 PM 5.69 42.242 0.063 6.71 1.46 12.88
11/14/2021 8:15:00 PM 5.67 42.206 0.063 6.71 1.91 12.88
11/14/2021 8:30:00 PM 5.67 42.206 0.064 6.71 1.58 12.89
11/14/2021 8:45:00 PM 5.66 42.188 0.064 6.71 1.72 12.89
11/14/2021 9:00:00 PM 5.65 42.17 0.064 6.71 1.62 12.89
11/14/2021 9:15:00 PM 5.64 42.152 0.064 6.71 1.77 12.9
11/14/2021 9:30:00 PM 5.64 42.152 0.064 6.71 1.58 12.9
11/14/2021 9:45:00 PM 5.63 42.134 0.064 6.71 1.57 12.9
11/14/2021 10:00:00 PM 5.62 42.116 0.064 6.71 1.67 12.91
11/14/2021 10:15:00 PM 5.62 42.116 0.064 6.7 2.88 12.9
11/14/2021 10:30:00 PM 5.61 42.098 0.064 6.7 1.79 12.91
11/14/2021 10:45:00 PM 5.6 42.08 0.064 6.7 1.78 12.91
11/14/2021 11:00:00 PM 5.6 42.08 0.064 6.71 1.62 12.91
11/14/2021 11:15:00 PM 5.59 42.062 0.064 6.71 1.64 12.92
11/14/2021 11:30:00 PM 5.59 42.062 0.064 6.71 1.61 12.91
11/14/2021 11:45:00 PM 5.59 42.062 0.064 6.7 1.58 12.91
11/15/2021 12:00:00 AM 5.58 42.044 0.064 6.71 1.63 12.92
11/15/2021 12:15:00 AM 5.58 42.044 0.064 6.71 1.71 12.92
11/15/2021 12:30:00 AM 5.57 42.026 0.064 6.71 1.6 12.92
11/15/2021 12:45:00 AM 5.56 42.008 0.064 6.7 1.56 12.91
11/15/2021 1:00:00 AM 5.56 42.008 0.064 6.71 1.57 12.92
11/15/2021 1:15:00 AM 5.55 41.99 0.064 6.7 1.54 12.92
11/15/2021 1:30:00 AM 5.55 41.99 0.064 6.71 1.56 12.93
11/15/2021 1:45:00 AM 5.53 41.954 0.064 6.71 1.55 12.93
11/15/2021 2:00:00 AM 5.53 41.954 0.064 6.71 1.62 12.94
11/15/2021 2:15:00 AM 5.53 41.954 0.064 6.71 1.48 12.94
11/15/2021 2:30:00 AM 5.52 41.936 0.064 6.71 1.55 12.94
11/15/2021 2:45:00 AM 5.52 41.936 0.064 6.71 1.5 12.94
11/15/2021 3:00:00 AM 5.51 41.918 0.064 6.71 1.52 12.94
11/15/2021 3:15:00 AM 5.51 41.918 0.064 6.71 1.55 12.95
11/15/2021 3:30:00 AM 5.51 41.918 0.064 6.71 1.48 12.94
11/15/2021 3:45:00 AM 5.5 41.9 0.064 6.71 1.5 12.95
11/15/2021 4:00:00 AM 5.5 41.9 0.064 6.71 1.52 12.94
11/15/2021 4:15:00 AM 5.5 41.9 0.064 6.71 1.48 12.95
11/15/2021 4:30:00 AM 5.49 41.882 0.064 6.71 1.5 12.95
11/15/2021 4:45:00 AM 5.49 41.882 0.064 6.71 1.47 12.95
11/15/2021 5:00:00 AM 5.49 41.882 0.064 6.71 1.46 12.95
11/15/2021 5:15:00 AM 5.48 41.864 0.064 6.71 1.48 12.95
11/15/2021 5:30:00 AM 5.48 41.864 0.064 6.71 1.49 12.96
11/15/2021 5:45:00 AM 5.48 41.864 0.064 6.71 1.48 12.96
11/15/2021 6:00:00 AM 5.48 41.864 0.064 6.71 1.48 12.96
11/15/2021 6:15:00 AM 5.48 41.864 0.064 6.71 1.53 12.96
11/15/2021 6:30:00 AM 5.48 41.864 0.064 6.71 1.43 12.97
11/15/2021 6:45:00 AM 5.48 41.864 0.064 6.71 1.56 12.97
11/15/2021 7:00:00 AM 5.47 41.846 0.064 6.71 1.49 12.97
11/15/2021 7:15:00 AM 5.48 41.864 0.064 6.71 1.52 12.99
11/15/2021 7:30:00 AM 5.48 41.864 0.064 6.72 1.48 13.02
11/15/2021 7:45:00 AM 5.49 41.882 0.064 6.72 1.56 13.04
11/15/2021 8:00:00 AM 5.5 41.9 0.064 6.73 1.43 13.08
11/15/2021 8:15:00 AM 5.51 41.918 0.064 6.74 1.43 13.11
11/15/2021 8:30:00 AM 5.54 41.972 0.064 6.75 1.41 13.15
11/15/2021 8:45:00 AM 5.58 42.044 0.064 6.76 1.5 13.19
11/15/2021 9:00:00 AM 5.63 42.134 0.064 6.77